<?xml version="1.0" encoding="UTF-8" standalone="no" ?>
<gpx xmlns="http://www.topografix.com/GPX/1/1" xmlns:xsi="http://www.w3.org/2001/XMLSchema-instance" xsi:schemaLocation="http://www.topografix.com/GPX/1/1 http://www.topografix.com/GPX/1/1/gpx.xsd" version="1.1" creator="VisuGPX - https://www.visugpx.com">
  <metadata>
    <name>ST MAURICE SUR DARGOIRE 18 02 2020 TRACE30:46</name>
    <desc><![CDATA[File with points/tracks from Locus Map/3.43.1]]></desc>
  </metadata>
  <trk>
    <name><![CDATA[2020-02-18 13:30:46]]></name>
    <extensions>
      <line xmlns="http://www.topografix.com/GPX/gpx_style/0/2">
        <color>0000FF</color>
        <opacity>0.59</opacity>
        <width>6.0</width>
      </line>
    </extensions>
    <trkseg>
      <trkpt lat="45.57905" lon="4.6303">
        <ele>452</ele>
        <time>2020-02-18T12:30:42.000Z</time>
      </trkpt>
      <trkpt lat="45.57898" lon="4.63021">
        <ele>450.02</ele>
        <time>2020-02-18T12:30:52.000Z</time>
      </trkpt>
      <trkpt lat="45.5789" lon="4.63013">
        <ele>448.94</ele>
        <time>2020-02-18T12:31:02.000Z</time>
      </trkpt>
      <trkpt lat="45.57881" lon="4.63002">
        <ele>447.91</ele>
        <time>2020-02-18T12:31:12.000Z</time>
      </trkpt>
      <trkpt lat="45.57872" lon="4.62994">
        <ele>447.9</ele>
        <time>2020-02-18T12:31:22.000Z</time>
      </trkpt>
      <trkpt lat="45.57863" lon="4.62982">
        <ele>445.16</ele>
        <time>2020-02-18T12:31:32.000Z</time>
      </trkpt>
      <trkpt lat="45.57851" lon="4.62963">
        <ele>448.15</ele>
        <time>2020-02-18T12:31:42.000Z</time>
      </trkpt>
      <trkpt lat="45.57841" lon="4.62953">
        <ele>446.52</ele>
        <time>2020-02-18T12:31:52.000Z</time>
      </trkpt>
      <trkpt lat="45.57834" lon="4.62947">
        <ele>447.83</ele>
        <time>2020-02-18T12:32:02.000Z</time>
      </trkpt>
      <trkpt lat="45.57825" lon="4.62938">
        <ele>448.42</ele>
        <time>2020-02-18T12:32:12.000Z</time>
      </trkpt>
      <trkpt lat="45.57813" lon="4.62925">
        <ele>448.49</ele>
        <time>2020-02-18T12:32:22.000Z</time>
      </trkpt>
      <trkpt lat="45.57804" lon="4.62912">
        <ele>448.28</ele>
        <time>2020-02-18T12:32:32.000Z</time>
      </trkpt>
      <trkpt lat="45.57795" lon="4.62898">
        <ele>448.47</ele>
        <time>2020-02-18T12:32:42.000Z</time>
      </trkpt>
      <trkpt lat="45.57787" lon="4.62886">
        <ele>448.51</ele>
        <time>2020-02-18T12:32:52.000Z</time>
      </trkpt>
      <trkpt lat="45.57777" lon="4.62873">
        <ele>444.51</ele>
        <time>2020-02-18T12:33:02.000Z</time>
      </trkpt>
      <trkpt lat="45.57769" lon="4.62859">
        <ele>444.67</ele>
        <time>2020-02-18T12:33:12.000Z</time>
      </trkpt>
      <trkpt lat="45.57763" lon="4.62844">
        <ele>443.86</ele>
        <time>2020-02-18T12:33:22.000Z</time>
      </trkpt>
      <trkpt lat="45.57758" lon="4.62832">
        <ele>443.45</ele>
        <time>2020-02-18T12:33:32.000Z</time>
      </trkpt>
      <trkpt lat="45.57749" lon="4.6282">
        <ele>443.2</ele>
        <time>2020-02-18T12:33:42.000Z</time>
      </trkpt>
      <trkpt lat="45.5774" lon="4.62807">
        <ele>438.33</ele>
        <time>2020-02-18T12:33:52.000Z</time>
      </trkpt>
      <trkpt lat="45.57731" lon="4.62795">
        <ele>440.54</ele>
        <time>2020-02-18T12:34:02.000Z</time>
      </trkpt>
      <trkpt lat="45.57722" lon="4.62782">
        <ele>439.78</ele>
        <time>2020-02-18T12:34:12.000Z</time>
      </trkpt>
      <trkpt lat="45.57712" lon="4.62772">
        <ele>438.08</ele>
        <time>2020-02-18T12:34:22.000Z</time>
      </trkpt>
      <trkpt lat="45.57701" lon="4.62763">
        <ele>435.96</ele>
        <time>2020-02-18T12:34:32.000Z</time>
      </trkpt>
      <trkpt lat="45.57689" lon="4.62754">
        <ele>434.88</ele>
        <time>2020-02-18T12:34:42.000Z</time>
      </trkpt>
      <trkpt lat="45.57679" lon="4.62742">
        <ele>430.61</ele>
        <time>2020-02-18T12:34:52.000Z</time>
      </trkpt>
      <trkpt lat="45.5767" lon="4.6273">
        <ele>429.4</ele>
        <time>2020-02-18T12:35:02.000Z</time>
      </trkpt>
      <trkpt lat="45.5766" lon="4.62718">
        <ele>427.35</ele>
        <time>2020-02-18T12:35:12.000Z</time>
      </trkpt>
      <trkpt lat="45.57652" lon="4.62706">
        <ele>426.9</ele>
        <time>2020-02-18T12:35:22.000Z</time>
      </trkpt>
      <trkpt lat="45.57644" lon="4.62694">
        <ele>426.09</ele>
        <time>2020-02-18T12:35:32.000Z</time>
      </trkpt>
      <trkpt lat="45.57635" lon="4.62681">
        <ele>425.26</ele>
        <time>2020-02-18T12:35:42.000Z</time>
      </trkpt>
      <trkpt lat="45.57627" lon="4.62668">
        <ele>425.81</ele>
        <time>2020-02-18T12:35:52.000Z</time>
      </trkpt>
      <trkpt lat="45.57619" lon="4.62656">
        <ele>424.3</ele>
        <time>2020-02-18T12:36:02.000Z</time>
      </trkpt>
      <trkpt lat="45.5761" lon="4.62645">
        <ele>423.24</ele>
        <time>2020-02-18T12:36:12.000Z</time>
      </trkpt>
      <trkpt lat="45.57603" lon="4.62634">
        <ele>422.25</ele>
        <time>2020-02-18T12:36:22.000Z</time>
      </trkpt>
      <trkpt lat="45.57594" lon="4.62627">
        <ele>422.64</ele>
        <time>2020-02-18T12:36:32.000Z</time>
      </trkpt>
      <trkpt lat="45.5759" lon="4.62625">
        <ele>422.94</ele>
        <time>2020-02-18T12:36:42.000Z</time>
      </trkpt>
      <trkpt lat="45.57587" lon="4.62624">
        <ele>421.72</ele>
        <time>2020-02-18T12:36:52.000Z</time>
      </trkpt>
      <trkpt lat="45.57582" lon="4.62615">
        <ele>420</ele>
        <time>2020-02-18T12:37:02.000Z</time>
      </trkpt>
      <trkpt lat="45.57575" lon="4.62606">
        <ele>420.67</ele>
        <time>2020-02-18T12:37:12.000Z</time>
      </trkpt>
      <trkpt lat="45.57563" lon="4.62603">
        <ele>422.45</ele>
        <time>2020-02-18T12:37:22.000Z</time>
      </trkpt>
      <trkpt lat="45.57557" lon="4.62614">
        <ele>421.65</ele>
        <time>2020-02-18T12:37:32.000Z</time>
      </trkpt>
      <trkpt lat="45.57551" lon="4.62626">
        <ele>419.94</ele>
        <time>2020-02-18T12:37:42.000Z</time>
      </trkpt>
      <trkpt lat="45.57544" lon="4.62638">
        <ele>417.58</ele>
        <time>2020-02-18T12:37:52.000Z</time>
      </trkpt>
      <trkpt lat="45.57535" lon="4.62652">
        <ele>415.51</ele>
        <time>2020-02-18T12:38:02.000Z</time>
      </trkpt>
      <trkpt lat="45.57528" lon="4.6266">
        <ele>414.97</ele>
        <time>2020-02-18T12:38:12.000Z</time>
      </trkpt>
      <trkpt lat="45.57524" lon="4.62666">
        <ele>414.1</ele>
        <time>2020-02-18T12:38:22.000Z</time>
      </trkpt>
      <trkpt lat="45.57515" lon="4.62676">
        <ele>412.22</ele>
        <time>2020-02-18T12:38:32.000Z</time>
      </trkpt>
      <trkpt lat="45.57507" lon="4.62689">
        <ele>409.41</ele>
        <time>2020-02-18T12:38:42.000Z</time>
      </trkpt>
      <trkpt lat="45.57498" lon="4.62703">
        <ele>405.87</ele>
        <time>2020-02-18T12:38:52.000Z</time>
      </trkpt>
      <trkpt lat="45.57489" lon="4.62715">
        <ele>405.88</ele>
        <time>2020-02-18T12:39:02.000Z</time>
      </trkpt>
      <trkpt lat="45.57479" lon="4.62728">
        <ele>406.04</ele>
        <time>2020-02-18T12:39:12.000Z</time>
      </trkpt>
      <trkpt lat="45.57469" lon="4.6274">
        <ele>406.32</ele>
        <time>2020-02-18T12:39:22.000Z</time>
      </trkpt>
      <trkpt lat="45.5746" lon="4.62751">
        <ele>404.76</ele>
        <time>2020-02-18T12:39:32.000Z</time>
      </trkpt>
      <trkpt lat="45.57451" lon="4.62761">
        <ele>402.04</ele>
        <time>2020-02-18T12:39:42.000Z</time>
      </trkpt>
      <trkpt lat="45.57442" lon="4.6277">
        <ele>399.72</ele>
        <time>2020-02-18T12:39:52.000Z</time>
      </trkpt>
      <trkpt lat="45.57433" lon="4.62781">
        <ele>398.57</ele>
        <time>2020-02-18T12:40:02.000Z</time>
      </trkpt>
      <trkpt lat="45.57427" lon="4.62797">
        <ele>399.98</ele>
        <time>2020-02-18T12:40:12.000Z</time>
      </trkpt>
      <trkpt lat="45.57423" lon="4.62813">
        <ele>396.72</ele>
        <time>2020-02-18T12:40:22.000Z</time>
      </trkpt>
      <trkpt lat="45.57424" lon="4.6283">
        <ele>394.65</ele>
        <time>2020-02-18T12:40:32.000Z</time>
      </trkpt>
      <trkpt lat="45.57425" lon="4.62848">
        <ele>393.45</ele>
        <time>2020-02-18T12:40:42.000Z</time>
      </trkpt>
      <trkpt lat="45.57426" lon="4.62866">
        <ele>391.88</ele>
        <time>2020-02-18T12:40:52.000Z</time>
      </trkpt>
      <trkpt lat="45.57423" lon="4.62883">
        <ele>390.36</ele>
        <time>2020-02-18T12:41:02.000Z</time>
      </trkpt>
      <trkpt lat="45.57425" lon="4.62887">
        <ele>390.47</ele>
        <time>2020-02-18T12:41:12.000Z</time>
      </trkpt>
      <trkpt lat="45.57424" lon="4.62886">
        <ele>390.95</ele>
        <time>2020-02-18T12:41:46.000Z</time>
      </trkpt>
      <trkpt lat="45.57421" lon="4.62892">
        <ele>391.42</ele>
        <time>2020-02-18T12:41:56.000Z</time>
      </trkpt>
      <trkpt lat="45.57413" lon="4.62902">
        <ele>391.87</ele>
        <time>2020-02-18T12:42:06.000Z</time>
      </trkpt>
      <trkpt lat="45.57404" lon="4.62911">
        <ele>393.47</ele>
        <time>2020-02-18T12:42:16.000Z</time>
      </trkpt>
      <trkpt lat="45.57393" lon="4.62919">
        <ele>393.09</ele>
        <time>2020-02-18T12:42:26.000Z</time>
      </trkpt>
      <trkpt lat="45.57383" lon="4.62928">
        <ele>394.62</ele>
        <time>2020-02-18T12:42:36.000Z</time>
      </trkpt>
      <trkpt lat="45.57373" lon="4.62938">
        <ele>394.48</ele>
        <time>2020-02-18T12:42:46.000Z</time>
      </trkpt>
      <trkpt lat="45.57363" lon="4.62948">
        <ele>393.97</ele>
        <time>2020-02-18T12:42:56.000Z</time>
      </trkpt>
      <trkpt lat="45.57354" lon="4.6296">
        <ele>392.45</ele>
        <time>2020-02-18T12:43:06.000Z</time>
      </trkpt>
      <trkpt lat="45.57344" lon="4.62971">
        <ele>390.47</ele>
        <time>2020-02-18T12:43:16.000Z</time>
      </trkpt>
      <trkpt lat="45.57335" lon="4.62982">
        <ele>390.8</ele>
        <time>2020-02-18T12:43:26.000Z</time>
      </trkpt>
      <trkpt lat="45.57325" lon="4.62995">
        <ele>390.98</ele>
        <time>2020-02-18T12:43:36.000Z</time>
      </trkpt>
      <trkpt lat="45.57315" lon="4.63006">
        <ele>392.26</ele>
        <time>2020-02-18T12:43:46.000Z</time>
      </trkpt>
      <trkpt lat="45.57307" lon="4.63018">
        <ele>393.2</ele>
        <time>2020-02-18T12:43:56.000Z</time>
      </trkpt>
      <trkpt lat="45.57298" lon="4.6303">
        <ele>393.31</ele>
        <time>2020-02-18T12:44:06.000Z</time>
      </trkpt>
      <trkpt lat="45.57289" lon="4.63044">
        <ele>393.44</ele>
        <time>2020-02-18T12:44:16.000Z</time>
      </trkpt>
      <trkpt lat="45.57281" lon="4.63058">
        <ele>394.23</ele>
        <time>2020-02-18T12:44:26.000Z</time>
      </trkpt>
      <trkpt lat="45.57271" lon="4.63071">
        <ele>394.79</ele>
        <time>2020-02-18T12:44:36.000Z</time>
      </trkpt>
      <trkpt lat="45.57264" lon="4.63085">
        <ele>394.66</ele>
        <time>2020-02-18T12:44:46.000Z</time>
      </trkpt>
      <trkpt lat="45.57257" lon="4.63092">
        <ele>394.44</ele>
        <time>2020-02-18T12:44:56.000Z</time>
      </trkpt>
      <trkpt lat="45.5725" lon="4.63086">
        <ele>393.88</ele>
        <time>2020-02-18T12:45:06.000Z</time>
      </trkpt>
      <trkpt lat="45.5724" lon="4.63076">
        <ele>391.19</ele>
        <time>2020-02-18T12:45:16.000Z</time>
      </trkpt>
      <trkpt lat="45.57231" lon="4.63065">
        <ele>389.94</ele>
        <time>2020-02-18T12:45:26.000Z</time>
      </trkpt>
      <trkpt lat="45.57222" lon="4.63055">
        <ele>387.92</ele>
        <time>2020-02-18T12:45:36.000Z</time>
      </trkpt>
      <trkpt lat="45.5721" lon="4.63047">
        <ele>388.04</ele>
        <time>2020-02-18T12:45:46.000Z</time>
      </trkpt>
      <trkpt lat="45.57198" lon="4.63038">
        <ele>387.62</ele>
        <time>2020-02-18T12:45:56.000Z</time>
      </trkpt>
      <trkpt lat="45.57187" lon="4.6303">
        <ele>386.75</ele>
        <time>2020-02-18T12:46:06.000Z</time>
      </trkpt>
      <trkpt lat="45.57175" lon="4.63021">
        <ele>387.04</ele>
        <time>2020-02-18T12:46:16.000Z</time>
      </trkpt>
      <trkpt lat="45.57164" lon="4.63013">
        <ele>386.91</ele>
        <time>2020-02-18T12:46:26.000Z</time>
      </trkpt>
      <trkpt lat="45.57153" lon="4.63006">
        <ele>386.3</ele>
        <time>2020-02-18T12:46:36.000Z</time>
      </trkpt>
      <trkpt lat="45.57141" lon="4.63">
        <ele>383.85</ele>
        <time>2020-02-18T12:46:46.000Z</time>
      </trkpt>
      <trkpt lat="45.5713" lon="4.62992">
        <ele>383.87</ele>
        <time>2020-02-18T12:46:56.000Z</time>
      </trkpt>
      <trkpt lat="45.57118" lon="4.62984">
        <ele>383.92</ele>
        <time>2020-02-18T12:47:06.000Z</time>
      </trkpt>
      <trkpt lat="45.57106" lon="4.62976">
        <ele>384.38</ele>
        <time>2020-02-18T12:47:16.000Z</time>
      </trkpt>
      <trkpt lat="45.57095" lon="4.62967">
        <ele>383.82</ele>
        <time>2020-02-18T12:47:26.000Z</time>
      </trkpt>
      <trkpt lat="45.57083" lon="4.62961">
        <ele>381.91</ele>
        <time>2020-02-18T12:47:36.000Z</time>
      </trkpt>
      <trkpt lat="45.57071" lon="4.62953">
        <ele>380.8</ele>
        <time>2020-02-18T12:47:46.000Z</time>
      </trkpt>
      <trkpt lat="45.5706" lon="4.62946">
        <ele>379.45</ele>
        <time>2020-02-18T12:47:56.000Z</time>
      </trkpt>
      <trkpt lat="45.57055" lon="4.62933">
        <ele>376.69</ele>
        <time>2020-02-18T12:48:06.000Z</time>
      </trkpt>
      <trkpt lat="45.57057" lon="4.62914">
        <ele>376.58</ele>
        <time>2020-02-18T12:48:16.000Z</time>
      </trkpt>
      <trkpt lat="45.57053" lon="4.62896">
        <ele>376.03</ele>
        <time>2020-02-18T12:48:26.000Z</time>
      </trkpt>
      <trkpt lat="45.57047" lon="4.62882">
        <ele>374.25</ele>
        <time>2020-02-18T12:48:36.000Z</time>
      </trkpt>
      <trkpt lat="45.5704" lon="4.62869">
        <ele>375.36</ele>
        <time>2020-02-18T12:48:46.000Z</time>
      </trkpt>
      <trkpt lat="45.57032" lon="4.62856">
        <ele>376.16</ele>
        <time>2020-02-18T12:48:56.000Z</time>
      </trkpt>
      <trkpt lat="45.57024" lon="4.62843">
        <ele>374.01</ele>
        <time>2020-02-18T12:49:06.000Z</time>
      </trkpt>
      <trkpt lat="45.57015" lon="4.62829">
        <ele>372.96</ele>
        <time>2020-02-18T12:49:16.000Z</time>
      </trkpt>
      <trkpt lat="45.57006" lon="4.62815">
        <ele>373.57</ele>
        <time>2020-02-18T12:49:26.000Z</time>
      </trkpt>
      <trkpt lat="45.56998" lon="4.628">
        <ele>372.99</ele>
        <time>2020-02-18T12:49:36.000Z</time>
      </trkpt>
      <trkpt lat="45.56991" lon="4.62787">
        <ele>372.47</ele>
        <time>2020-02-18T12:49:46.000Z</time>
      </trkpt>
      <trkpt lat="45.56983" lon="4.62774">
        <ele>372.39</ele>
        <time>2020-02-18T12:49:56.000Z</time>
      </trkpt>
      <trkpt lat="45.56975" lon="4.62761">
        <ele>368.46</ele>
        <time>2020-02-18T12:50:06.000Z</time>
      </trkpt>
      <trkpt lat="45.56968" lon="4.62748">
        <ele>367.87</ele>
        <time>2020-02-18T12:50:16.000Z</time>
      </trkpt>
      <trkpt lat="45.56963" lon="4.62735">
        <ele>364.11</ele>
        <time>2020-02-18T12:50:26.000Z</time>
      </trkpt>
      <trkpt lat="45.56956" lon="4.62722">
        <ele>363.02</ele>
        <time>2020-02-18T12:50:36.000Z</time>
      </trkpt>
      <trkpt lat="45.56948" lon="4.62709">
        <ele>363.99</ele>
        <time>2020-02-18T12:50:46.000Z</time>
      </trkpt>
      <trkpt lat="45.56937" lon="4.62703">
        <ele>363.79</ele>
        <time>2020-02-18T12:50:56.000Z</time>
      </trkpt>
      <trkpt lat="45.56929" lon="4.62703">
        <ele>364.38</ele>
        <time>2020-02-18T12:51:06.000Z</time>
      </trkpt>
      <trkpt lat="45.56921" lon="4.62702">
        <ele>365.01</ele>
        <time>2020-02-18T12:51:16.000Z</time>
      </trkpt>
      <trkpt lat="45.56914" lon="4.62702">
        <ele>363.05</ele>
        <time>2020-02-18T12:51:26.000Z</time>
      </trkpt>
      <trkpt lat="45.56908" lon="4.62703">
        <ele>360.09</ele>
        <time>2020-02-18T12:51:36.000Z</time>
      </trkpt>
      <trkpt lat="45.56901" lon="4.62703">
        <ele>359</ele>
        <time>2020-02-18T12:51:46.000Z</time>
      </trkpt>
      <trkpt lat="45.56897" lon="4.62702">
        <ele>358.47</ele>
        <time>2020-02-18T12:51:56.000Z</time>
      </trkpt>
      <trkpt lat="45.56889" lon="4.62701">
        <ele>358.01</ele>
        <time>2020-02-18T12:52:06.000Z</time>
      </trkpt>
      <trkpt lat="45.56879" lon="4.627">
        <ele>357.4</ele>
        <time>2020-02-18T12:52:16.000Z</time>
      </trkpt>
      <trkpt lat="45.56869" lon="4.62699">
        <ele>356.21</ele>
        <time>2020-02-18T12:52:26.000Z</time>
      </trkpt>
      <trkpt lat="45.56859" lon="4.627">
        <ele>356.15</ele>
        <time>2020-02-18T12:52:36.000Z</time>
      </trkpt>
      <trkpt lat="45.56849" lon="4.62705">
        <ele>357.79</ele>
        <time>2020-02-18T12:52:46.000Z</time>
      </trkpt>
      <trkpt lat="45.5684" lon="4.62717">
        <ele>356.02</ele>
        <time>2020-02-18T12:52:56.000Z</time>
      </trkpt>
      <trkpt lat="45.56835" lon="4.62728">
        <ele>356.1</ele>
        <time>2020-02-18T12:53:06.000Z</time>
      </trkpt>
      <trkpt lat="45.56833" lon="4.62729">
        <ele>355.14</ele>
        <time>2020-02-18T12:53:16.000Z</time>
      </trkpt>
      <trkpt lat="45.56829" lon="4.62724">
        <ele>352.45</ele>
        <time>2020-02-18T12:53:26.000Z</time>
      </trkpt>
      <trkpt lat="45.56823" lon="4.62711">
        <ele>348.96</ele>
        <time>2020-02-18T12:53:36.000Z</time>
      </trkpt>
      <trkpt lat="45.56826" lon="4.62704">
        <ele>346.9</ele>
        <time>2020-02-18T12:53:46.000Z</time>
      </trkpt>
      <trkpt lat="45.56829" lon="4.62697">
        <ele>346.96</ele>
        <time>2020-02-18T12:53:56.000Z</time>
      </trkpt>
      <trkpt lat="45.56825" lon="4.62692">
        <ele>344.81</ele>
        <time>2020-02-18T12:54:06.000Z</time>
      </trkpt>
      <trkpt lat="45.56817" lon="4.62695">
        <ele>344.54</ele>
        <time>2020-02-18T12:54:16.000Z</time>
      </trkpt>
      <trkpt lat="45.56807" lon="4.62705">
        <ele>343.76</ele>
        <time>2020-02-18T12:54:26.000Z</time>
      </trkpt>
      <trkpt lat="45.56806" lon="4.62708">
        <ele>343.25</ele>
        <time>2020-02-18T12:54:36.000Z</time>
      </trkpt>
      <trkpt lat="45.56805" lon="4.62719">
        <ele>342.04</ele>
        <time>2020-02-18T12:54:46.000Z</time>
      </trkpt>
      <trkpt lat="45.56806" lon="4.62731">
        <ele>337.98</ele>
        <time>2020-02-18T12:54:56.000Z</time>
      </trkpt>
      <trkpt lat="45.56804" lon="4.62743">
        <ele>339.31</ele>
        <time>2020-02-18T12:55:06.000Z</time>
      </trkpt>
      <trkpt lat="45.56799" lon="4.62746">
        <ele>336.55</ele>
        <time>2020-02-18T12:55:16.000Z</time>
      </trkpt>
      <trkpt lat="45.56796" lon="4.62739">
        <ele>334.68</ele>
        <time>2020-02-18T12:55:26.000Z</time>
      </trkpt>
      <trkpt lat="45.5679" lon="4.62726">
        <ele>330.99</ele>
        <time>2020-02-18T12:55:36.000Z</time>
      </trkpt>
      <trkpt lat="45.56789" lon="4.62724">
        <ele>329.92</ele>
        <time>2020-02-18T12:55:46.000Z</time>
      </trkpt>
      <trkpt lat="45.56791" lon="4.6272">
        <ele>328</ele>
        <time>2020-02-18T12:55:56.000Z</time>
      </trkpt>
      <trkpt lat="45.56783" lon="4.62703">
        <ele>324.36</ele>
        <time>2020-02-18T12:56:06.000Z</time>
      </trkpt>
      <trkpt lat="45.56779" lon="4.62689">
        <ele>322.17</ele>
        <time>2020-02-18T12:56:16.000Z</time>
      </trkpt>
      <trkpt lat="45.56776" lon="4.62673">
        <ele>322.06</ele>
        <time>2020-02-18T12:56:26.000Z</time>
      </trkpt>
      <trkpt lat="45.56771" lon="4.62675">
        <ele>320.78</ele>
        <time>2020-02-18T12:56:36.000Z</time>
      </trkpt>
      <trkpt lat="45.56765" lon="4.62683">
        <ele>320.56</ele>
        <time>2020-02-18T12:56:46.000Z</time>
      </trkpt>
      <trkpt lat="45.5676" lon="4.62696">
        <ele>320.84</ele>
        <time>2020-02-18T12:56:56.000Z</time>
      </trkpt>
      <trkpt lat="45.56757" lon="4.62707">
        <ele>320.99</ele>
        <time>2020-02-18T12:57:06.000Z</time>
      </trkpt>
      <trkpt lat="45.56752" lon="4.627">
        <ele>322.22</ele>
        <time>2020-02-18T12:57:16.000Z</time>
      </trkpt>
      <trkpt lat="45.56751" lon="4.6269">
        <ele>319.63</ele>
        <time>2020-02-18T12:57:26.000Z</time>
      </trkpt>
      <trkpt lat="45.56751" lon="4.62687">
        <ele>318.98</ele>
        <time>2020-02-18T12:57:36.000Z</time>
      </trkpt>
      <trkpt lat="45.5675" lon="4.62681">
        <ele>318.83</ele>
        <time>2020-02-18T12:57:46.000Z</time>
      </trkpt>
      <trkpt lat="45.56744" lon="4.62669">
        <ele>316.55</ele>
        <time>2020-02-18T12:57:56.000Z</time>
      </trkpt>
      <trkpt lat="45.56741" lon="4.62652">
        <ele>314.22</ele>
        <time>2020-02-18T12:58:06.000Z</time>
      </trkpt>
      <trkpt lat="45.56736" lon="4.62635">
        <ele>312.2</ele>
        <time>2020-02-18T12:58:16.000Z</time>
      </trkpt>
      <trkpt lat="45.56731" lon="4.62625">
        <ele>311.99</ele>
        <time>2020-02-18T12:58:26.000Z</time>
      </trkpt>
      <trkpt lat="45.56727" lon="4.62616">
        <ele>311.89</ele>
        <time>2020-02-18T12:58:36.000Z</time>
      </trkpt>
      <trkpt lat="45.56727" lon="4.62603">
        <ele>311.04</ele>
        <time>2020-02-18T12:58:46.000Z</time>
      </trkpt>
      <trkpt lat="45.56733" lon="4.62591">
        <ele>311.87</ele>
        <time>2020-02-18T12:58:56.000Z</time>
      </trkpt>
      <trkpt lat="45.56741" lon="4.62574">
        <ele>312.16</ele>
        <time>2020-02-18T12:59:06.000Z</time>
      </trkpt>
      <trkpt lat="45.56749" lon="4.62561">
        <ele>313.51</ele>
        <time>2020-02-18T12:59:16.000Z</time>
      </trkpt>
      <trkpt lat="45.56753" lon="4.62549">
        <ele>314.25</ele>
        <time>2020-02-18T12:59:26.000Z</time>
      </trkpt>
      <trkpt lat="45.5675" lon="4.62539">
        <ele>314.12</ele>
        <time>2020-02-18T12:59:36.000Z</time>
      </trkpt>
      <trkpt lat="45.56742" lon="4.62537">
        <ele>314.6</ele>
        <time>2020-02-18T12:59:46.000Z</time>
      </trkpt>
      <trkpt lat="45.56738" lon="4.62536">
        <ele>314.69</ele>
        <time>2020-02-18T12:59:56.000Z</time>
      </trkpt>
      <trkpt lat="45.56737" lon="4.62535">
        <ele>314.69</ele>
        <time>2020-02-18T13:00:05.001Z</time>
      </trkpt>
      <trkpt lat="45.5674" lon="4.62532">
        <ele>318.08</ele>
        <time>2020-02-18T13:02:12.001Z</time>
      </trkpt>
      <trkpt lat="45.56736" lon="4.62539">
        <ele>319.63</ele>
        <time>2020-02-18T13:02:22.001Z</time>
      </trkpt>
      <trkpt lat="45.56736" lon="4.62554">
        <ele>320.31</ele>
        <time>2020-02-18T13:02:32.001Z</time>
      </trkpt>
      <trkpt lat="45.56733" lon="4.62573">
        <ele>319.98</ele>
        <time>2020-02-18T13:02:42.001Z</time>
      </trkpt>
      <trkpt lat="45.5672" lon="4.62582">
        <ele>316.42</ele>
        <time>2020-02-18T13:02:52.001Z</time>
      </trkpt>
      <trkpt lat="45.56709" lon="4.6259">
        <ele>317.38</ele>
        <time>2020-02-18T13:03:02.000Z</time>
      </trkpt>
      <trkpt lat="45.56698" lon="4.62597">
        <ele>316.35</ele>
        <time>2020-02-18T13:03:11.001Z</time>
      </trkpt>
      <trkpt lat="45.56687" lon="4.62606">
        <ele>317.39</ele>
        <time>2020-02-18T13:03:21.001Z</time>
      </trkpt>
      <trkpt lat="45.56677" lon="4.62611">
        <ele>319.81</ele>
        <time>2020-02-18T13:03:31.001Z</time>
      </trkpt>
      <trkpt lat="45.56667" lon="4.62613">
        <ele>320.79</ele>
        <time>2020-02-18T13:03:41.001Z</time>
      </trkpt>
      <trkpt lat="45.56656" lon="4.62613">
        <ele>318.72</ele>
        <time>2020-02-18T13:03:51.001Z</time>
      </trkpt>
      <trkpt lat="45.56644" lon="4.6261">
        <ele>321.14</ele>
        <time>2020-02-18T13:04:01.001Z</time>
      </trkpt>
      <trkpt lat="45.56633" lon="4.62608">
        <ele>321</ele>
        <time>2020-02-18T13:04:11.001Z</time>
      </trkpt>
      <trkpt lat="45.56623" lon="4.62602">
        <ele>320.23</ele>
        <time>2020-02-18T13:04:21.001Z</time>
      </trkpt>
      <trkpt lat="45.56615" lon="4.62594">
        <ele>318.93</ele>
        <time>2020-02-18T13:04:31.001Z</time>
      </trkpt>
      <trkpt lat="45.56607" lon="4.62585">
        <ele>319.69</ele>
        <time>2020-02-18T13:04:41.001Z</time>
      </trkpt>
      <trkpt lat="45.56597" lon="4.6258">
        <ele>322.76</ele>
        <time>2020-02-18T13:04:51.001Z</time>
      </trkpt>
      <trkpt lat="45.56585" lon="4.62583">
        <ele>325.8</ele>
        <time>2020-02-18T13:05:01.001Z</time>
      </trkpt>
      <trkpt lat="45.56575" lon="4.62589">
        <ele>328.52</ele>
        <time>2020-02-18T13:05:11.001Z</time>
      </trkpt>
      <trkpt lat="45.56563" lon="4.62596">
        <ele>328.91</ele>
        <time>2020-02-18T13:05:21.001Z</time>
      </trkpt>
      <trkpt lat="45.56552" lon="4.62602">
        <ele>328.93</ele>
        <time>2020-02-18T13:05:31.001Z</time>
      </trkpt>
      <trkpt lat="45.56541" lon="4.62606">
        <ele>328.17</ele>
        <time>2020-02-18T13:05:41.001Z</time>
      </trkpt>
      <trkpt lat="45.56529" lon="4.62609">
        <ele>328.56</ele>
        <time>2020-02-18T13:05:51.001Z</time>
      </trkpt>
      <trkpt lat="45.56518" lon="4.62611">
        <ele>329.33</ele>
        <time>2020-02-18T13:06:01.001Z</time>
      </trkpt>
      <trkpt lat="45.56508" lon="4.62611">
        <ele>330</ele>
        <time>2020-02-18T13:06:11.001Z</time>
      </trkpt>
      <trkpt lat="45.56497" lon="4.62607">
        <ele>331.77</ele>
        <time>2020-02-18T13:06:21.001Z</time>
      </trkpt>
      <trkpt lat="45.56486" lon="4.62599">
        <ele>333.02</ele>
        <time>2020-02-18T13:06:31.001Z</time>
      </trkpt>
      <trkpt lat="45.5648" lon="4.62587">
        <ele>334.55</ele>
        <time>2020-02-18T13:06:41.001Z</time>
      </trkpt>
      <trkpt lat="45.56478" lon="4.62573">
        <ele>335.46</ele>
        <time>2020-02-18T13:06:51.001Z</time>
      </trkpt>
      <trkpt lat="45.56479" lon="4.62558">
        <ele>337.6</ele>
        <time>2020-02-18T13:07:01.001Z</time>
      </trkpt>
      <trkpt lat="45.5648" lon="4.62542">
        <ele>339.82</ele>
        <time>2020-02-18T13:07:11.001Z</time>
      </trkpt>
      <trkpt lat="45.56479" lon="4.62525">
        <ele>339.83</ele>
        <time>2020-02-18T13:07:21.001Z</time>
      </trkpt>
      <trkpt lat="45.5648" lon="4.6251">
        <ele>340.83</ele>
        <time>2020-02-18T13:07:31.001Z</time>
      </trkpt>
      <trkpt lat="45.5648" lon="4.62493">
        <ele>340.78</ele>
        <time>2020-02-18T13:07:41.001Z</time>
      </trkpt>
      <trkpt lat="45.5648" lon="4.62478">
        <ele>343.87</ele>
        <time>2020-02-18T13:07:51.001Z</time>
      </trkpt>
      <trkpt lat="45.56482" lon="4.62462">
        <ele>344.93</ele>
        <time>2020-02-18T13:08:01.001Z</time>
      </trkpt>
      <trkpt lat="45.56482" lon="4.6245">
        <ele>344.72</ele>
        <time>2020-02-18T13:08:11.001Z</time>
      </trkpt>
      <trkpt lat="45.56485" lon="4.62435">
        <ele>347.64</ele>
        <time>2020-02-18T13:08:21.001Z</time>
      </trkpt>
      <trkpt lat="45.56488" lon="4.62419">
        <ele>347.47</ele>
        <time>2020-02-18T13:08:31.001Z</time>
      </trkpt>
      <trkpt lat="45.5649" lon="4.62404">
        <ele>349.48</ele>
        <time>2020-02-18T13:08:41.001Z</time>
      </trkpt>
      <trkpt lat="45.56492" lon="4.62389">
        <ele>350.76</ele>
        <time>2020-02-18T13:08:51.001Z</time>
      </trkpt>
      <trkpt lat="45.56495" lon="4.62376">
        <ele>352.82</ele>
        <time>2020-02-18T13:09:01.001Z</time>
      </trkpt>
      <trkpt lat="45.56499" lon="4.62361">
        <ele>352.31</ele>
        <time>2020-02-18T13:09:11.001Z</time>
      </trkpt>
      <trkpt lat="45.565" lon="4.62345">
        <ele>351.41</ele>
        <time>2020-02-18T13:09:21.001Z</time>
      </trkpt>
      <trkpt lat="45.56503" lon="4.6233">
        <ele>353.87</ele>
        <time>2020-02-18T13:09:31.001Z</time>
      </trkpt>
      <trkpt lat="45.56506" lon="4.62315">
        <ele>354.55</ele>
        <time>2020-02-18T13:09:41.001Z</time>
      </trkpt>
      <trkpt lat="45.56509" lon="4.623">
        <ele>357.53</ele>
        <time>2020-02-18T13:09:51.001Z</time>
      </trkpt>
      <trkpt lat="45.56505" lon="4.62285">
        <ele>357.07</ele>
        <time>2020-02-18T13:10:01.001Z</time>
      </trkpt>
      <trkpt lat="45.56495" lon="4.62274">
        <ele>355.35</ele>
        <time>2020-02-18T13:10:11.001Z</time>
      </trkpt>
      <trkpt lat="45.56486" lon="4.62265">
        <ele>354.3</ele>
        <time>2020-02-18T13:10:21.001Z</time>
      </trkpt>
      <trkpt lat="45.56478" lon="4.62255">
        <ele>353.64</ele>
        <time>2020-02-18T13:10:31.001Z</time>
      </trkpt>
      <trkpt lat="45.56469" lon="4.62244">
        <ele>353.34</ele>
        <time>2020-02-18T13:10:41.001Z</time>
      </trkpt>
      <trkpt lat="45.56459" lon="4.62232">
        <ele>353.11</ele>
        <time>2020-02-18T13:10:51.001Z</time>
      </trkpt>
      <trkpt lat="45.5646" lon="4.62228">
        <ele>353.69</ele>
        <time>2020-02-18T13:11:01.001Z</time>
      </trkpt>
      <trkpt lat="45.56455" lon="4.62223">
        <ele>356.74</ele>
        <time>2020-02-18T13:11:11.001Z</time>
      </trkpt>
      <trkpt lat="45.56444" lon="4.62212">
        <ele>359.13</ele>
        <time>2020-02-18T13:11:21.001Z</time>
      </trkpt>
      <trkpt lat="45.56435" lon="4.62202">
        <ele>358.88</ele>
        <time>2020-02-18T13:11:31.001Z</time>
      </trkpt>
      <trkpt lat="45.56428" lon="4.62192">
        <ele>359.61</ele>
        <time>2020-02-18T13:11:41.001Z</time>
      </trkpt>
      <trkpt lat="45.56419" lon="4.62179">
        <ele>360.6</ele>
        <time>2020-02-18T13:11:51.001Z</time>
      </trkpt>
      <trkpt lat="45.56413" lon="4.62169">
        <ele>361.22</ele>
        <time>2020-02-18T13:12:01.001Z</time>
      </trkpt>
      <trkpt lat="45.56404" lon="4.6216">
        <ele>360.51</ele>
        <time>2020-02-18T13:12:11.001Z</time>
      </trkpt>
      <trkpt lat="45.56395" lon="4.62151">
        <ele>361.33</ele>
        <time>2020-02-18T13:12:21.001Z</time>
      </trkpt>
      <trkpt lat="45.56387" lon="4.62142">
        <ele>361.12</ele>
        <time>2020-02-18T13:12:31.001Z</time>
      </trkpt>
      <trkpt lat="45.56378" lon="4.62131">
        <ele>361.45</ele>
        <time>2020-02-18T13:12:41.001Z</time>
      </trkpt>
      <trkpt lat="45.56368" lon="4.62119">
        <ele>362.2</ele>
        <time>2020-02-18T13:12:51.001Z</time>
      </trkpt>
      <trkpt lat="45.5636" lon="4.62109">
        <ele>361.09</ele>
        <time>2020-02-18T13:13:01.001Z</time>
      </trkpt>
      <trkpt lat="45.56353" lon="4.62097">
        <ele>361.68</ele>
        <time>2020-02-18T13:13:11.001Z</time>
      </trkpt>
      <trkpt lat="45.56346" lon="4.62085">
        <ele>363.66</ele>
        <time>2020-02-18T13:13:21.001Z</time>
      </trkpt>
      <trkpt lat="45.56339" lon="4.62073">
        <ele>362.76</ele>
        <time>2020-02-18T13:13:31.001Z</time>
      </trkpt>
      <trkpt lat="45.56334" lon="4.62063">
        <ele>364.19</ele>
        <time>2020-02-18T13:13:41.001Z</time>
      </trkpt>
      <trkpt lat="45.56326" lon="4.62051">
        <ele>365.86</ele>
        <time>2020-02-18T13:13:51.001Z</time>
      </trkpt>
      <trkpt lat="45.56317" lon="4.62039">
        <ele>367.17</ele>
        <time>2020-02-18T13:14:01.001Z</time>
      </trkpt>
      <trkpt lat="45.56308" lon="4.62025">
        <ele>370.65</ele>
        <time>2020-02-18T13:14:11.001Z</time>
      </trkpt>
      <trkpt lat="45.56299" lon="4.62013">
        <ele>370.7</ele>
        <time>2020-02-18T13:14:21.001Z</time>
      </trkpt>
      <trkpt lat="45.56293" lon="4.62002">
        <ele>372.23</ele>
        <time>2020-02-18T13:14:31.001Z</time>
      </trkpt>
      <trkpt lat="45.56286" lon="4.6199">
        <ele>372.8</ele>
        <time>2020-02-18T13:14:41.001Z</time>
      </trkpt>
      <trkpt lat="45.56279" lon="4.61978">
        <ele>373.24</ele>
        <time>2020-02-18T13:14:51.001Z</time>
      </trkpt>
      <trkpt lat="45.56272" lon="4.61968">
        <ele>373.18</ele>
        <time>2020-02-18T13:15:01.001Z</time>
      </trkpt>
      <trkpt lat="45.56265" lon="4.61957">
        <ele>374.19</ele>
        <time>2020-02-18T13:15:11.001Z</time>
      </trkpt>
      <trkpt lat="45.56259" lon="4.61944">
        <ele>376.06</ele>
        <time>2020-02-18T13:15:21.001Z</time>
      </trkpt>
      <trkpt lat="45.56251" lon="4.61933">
        <ele>378.29</ele>
        <time>2020-02-18T13:15:31.001Z</time>
      </trkpt>
      <trkpt lat="45.56252" lon="4.61927">
        <ele>378.91</ele>
        <time>2020-02-18T13:15:41.001Z</time>
      </trkpt>
      <trkpt lat="45.56255" lon="4.61926">
        <ele>378.05</ele>
        <time>2020-02-18T13:15:51.001Z</time>
      </trkpt>
      <trkpt lat="45.56256" lon="4.61926">
        <ele>377.18</ele>
        <time>2020-02-18T13:17:04.001Z</time>
      </trkpt>
      <trkpt lat="45.56263" lon="4.61918">
        <ele>377.9</ele>
        <time>2020-02-18T13:17:14.001Z</time>
      </trkpt>
      <trkpt lat="45.56273" lon="4.61908">
        <ele>382.45</ele>
        <time>2020-02-18T13:17:24.001Z</time>
      </trkpt>
      <trkpt lat="45.56287" lon="4.61896">
        <ele>382.64</ele>
        <time>2020-02-18T13:17:34.001Z</time>
      </trkpt>
      <trkpt lat="45.56295" lon="4.61888">
        <ele>380.53</ele>
        <time>2020-02-18T13:17:44.001Z</time>
      </trkpt>
      <trkpt lat="45.56304" lon="4.61879">
        <ele>381.11</ele>
        <time>2020-02-18T13:17:54.001Z</time>
      </trkpt>
      <trkpt lat="45.56314" lon="4.6187">
        <ele>382.61</ele>
        <time>2020-02-18T13:18:04.001Z</time>
      </trkpt>
      <trkpt lat="45.56325" lon="4.6186">
        <ele>381.72</ele>
        <time>2020-02-18T13:18:14.001Z</time>
      </trkpt>
      <trkpt lat="45.56334" lon="4.61851">
        <ele>378.95</ele>
        <time>2020-02-18T13:18:24.001Z</time>
      </trkpt>
      <trkpt lat="45.56342" lon="4.61843">
        <ele>376.54</ele>
        <time>2020-02-18T13:18:34.001Z</time>
      </trkpt>
      <trkpt lat="45.56355" lon="4.61829">
        <ele>380.53</ele>
        <time>2020-02-18T13:18:44.001Z</time>
      </trkpt>
      <trkpt lat="45.56363" lon="4.61822">
        <ele>382.6</ele>
        <time>2020-02-18T13:18:54.001Z</time>
      </trkpt>
      <trkpt lat="45.56373" lon="4.61811">
        <ele>382.59</ele>
        <time>2020-02-18T13:19:04.001Z</time>
      </trkpt>
      <trkpt lat="45.56381" lon="4.61798">
        <ele>384.97</ele>
        <time>2020-02-18T13:19:14.001Z</time>
      </trkpt>
      <trkpt lat="45.56387" lon="4.61787">
        <ele>384.92</ele>
        <time>2020-02-18T13:19:24.001Z</time>
      </trkpt>
      <trkpt lat="45.56398" lon="4.6178">
        <ele>385.98</ele>
        <time>2020-02-18T13:19:34.001Z</time>
      </trkpt>
      <trkpt lat="45.5641" lon="4.61776">
        <ele>386.92</ele>
        <time>2020-02-18T13:19:44.001Z</time>
      </trkpt>
      <trkpt lat="45.56421" lon="4.6177">
        <ele>387.44</ele>
        <time>2020-02-18T13:19:54.001Z</time>
      </trkpt>
      <trkpt lat="45.56431" lon="4.61764">
        <ele>385.56</ele>
        <time>2020-02-18T13:20:04.001Z</time>
      </trkpt>
      <trkpt lat="45.56436" lon="4.61756">
        <ele>385.16</ele>
        <time>2020-02-18T13:20:14.001Z</time>
      </trkpt>
      <trkpt lat="45.56432" lon="4.61749">
        <ele>384.1</ele>
        <time>2020-02-18T13:20:24.001Z</time>
      </trkpt>
      <trkpt lat="45.56426" lon="4.61738">
        <ele>383.79</ele>
        <time>2020-02-18T13:20:34.001Z</time>
      </trkpt>
      <trkpt lat="45.56424" lon="4.6173">
        <ele>382.62</ele>
        <time>2020-02-18T13:20:44.001Z</time>
      </trkpt>
      <trkpt lat="45.56425" lon="4.61721">
        <ele>383.69</ele>
        <time>2020-02-18T13:20:54.001Z</time>
      </trkpt>
      <trkpt lat="45.56429" lon="4.61709">
        <ele>386.73</ele>
        <time>2020-02-18T13:21:04.001Z</time>
      </trkpt>
      <trkpt lat="45.5643" lon="4.61697">
        <ele>388.48</ele>
        <time>2020-02-18T13:21:14.001Z</time>
      </trkpt>
      <trkpt lat="45.56432" lon="4.61685">
        <ele>388.2</ele>
        <time>2020-02-18T13:21:24.001Z</time>
      </trkpt>
      <trkpt lat="45.56434" lon="4.61671">
        <ele>388.01</ele>
        <time>2020-02-18T13:21:34.001Z</time>
      </trkpt>
      <trkpt lat="45.56437" lon="4.61656">
        <ele>391.77</ele>
        <time>2020-02-18T13:21:44.001Z</time>
      </trkpt>
      <trkpt lat="45.56443" lon="4.61646">
        <ele>393.83</ele>
        <time>2020-02-18T13:21:54.001Z</time>
      </trkpt>
      <trkpt lat="45.56446" lon="4.61636">
        <ele>394.24</ele>
        <time>2020-02-18T13:22:04.001Z</time>
      </trkpt>
      <trkpt lat="45.56449" lon="4.61622">
        <ele>396.22</ele>
        <time>2020-02-18T13:22:14.001Z</time>
      </trkpt>
      <trkpt lat="45.56452" lon="4.61609">
        <ele>396.24</ele>
        <time>2020-02-18T13:22:24.001Z</time>
      </trkpt>
      <trkpt lat="45.56454" lon="4.61595">
        <ele>395.46</ele>
        <time>2020-02-18T13:22:34.001Z</time>
      </trkpt>
      <trkpt lat="45.56456" lon="4.61581">
        <ele>398.26</ele>
        <time>2020-02-18T13:22:44.001Z</time>
      </trkpt>
      <trkpt lat="45.56455" lon="4.61566">
        <ele>399.87</ele>
        <time>2020-02-18T13:22:54.001Z</time>
      </trkpt>
      <trkpt lat="45.56453" lon="4.61549">
        <ele>399.48</ele>
        <time>2020-02-18T13:23:04.001Z</time>
      </trkpt>
      <trkpt lat="45.56451" lon="4.61533">
        <ele>399.25</ele>
        <time>2020-02-18T13:23:14.001Z</time>
      </trkpt>
      <trkpt lat="45.56446" lon="4.61516">
        <ele>398.68</ele>
        <time>2020-02-18T13:23:24.001Z</time>
      </trkpt>
      <trkpt lat="45.56443" lon="4.61502">
        <ele>399.09</ele>
        <time>2020-02-18T13:23:34.001Z</time>
      </trkpt>
      <trkpt lat="45.56438" lon="4.61497">
        <ele>398.73</ele>
        <time>2020-02-18T13:23:44.001Z</time>
      </trkpt>
      <trkpt lat="45.56429" lon="4.61503">
        <ele>398.72</ele>
        <time>2020-02-18T13:23:54.001Z</time>
      </trkpt>
      <trkpt lat="45.56421" lon="4.61508">
        <ele>399.42</ele>
        <time>2020-02-18T13:24:04.001Z</time>
      </trkpt>
      <trkpt lat="45.56411" lon="4.61513">
        <ele>400.82</ele>
        <time>2020-02-18T13:24:14.001Z</time>
      </trkpt>
      <trkpt lat="45.56401" lon="4.61521">
        <ele>401.71</ele>
        <time>2020-02-18T13:24:24.001Z</time>
      </trkpt>
      <trkpt lat="45.5639" lon="4.61529">
        <ele>402.3</ele>
        <time>2020-02-18T13:24:34.001Z</time>
      </trkpt>
      <trkpt lat="45.56381" lon="4.61538">
        <ele>403.71</ele>
        <time>2020-02-18T13:24:44.001Z</time>
      </trkpt>
      <trkpt lat="45.56374" lon="4.61548">
        <ele>404.74</ele>
        <time>2020-02-18T13:24:54.001Z</time>
      </trkpt>
      <trkpt lat="45.56367" lon="4.61557">
        <ele>404.58</ele>
        <time>2020-02-18T13:25:04.001Z</time>
      </trkpt>
      <trkpt lat="45.56367" lon="4.6157">
        <ele>404.36</ele>
        <time>2020-02-18T13:25:14.001Z</time>
      </trkpt>
      <trkpt lat="45.5637" lon="4.61573">
        <ele>404.82</ele>
        <time>2020-02-18T13:25:24.001Z</time>
      </trkpt>
      <trkpt lat="45.56375" lon="4.61575">
        <ele>406.17</ele>
        <time>2020-02-18T13:25:34.001Z</time>
      </trkpt>
      <trkpt lat="45.56376" lon="4.61574">
        <ele>406.19</ele>
        <time>2020-02-18T13:25:44.001Z</time>
      </trkpt>
      <trkpt lat="45.56378" lon="4.61574">
        <ele>406.19</ele>
        <time>2020-02-18T13:26:19.001Z</time>
      </trkpt>
      <trkpt lat="45.56377" lon="4.61574">
        <ele>406.09</ele>
        <time>2020-02-18T13:27:42.001Z</time>
      </trkpt>
      <trkpt lat="45.56369" lon="4.6157">
        <ele>405.66</ele>
        <time>2020-02-18T13:27:52.001Z</time>
      </trkpt>
      <trkpt lat="45.5637" lon="4.61555">
        <ele>406.09</ele>
        <time>2020-02-18T13:28:02.000Z</time>
      </trkpt>
      <trkpt lat="45.56374" lon="4.61546">
        <ele>405.26</ele>
        <time>2020-02-18T13:28:11.001Z</time>
      </trkpt>
      <trkpt lat="45.56379" lon="4.61539">
        <ele>406.33</ele>
        <time>2020-02-18T13:28:21.001Z</time>
      </trkpt>
      <trkpt lat="45.56386" lon="4.61531">
        <ele>403.08</ele>
        <time>2020-02-18T13:28:31.001Z</time>
      </trkpt>
      <trkpt lat="45.56396" lon="4.61524">
        <ele>403.3</ele>
        <time>2020-02-18T13:28:41.001Z</time>
      </trkpt>
      <trkpt lat="45.56408" lon="4.61517">
        <ele>400.61</ele>
        <time>2020-02-18T13:28:51.001Z</time>
      </trkpt>
      <trkpt lat="45.56414" lon="4.61514">
        <ele>398.68</ele>
        <time>2020-02-18T13:29:01.001Z</time>
      </trkpt>
      <trkpt lat="45.5642" lon="4.61509">
        <ele>397.96</ele>
        <time>2020-02-18T13:29:11.001Z</time>
      </trkpt>
      <trkpt lat="45.56433" lon="4.61501">
        <ele>397.52</ele>
        <time>2020-02-18T13:29:21.001Z</time>
      </trkpt>
      <trkpt lat="45.56441" lon="4.61496">
        <ele>396.13</ele>
        <time>2020-02-18T13:29:31.001Z</time>
      </trkpt>
      <trkpt lat="45.5644" lon="4.61487">
        <ele>393.39</ele>
        <time>2020-02-18T13:29:41.001Z</time>
      </trkpt>
      <trkpt lat="45.56434" lon="4.61473">
        <ele>393.74</ele>
        <time>2020-02-18T13:29:51.001Z</time>
      </trkpt>
      <trkpt lat="45.5643" lon="4.61457">
        <ele>391.97</ele>
        <time>2020-02-18T13:30:01.001Z</time>
      </trkpt>
      <trkpt lat="45.56425" lon="4.61439">
        <ele>392.52</ele>
        <time>2020-02-18T13:30:11.001Z</time>
      </trkpt>
      <trkpt lat="45.5642" lon="4.61421">
        <ele>391.41</ele>
        <time>2020-02-18T13:30:21.001Z</time>
      </trkpt>
      <trkpt lat="45.56418" lon="4.61402">
        <ele>392.8</ele>
        <time>2020-02-18T13:30:31.001Z</time>
      </trkpt>
      <trkpt lat="45.56416" lon="4.61385">
        <ele>393.33</ele>
        <time>2020-02-18T13:30:41.001Z</time>
      </trkpt>
      <trkpt lat="45.56413" lon="4.6137">
        <ele>395.51</ele>
        <time>2020-02-18T13:30:51.001Z</time>
      </trkpt>
      <trkpt lat="45.5641" lon="4.61354">
        <ele>393.17</ele>
        <time>2020-02-18T13:31:01.001Z</time>
      </trkpt>
      <trkpt lat="45.56411" lon="4.61344">
        <ele>392.37</ele>
        <time>2020-02-18T13:31:11.001Z</time>
      </trkpt>
      <trkpt lat="45.56412" lon="4.61331">
        <ele>393.77</ele>
        <time>2020-02-18T13:31:21.001Z</time>
      </trkpt>
      <trkpt lat="45.56411" lon="4.61318">
        <ele>391.3</ele>
        <time>2020-02-18T13:31:31.001Z</time>
      </trkpt>
      <trkpt lat="45.56409" lon="4.61305">
        <ele>391.68</ele>
        <time>2020-02-18T13:31:41.001Z</time>
      </trkpt>
      <trkpt lat="45.56406" lon="4.61289">
        <ele>393.6</ele>
        <time>2020-02-18T13:31:51.001Z</time>
      </trkpt>
      <trkpt lat="45.56402" lon="4.61274">
        <ele>391.91</ele>
        <time>2020-02-18T13:32:01.001Z</time>
      </trkpt>
      <trkpt lat="45.56397" lon="4.6126">
        <ele>389.93</ele>
        <time>2020-02-18T13:32:11.001Z</time>
      </trkpt>
      <trkpt lat="45.56392" lon="4.61244">
        <ele>391.55</ele>
        <time>2020-02-18T13:32:21.001Z</time>
      </trkpt>
      <trkpt lat="45.56387" lon="4.6123">
        <ele>391.83</ele>
        <time>2020-02-18T13:32:31.001Z</time>
      </trkpt>
      <trkpt lat="45.56381" lon="4.61216">
        <ele>392.92</ele>
        <time>2020-02-18T13:32:41.001Z</time>
      </trkpt>
      <trkpt lat="45.56375" lon="4.61203">
        <ele>394.33</ele>
        <time>2020-02-18T13:32:51.001Z</time>
      </trkpt>
      <trkpt lat="45.56369" lon="4.61188">
        <ele>396.34</ele>
        <time>2020-02-18T13:33:01.001Z</time>
      </trkpt>
      <trkpt lat="45.56364" lon="4.61173">
        <ele>396.38</ele>
        <time>2020-02-18T13:33:11.001Z</time>
      </trkpt>
      <trkpt lat="45.56362" lon="4.61158">
        <ele>396.68</ele>
        <time>2020-02-18T13:33:21.001Z</time>
      </trkpt>
      <trkpt lat="45.56359" lon="4.61143">
        <ele>398.2</ele>
        <time>2020-02-18T13:33:31.001Z</time>
      </trkpt>
      <trkpt lat="45.56355" lon="4.61131">
        <ele>399.98</ele>
        <time>2020-02-18T13:33:41.001Z</time>
      </trkpt>
      <trkpt lat="45.56349" lon="4.61117">
        <ele>399.26</ele>
        <time>2020-02-18T13:33:51.001Z</time>
      </trkpt>
      <trkpt lat="45.56343" lon="4.61102">
        <ele>400.35</ele>
        <time>2020-02-18T13:34:01.001Z</time>
      </trkpt>
      <trkpt lat="45.56339" lon="4.61088">
        <ele>402.01</ele>
        <time>2020-02-18T13:34:11.001Z</time>
      </trkpt>
      <trkpt lat="45.56336" lon="4.61073">
        <ele>404.88</ele>
        <time>2020-02-18T13:34:21.001Z</time>
      </trkpt>
      <trkpt lat="45.56335" lon="4.61057">
        <ele>403.36</ele>
        <time>2020-02-18T13:34:31.001Z</time>
      </trkpt>
      <trkpt lat="45.56335" lon="4.61043">
        <ele>404.19</ele>
        <time>2020-02-18T13:34:41.001Z</time>
      </trkpt>
      <trkpt lat="45.56334" lon="4.61028">
        <ele>404.13</ele>
        <time>2020-02-18T13:34:51.001Z</time>
      </trkpt>
      <trkpt lat="45.56331" lon="4.61013">
        <ele>404.16</ele>
        <time>2020-02-18T13:35:01.001Z</time>
      </trkpt>
      <trkpt lat="45.56329" lon="4.60999">
        <ele>405.08</ele>
        <time>2020-02-18T13:35:11.001Z</time>
      </trkpt>
      <trkpt lat="45.56329" lon="4.60986">
        <ele>405.28</ele>
        <time>2020-02-18T13:35:21.001Z</time>
      </trkpt>
      <trkpt lat="45.56329" lon="4.60972">
        <ele>409.74</ele>
        <time>2020-02-18T13:35:31.001Z</time>
      </trkpt>
      <trkpt lat="45.56327" lon="4.60957">
        <ele>411.35</ele>
        <time>2020-02-18T13:35:41.001Z</time>
      </trkpt>
      <trkpt lat="45.56327" lon="4.60942">
        <ele>413</ele>
        <time>2020-02-18T13:35:51.001Z</time>
      </trkpt>
      <trkpt lat="45.56325" lon="4.60928">
        <ele>412.52</ele>
        <time>2020-02-18T13:36:01.001Z</time>
      </trkpt>
      <trkpt lat="45.56321" lon="4.60916">
        <ele>411.07</ele>
        <time>2020-02-18T13:36:11.001Z</time>
      </trkpt>
      <trkpt lat="45.56319" lon="4.60902">
        <ele>412.93</ele>
        <time>2020-02-18T13:36:21.001Z</time>
      </trkpt>
      <trkpt lat="45.56318" lon="4.60887">
        <ele>415.81</ele>
        <time>2020-02-18T13:36:31.001Z</time>
      </trkpt>
      <trkpt lat="45.56313" lon="4.60876">
        <ele>417.1</ele>
        <time>2020-02-18T13:36:41.001Z</time>
      </trkpt>
      <trkpt lat="45.56306" lon="4.6087">
        <ele>417.54</ele>
        <time>2020-02-18T13:36:51.001Z</time>
      </trkpt>
      <trkpt lat="45.56297" lon="4.60863">
        <ele>420.12</ele>
        <time>2020-02-18T13:37:01.001Z</time>
      </trkpt>
      <trkpt lat="45.56291" lon="4.60855">
        <ele>419.61</ele>
        <time>2020-02-18T13:37:11.001Z</time>
      </trkpt>
      <trkpt lat="45.56286" lon="4.60847">
        <ele>421.76</ele>
        <time>2020-02-18T13:37:21.001Z</time>
      </trkpt>
      <trkpt lat="45.56281" lon="4.60838">
        <ele>423.6</ele>
        <time>2020-02-18T13:37:31.001Z</time>
      </trkpt>
      <trkpt lat="45.56276" lon="4.60827">
        <ele>425</ele>
        <time>2020-02-18T13:37:41.001Z</time>
      </trkpt>
      <trkpt lat="45.56271" lon="4.60817">
        <ele>425.83</ele>
        <time>2020-02-18T13:37:51.001Z</time>
      </trkpt>
      <trkpt lat="45.56266" lon="4.60807">
        <ele>427.54</ele>
        <time>2020-02-18T13:38:01.001Z</time>
      </trkpt>
      <trkpt lat="45.5626" lon="4.60796">
        <ele>426.76</ele>
        <time>2020-02-18T13:38:11.001Z</time>
      </trkpt>
      <trkpt lat="45.56253" lon="4.60784">
        <ele>427.73</ele>
        <time>2020-02-18T13:38:21.001Z</time>
      </trkpt>
      <trkpt lat="45.56245" lon="4.60775">
        <ele>428.93</ele>
        <time>2020-02-18T13:38:31.001Z</time>
      </trkpt>
      <trkpt lat="45.56237" lon="4.60765">
        <ele>430.62</ele>
        <time>2020-02-18T13:38:41.001Z</time>
      </trkpt>
      <trkpt lat="45.5623" lon="4.60755">
        <ele>430.57</ele>
        <time>2020-02-18T13:38:51.001Z</time>
      </trkpt>
      <trkpt lat="45.56222" lon="4.60744">
        <ele>432.65</ele>
        <time>2020-02-18T13:39:01.001Z</time>
      </trkpt>
      <trkpt lat="45.56217" lon="4.60734">
        <ele>433.81</ele>
        <time>2020-02-18T13:39:11.001Z</time>
      </trkpt>
      <trkpt lat="45.56212" lon="4.60723">
        <ele>435.14</ele>
        <time>2020-02-18T13:39:21.001Z</time>
      </trkpt>
      <trkpt lat="45.56207" lon="4.6071">
        <ele>435.25</ele>
        <time>2020-02-18T13:39:31.001Z</time>
      </trkpt>
      <trkpt lat="45.56202" lon="4.60696">
        <ele>435.84</ele>
        <time>2020-02-18T13:39:41.001Z</time>
      </trkpt>
      <trkpt lat="45.56195" lon="4.60683">
        <ele>435.57</ele>
        <time>2020-02-18T13:39:51.001Z</time>
      </trkpt>
      <trkpt lat="45.56187" lon="4.60677">
        <ele>435.21</ele>
        <time>2020-02-18T13:40:01.001Z</time>
      </trkpt>
      <trkpt lat="45.56186" lon="4.60669">
        <ele>435.71</ele>
        <time>2020-02-18T13:40:31.001Z</time>
      </trkpt>
      <trkpt lat="45.56191" lon="4.60655">
        <ele>434.98</ele>
        <time>2020-02-18T13:40:41.001Z</time>
      </trkpt>
      <trkpt lat="45.56198" lon="4.60647">
        <ele>435.6</ele>
        <time>2020-02-18T13:40:51.001Z</time>
      </trkpt>
      <trkpt lat="45.56205" lon="4.60637">
        <ele>435.14</ele>
        <time>2020-02-18T13:41:01.001Z</time>
      </trkpt>
      <trkpt lat="45.56211" lon="4.60629">
        <ele>437.23</ele>
        <time>2020-02-18T13:41:11.001Z</time>
      </trkpt>
      <trkpt lat="45.56217" lon="4.6062">
        <ele>438.51</ele>
        <time>2020-02-18T13:41:21.001Z</time>
      </trkpt>
      <trkpt lat="45.56224" lon="4.6061">
        <ele>439.87</ele>
        <time>2020-02-18T13:41:31.001Z</time>
      </trkpt>
      <trkpt lat="45.5623" lon="4.606">
        <ele>443.39</ele>
        <time>2020-02-18T13:41:41.001Z</time>
      </trkpt>
      <trkpt lat="45.56237" lon="4.60592">
        <ele>444.4</ele>
        <time>2020-02-18T13:41:51.001Z</time>
      </trkpt>
      <trkpt lat="45.56245" lon="4.60581">
        <ele>445.14</ele>
        <time>2020-02-18T13:42:01.001Z</time>
      </trkpt>
      <trkpt lat="45.56252" lon="4.60574">
        <ele>446.74</ele>
        <time>2020-02-18T13:42:11.001Z</time>
      </trkpt>
      <trkpt lat="45.5626" lon="4.60565">
        <ele>448.4</ele>
        <time>2020-02-18T13:42:21.001Z</time>
      </trkpt>
      <trkpt lat="45.56267" lon="4.60557">
        <ele>449.65</ele>
        <time>2020-02-18T13:42:31.001Z</time>
      </trkpt>
      <trkpt lat="45.56273" lon="4.60548">
        <ele>452.88</ele>
        <time>2020-02-18T13:42:41.001Z</time>
      </trkpt>
      <trkpt lat="45.56278" lon="4.60537">
        <ele>454.81</ele>
        <time>2020-02-18T13:42:51.001Z</time>
      </trkpt>
      <trkpt lat="45.56283" lon="4.60527">
        <ele>456.95</ele>
        <time>2020-02-18T13:43:01.001Z</time>
      </trkpt>
      <trkpt lat="45.56289" lon="4.60517">
        <ele>459.2</ele>
        <time>2020-02-18T13:43:11.001Z</time>
      </trkpt>
      <trkpt lat="45.56293" lon="4.60507">
        <ele>458.37</ele>
        <time>2020-02-18T13:43:21.001Z</time>
      </trkpt>
      <trkpt lat="45.56299" lon="4.60496">
        <ele>459.38</ele>
        <time>2020-02-18T13:43:31.001Z</time>
      </trkpt>
      <trkpt lat="45.56304" lon="4.60485">
        <ele>459.79</ele>
        <time>2020-02-18T13:43:41.001Z</time>
      </trkpt>
      <trkpt lat="45.56309" lon="4.60477">
        <ele>459.18</ele>
        <time>2020-02-18T13:43:51.001Z</time>
      </trkpt>
      <trkpt lat="45.56313" lon="4.60465">
        <ele>463.59</ele>
        <time>2020-02-18T13:44:01.001Z</time>
      </trkpt>
      <trkpt lat="45.56317" lon="4.60454">
        <ele>466.56</ele>
        <time>2020-02-18T13:44:11.001Z</time>
      </trkpt>
      <trkpt lat="45.56319" lon="4.60443">
        <ele>466.29</ele>
        <time>2020-02-18T13:44:21.001Z</time>
      </trkpt>
      <trkpt lat="45.56321" lon="4.60432">
        <ele>465.21</ele>
        <time>2020-02-18T13:44:31.001Z</time>
      </trkpt>
      <trkpt lat="45.56326" lon="4.6042">
        <ele>465.3</ele>
        <time>2020-02-18T13:44:41.001Z</time>
      </trkpt>
      <trkpt lat="45.56329" lon="4.60406">
        <ele>465.94</ele>
        <time>2020-02-18T13:44:51.001Z</time>
      </trkpt>
      <trkpt lat="45.5633" lon="4.60394">
        <ele>467.61</ele>
        <time>2020-02-18T13:45:01.001Z</time>
      </trkpt>
      <trkpt lat="45.56331" lon="4.60382">
        <ele>469.24</ele>
        <time>2020-02-18T13:45:11.001Z</time>
      </trkpt>
      <trkpt lat="45.56333" lon="4.60376">
        <ele>468.71</ele>
        <time>2020-02-18T13:45:21.001Z</time>
      </trkpt>
      <trkpt lat="45.56335" lon="4.60372">
        <ele>469.59</ele>
        <time>2020-02-18T13:45:31.001Z</time>
      </trkpt>
      <trkpt lat="45.56337" lon="4.60365">
        <ele>472.68</ele>
        <time>2020-02-18T13:45:41.001Z</time>
      </trkpt>
      <trkpt lat="45.56338" lon="4.60364">
        <ele>473.42</ele>
        <time>2020-02-18T13:45:51.001Z</time>
      </trkpt>
      <trkpt lat="45.56343" lon="4.60349">
        <ele>473.48</ele>
        <time>2020-02-18T13:46:01.001Z</time>
      </trkpt>
      <trkpt lat="45.56346" lon="4.60333">
        <ele>475.02</ele>
        <time>2020-02-18T13:46:11.001Z</time>
      </trkpt>
      <trkpt lat="45.56348" lon="4.60317">
        <ele>475.8</ele>
        <time>2020-02-18T13:46:21.001Z</time>
      </trkpt>
      <trkpt lat="45.5635" lon="4.60301">
        <ele>476.86</ele>
        <time>2020-02-18T13:46:31.001Z</time>
      </trkpt>
      <trkpt lat="45.56352" lon="4.60286">
        <ele>478.02</ele>
        <time>2020-02-18T13:46:41.001Z</time>
      </trkpt>
      <trkpt lat="45.56354" lon="4.60271">
        <ele>479.26</ele>
        <time>2020-02-18T13:46:51.001Z</time>
      </trkpt>
      <trkpt lat="45.56357" lon="4.60255">
        <ele>482.26</ele>
        <time>2020-02-18T13:47:01.001Z</time>
      </trkpt>
      <trkpt lat="45.56359" lon="4.60239">
        <ele>485.27</ele>
        <time>2020-02-18T13:47:11.001Z</time>
      </trkpt>
      <trkpt lat="45.56362" lon="4.60224">
        <ele>487.46</ele>
        <time>2020-02-18T13:47:21.001Z</time>
      </trkpt>
      <trkpt lat="45.56365" lon="4.60211">
        <ele>488.81</ele>
        <time>2020-02-18T13:47:31.001Z</time>
      </trkpt>
      <trkpt lat="45.56368" lon="4.60201">
        <ele>489.14</ele>
        <time>2020-02-18T13:47:41.001Z</time>
      </trkpt>
      <trkpt lat="45.56374" lon="4.60187">
        <ele>490.56</ele>
        <time>2020-02-18T13:47:51.001Z</time>
      </trkpt>
      <trkpt lat="45.56377" lon="4.60173">
        <ele>493.35</ele>
        <time>2020-02-18T13:48:01.001Z</time>
      </trkpt>
      <trkpt lat="45.56378" lon="4.60157">
        <ele>495.43</ele>
        <time>2020-02-18T13:48:11.001Z</time>
      </trkpt>
      <trkpt lat="45.56382" lon="4.60143">
        <ele>492.53</ele>
        <time>2020-02-18T13:48:21.001Z</time>
      </trkpt>
      <trkpt lat="45.56384" lon="4.60128">
        <ele>491.88</ele>
        <time>2020-02-18T13:48:31.001Z</time>
      </trkpt>
      <trkpt lat="45.56386" lon="4.6011">
        <ele>494.37</ele>
        <time>2020-02-18T13:48:41.001Z</time>
      </trkpt>
      <trkpt lat="45.56386" lon="4.60094">
        <ele>492.71</ele>
        <time>2020-02-18T13:48:51.001Z</time>
      </trkpt>
      <trkpt lat="45.56386" lon="4.60077">
        <ele>493.66</ele>
        <time>2020-02-18T13:49:01.001Z</time>
      </trkpt>
      <trkpt lat="45.56385" lon="4.6006">
        <ele>495.79</ele>
        <time>2020-02-18T13:49:11.001Z</time>
      </trkpt>
      <trkpt lat="45.56385" lon="4.6005">
        <ele>495.35</ele>
        <time>2020-02-18T13:49:21.001Z</time>
      </trkpt>
      <trkpt lat="45.56386" lon="4.60052">
        <ele>496.03</ele>
        <time>2020-02-18T13:50:10.001Z</time>
      </trkpt>
      <trkpt lat="45.56388" lon="4.60051">
        <ele>496.03</ele>
        <time>2020-02-18T13:50:20.001Z</time>
      </trkpt>
      <trkpt lat="45.56386" lon="4.60052">
        <ele>496.03</ele>
        <time>2020-02-18T13:50:30.001Z</time>
      </trkpt>
      <trkpt lat="45.56386" lon="4.6005">
        <ele>495.89</ele>
        <time>2020-02-18T13:52:03.001Z</time>
      </trkpt>
      <trkpt lat="45.56387" lon="4.60039">
        <ele>496.76</ele>
        <time>2020-02-18T13:52:13.001Z</time>
      </trkpt>
      <trkpt lat="45.56385" lon="4.60025">
        <ele>496.76</ele>
        <time>2020-02-18T13:52:23.001Z</time>
      </trkpt>
      <trkpt lat="45.56384" lon="4.60006">
        <ele>497.09</ele>
        <time>2020-02-18T13:52:33.001Z</time>
      </trkpt>
      <trkpt lat="45.56383" lon="4.59989">
        <ele>499.63</ele>
        <time>2020-02-18T13:52:43.001Z</time>
      </trkpt>
      <trkpt lat="45.56382" lon="4.59971">
        <ele>499.02</ele>
        <time>2020-02-18T13:52:53.001Z</time>
      </trkpt>
      <trkpt lat="45.56381" lon="4.59956">
        <ele>497.95</ele>
        <time>2020-02-18T13:53:03.001Z</time>
      </trkpt>
      <trkpt lat="45.56377" lon="4.59936">
        <ele>503.08</ele>
        <time>2020-02-18T13:53:13.001Z</time>
      </trkpt>
      <trkpt lat="45.56374" lon="4.5992">
        <ele>502.12</ele>
        <time>2020-02-18T13:53:23.001Z</time>
      </trkpt>
      <trkpt lat="45.56369" lon="4.59904">
        <ele>500.76</ele>
        <time>2020-02-18T13:53:33.001Z</time>
      </trkpt>
      <trkpt lat="45.56364" lon="4.59889">
        <ele>502.44</ele>
        <time>2020-02-18T13:53:43.001Z</time>
      </trkpt>
      <trkpt lat="45.56359" lon="4.59876">
        <ele>502.02</ele>
        <time>2020-02-18T13:53:53.001Z</time>
      </trkpt>
      <trkpt lat="45.56352" lon="4.59862">
        <ele>501.83</ele>
        <time>2020-02-18T13:54:03.001Z</time>
      </trkpt>
      <trkpt lat="45.56345" lon="4.59846">
        <ele>502.25</ele>
        <time>2020-02-18T13:54:13.001Z</time>
      </trkpt>
      <trkpt lat="45.56338" lon="4.59835">
        <ele>501.38</ele>
        <time>2020-02-18T13:54:23.001Z</time>
      </trkpt>
      <trkpt lat="45.56332" lon="4.59826">
        <ele>500.5</ele>
        <time>2020-02-18T13:54:33.001Z</time>
      </trkpt>
      <trkpt lat="45.56325" lon="4.59814">
        <ele>498.67</ele>
        <time>2020-02-18T13:54:43.001Z</time>
      </trkpt>
      <trkpt lat="45.56318" lon="4.59803">
        <ele>497.77</ele>
        <time>2020-02-18T13:54:53.001Z</time>
      </trkpt>
      <trkpt lat="45.56311" lon="4.59792">
        <ele>496.45</ele>
        <time>2020-02-18T13:55:03.001Z</time>
      </trkpt>
      <trkpt lat="45.56302" lon="4.59782">
        <ele>496.01</ele>
        <time>2020-02-18T13:55:13.001Z</time>
      </trkpt>
      <trkpt lat="45.56293" lon="4.59769">
        <ele>496.41</ele>
        <time>2020-02-18T13:55:23.001Z</time>
      </trkpt>
      <trkpt lat="45.56283" lon="4.59758">
        <ele>496.54</ele>
        <time>2020-02-18T13:55:33.001Z</time>
      </trkpt>
      <trkpt lat="45.56273" lon="4.59747">
        <ele>499.29</ele>
        <time>2020-02-18T13:55:43.001Z</time>
      </trkpt>
      <trkpt lat="45.56263" lon="4.59734">
        <ele>502.19</ele>
        <time>2020-02-18T13:55:53.001Z</time>
      </trkpt>
      <trkpt lat="45.56253" lon="4.59723">
        <ele>505.48</ele>
        <time>2020-02-18T13:56:03.001Z</time>
      </trkpt>
      <trkpt lat="45.56244" lon="4.59713">
        <ele>506.11</ele>
        <time>2020-02-18T13:56:13.001Z</time>
      </trkpt>
      <trkpt lat="45.56235" lon="4.59704">
        <ele>505.53</ele>
        <time>2020-02-18T13:56:23.001Z</time>
      </trkpt>
      <trkpt lat="45.56228" lon="4.59692">
        <ele>505.03</ele>
        <time>2020-02-18T13:56:33.001Z</time>
      </trkpt>
      <trkpt lat="45.56221" lon="4.59679">
        <ele>505.71</ele>
        <time>2020-02-18T13:56:43.001Z</time>
      </trkpt>
      <trkpt lat="45.56213" lon="4.59666">
        <ele>505.04</ele>
        <time>2020-02-18T13:56:53.001Z</time>
      </trkpt>
      <trkpt lat="45.56206" lon="4.59653">
        <ele>504.59</ele>
        <time>2020-02-18T13:57:03.001Z</time>
      </trkpt>
      <trkpt lat="45.562" lon="4.59641">
        <ele>504.45</ele>
        <time>2020-02-18T13:57:13.001Z</time>
      </trkpt>
      <trkpt lat="45.56196" lon="4.59628">
        <ele>500.37</ele>
        <time>2020-02-18T13:57:23.001Z</time>
      </trkpt>
      <trkpt lat="45.56192" lon="4.59615">
        <ele>499.09</ele>
        <time>2020-02-18T13:57:33.001Z</time>
      </trkpt>
      <trkpt lat="45.56186" lon="4.59601">
        <ele>496.76</ele>
        <time>2020-02-18T13:57:43.001Z</time>
      </trkpt>
      <trkpt lat="45.5618" lon="4.59586">
        <ele>495.67</ele>
        <time>2020-02-18T13:57:53.001Z</time>
      </trkpt>
      <trkpt lat="45.56173" lon="4.59571">
        <ele>497.98</ele>
        <time>2020-02-18T13:58:03.001Z</time>
      </trkpt>
      <trkpt lat="45.56169" lon="4.59556">
        <ele>495.01</ele>
        <time>2020-02-18T13:58:13.001Z</time>
      </trkpt>
      <trkpt lat="45.56165" lon="4.59538">
        <ele>497.85</ele>
        <time>2020-02-18T13:58:23.001Z</time>
      </trkpt>
      <trkpt lat="45.5616" lon="4.5952">
        <ele>498.72</ele>
        <time>2020-02-18T13:58:33.001Z</time>
      </trkpt>
      <trkpt lat="45.56155" lon="4.59503">
        <ele>499.63</ele>
        <time>2020-02-18T13:58:43.001Z</time>
      </trkpt>
      <trkpt lat="45.56149" lon="4.59488">
        <ele>500.81</ele>
        <time>2020-02-18T13:58:53.001Z</time>
      </trkpt>
      <trkpt lat="45.56143" lon="4.59473">
        <ele>500.21</ele>
        <time>2020-02-18T13:59:03.001Z</time>
      </trkpt>
      <trkpt lat="45.56136" lon="4.59458">
        <ele>501.59</ele>
        <time>2020-02-18T13:59:13.001Z</time>
      </trkpt>
      <trkpt lat="45.56128" lon="4.59445">
        <ele>500.75</ele>
        <time>2020-02-18T13:59:23.001Z</time>
      </trkpt>
      <trkpt lat="45.56123" lon="4.59434">
        <ele>500.67</ele>
        <time>2020-02-18T13:59:33.001Z</time>
      </trkpt>
      <trkpt lat="45.56116" lon="4.5942">
        <ele>499.59</ele>
        <time>2020-02-18T13:59:43.001Z</time>
      </trkpt>
      <trkpt lat="45.56108" lon="4.59404">
        <ele>498.85</ele>
        <time>2020-02-18T13:59:53.001Z</time>
      </trkpt>
      <trkpt lat="45.561" lon="4.59391">
        <ele>498.78</ele>
        <time>2020-02-18T14:00:03.001Z</time>
      </trkpt>
      <trkpt lat="45.56092" lon="4.59377">
        <ele>498.36</ele>
        <time>2020-02-18T14:00:13.001Z</time>
      </trkpt>
      <trkpt lat="45.56086" lon="4.59361">
        <ele>497.81</ele>
        <time>2020-02-18T14:00:23.001Z</time>
      </trkpt>
      <trkpt lat="45.56078" lon="4.59346">
        <ele>496.61</ele>
        <time>2020-02-18T14:00:33.001Z</time>
      </trkpt>
      <trkpt lat="45.56073" lon="4.59331">
        <ele>495.3</ele>
        <time>2020-02-18T14:00:43.001Z</time>
      </trkpt>
      <trkpt lat="45.56071" lon="4.59316">
        <ele>495.76</ele>
        <time>2020-02-18T14:00:53.001Z</time>
      </trkpt>
      <trkpt lat="45.56069" lon="4.59301">
        <ele>494.08</ele>
        <time>2020-02-18T14:01:03.001Z</time>
      </trkpt>
      <trkpt lat="45.56069" lon="4.59285">
        <ele>492.33</ele>
        <time>2020-02-18T14:01:13.001Z</time>
      </trkpt>
      <trkpt lat="45.56069" lon="4.59267">
        <ele>493.54</ele>
        <time>2020-02-18T14:01:23.001Z</time>
      </trkpt>
      <trkpt lat="45.56069" lon="4.59247">
        <ele>495.57</ele>
        <time>2020-02-18T14:01:33.001Z</time>
      </trkpt>
      <trkpt lat="45.56071" lon="4.5923">
        <ele>497.22</ele>
        <time>2020-02-18T14:01:43.001Z</time>
      </trkpt>
      <trkpt lat="45.5607" lon="4.59211">
        <ele>498.71</ele>
        <time>2020-02-18T14:01:53.001Z</time>
      </trkpt>
      <trkpt lat="45.56072" lon="4.59197">
        <ele>498.2</ele>
        <time>2020-02-18T14:02:03.002Z</time>
      </trkpt>
      <trkpt lat="45.56073" lon="4.5918">
        <ele>497.9</ele>
        <time>2020-02-18T14:02:13.001Z</time>
      </trkpt>
      <trkpt lat="45.56076" lon="4.59165">
        <ele>497.07</ele>
        <time>2020-02-18T14:02:23.001Z</time>
      </trkpt>
      <trkpt lat="45.56076" lon="4.59148">
        <ele>498.11</ele>
        <time>2020-02-18T14:02:33.001Z</time>
      </trkpt>
      <trkpt lat="45.56075" lon="4.5913">
        <ele>498.18</ele>
        <time>2020-02-18T14:02:43.001Z</time>
      </trkpt>
      <trkpt lat="45.56073" lon="4.59115">
        <ele>499</ele>
        <time>2020-02-18T14:02:53.001Z</time>
      </trkpt>
      <trkpt lat="45.56072" lon="4.59112">
        <ele>499.39</ele>
        <time>2020-02-18T14:03:03.001Z</time>
      </trkpt>
      <trkpt lat="45.56073" lon="4.59115">
        <ele>499.39</ele>
        <time>2020-02-18T14:03:46.001Z</time>
      </trkpt>
      <trkpt lat="45.56075" lon="4.59104">
        <ele>499.26</ele>
        <time>2020-02-18T14:03:56.001Z</time>
      </trkpt>
      <trkpt lat="45.56077" lon="4.59089">
        <ele>500.17</ele>
        <time>2020-02-18T14:04:06.001Z</time>
      </trkpt>
      <trkpt lat="45.56078" lon="4.59074">
        <ele>502.52</ele>
        <time>2020-02-18T14:04:16.000Z</time>
      </trkpt>
      <trkpt lat="45.56078" lon="4.59063">
        <ele>502.64</ele>
        <time>2020-02-18T14:04:25.001Z</time>
      </trkpt>
      <trkpt lat="45.56078" lon="4.59053">
        <ele>505.95</ele>
        <time>2020-02-18T14:04:35.001Z</time>
      </trkpt>
      <trkpt lat="45.56077" lon="4.59041">
        <ele>507.82</ele>
        <time>2020-02-18T14:04:45.001Z</time>
      </trkpt>
      <trkpt lat="45.56076" lon="4.59027">
        <ele>508.95</ele>
        <time>2020-02-18T14:04:55.001Z</time>
      </trkpt>
      <trkpt lat="45.56074" lon="4.5901">
        <ele>509.27</ele>
        <time>2020-02-18T14:05:05.001Z</time>
      </trkpt>
      <trkpt lat="45.56075" lon="4.58997">
        <ele>512.46</ele>
        <time>2020-02-18T14:05:15.001Z</time>
      </trkpt>
      <trkpt lat="45.56078" lon="4.58984">
        <ele>513.92</ele>
        <time>2020-02-18T14:05:25.001Z</time>
      </trkpt>
      <trkpt lat="45.56081" lon="4.58973">
        <ele>512.22</ele>
        <time>2020-02-18T14:05:35.001Z</time>
      </trkpt>
      <trkpt lat="45.56085" lon="4.58964">
        <ele>512.21</ele>
        <time>2020-02-18T14:05:45.001Z</time>
      </trkpt>
      <trkpt lat="45.56089" lon="4.58953">
        <ele>512.6</ele>
        <time>2020-02-18T14:05:55.001Z</time>
      </trkpt>
      <trkpt lat="45.56092" lon="4.58943">
        <ele>514.98</ele>
        <time>2020-02-18T14:06:05.001Z</time>
      </trkpt>
      <trkpt lat="45.56096" lon="4.58933">
        <ele>518.27</ele>
        <time>2020-02-18T14:06:15.001Z</time>
      </trkpt>
      <trkpt lat="45.56099" lon="4.58924">
        <ele>521.6</ele>
        <time>2020-02-18T14:06:25.001Z</time>
      </trkpt>
      <trkpt lat="45.56105" lon="4.58913">
        <ele>524.25</ele>
        <time>2020-02-18T14:06:35.001Z</time>
      </trkpt>
      <trkpt lat="45.56109" lon="4.58903">
        <ele>526.08</ele>
        <time>2020-02-18T14:06:45.001Z</time>
      </trkpt>
      <trkpt lat="45.56113" lon="4.58893">
        <ele>527.13</ele>
        <time>2020-02-18T14:06:55.001Z</time>
      </trkpt>
      <trkpt lat="45.56117" lon="4.58882">
        <ele>526.38</ele>
        <time>2020-02-18T14:07:05.001Z</time>
      </trkpt>
      <trkpt lat="45.56121" lon="4.5887">
        <ele>527.11</ele>
        <time>2020-02-18T14:07:15.001Z</time>
      </trkpt>
      <trkpt lat="45.56122" lon="4.58859">
        <ele>528.8</ele>
        <time>2020-02-18T14:07:25.001Z</time>
      </trkpt>
      <trkpt lat="45.56125" lon="4.5885">
        <ele>530.26</ele>
        <time>2020-02-18T14:07:35.001Z</time>
      </trkpt>
      <trkpt lat="45.56127" lon="4.5884">
        <ele>531.09</ele>
        <time>2020-02-18T14:07:45.001Z</time>
      </trkpt>
      <trkpt lat="45.5613" lon="4.58831">
        <ele>531.92</ele>
        <time>2020-02-18T14:07:55.001Z</time>
      </trkpt>
      <trkpt lat="45.56134" lon="4.58824">
        <ele>533.39</ele>
        <time>2020-02-18T14:08:05.001Z</time>
      </trkpt>
      <trkpt lat="45.56138" lon="4.58815">
        <ele>535.6</ele>
        <time>2020-02-18T14:08:15.001Z</time>
      </trkpt>
      <trkpt lat="45.5614" lon="4.58804">
        <ele>538.36</ele>
        <time>2020-02-18T14:08:25.001Z</time>
      </trkpt>
      <trkpt lat="45.56143" lon="4.58793">
        <ele>540.53</ele>
        <time>2020-02-18T14:08:35.001Z</time>
      </trkpt>
      <trkpt lat="45.56146" lon="4.58784">
        <ele>542.45</ele>
        <time>2020-02-18T14:08:45.001Z</time>
      </trkpt>
      <trkpt lat="45.56148" lon="4.58774">
        <ele>543.46</ele>
        <time>2020-02-18T14:08:55.001Z</time>
      </trkpt>
      <trkpt lat="45.56152" lon="4.58765">
        <ele>543.88</ele>
        <time>2020-02-18T14:09:05.001Z</time>
      </trkpt>
      <trkpt lat="45.56154" lon="4.58758">
        <ele>543.77</ele>
        <time>2020-02-18T14:09:15.001Z</time>
      </trkpt>
      <trkpt lat="45.56157" lon="4.58751">
        <ele>544.64</ele>
        <time>2020-02-18T14:09:25.001Z</time>
      </trkpt>
      <trkpt lat="45.5616" lon="4.58739">
        <ele>545.37</ele>
        <time>2020-02-18T14:09:35.001Z</time>
      </trkpt>
      <trkpt lat="45.56164" lon="4.58726">
        <ele>546.05</ele>
        <time>2020-02-18T14:09:45.001Z</time>
      </trkpt>
      <trkpt lat="45.56167" lon="4.58715">
        <ele>546.68</ele>
        <time>2020-02-18T14:09:55.001Z</time>
      </trkpt>
      <trkpt lat="45.5617" lon="4.58703">
        <ele>547.48</ele>
        <time>2020-02-18T14:10:05.001Z</time>
      </trkpt>
      <trkpt lat="45.56173" lon="4.58692">
        <ele>548.36</ele>
        <time>2020-02-18T14:10:15.001Z</time>
      </trkpt>
      <trkpt lat="45.56177" lon="4.5868">
        <ele>550.57</ele>
        <time>2020-02-18T14:10:25.001Z</time>
      </trkpt>
      <trkpt lat="45.56181" lon="4.5867">
        <ele>552.76</ele>
        <time>2020-02-18T14:10:35.001Z</time>
      </trkpt>
      <trkpt lat="45.56184" lon="4.58662">
        <ele>553.99</ele>
        <time>2020-02-18T14:10:45.001Z</time>
      </trkpt>
      <trkpt lat="45.56186" lon="4.58655">
        <ele>555.3</ele>
        <time>2020-02-18T14:10:55.001Z</time>
      </trkpt>
      <trkpt lat="45.56191" lon="4.5865">
        <ele>557.79</ele>
        <time>2020-02-18T14:11:05.001Z</time>
      </trkpt>
      <trkpt lat="45.56193" lon="4.58641">
        <ele>559.66</ele>
        <time>2020-02-18T14:11:15.001Z</time>
      </trkpt>
      <trkpt lat="45.56196" lon="4.58631">
        <ele>559.14</ele>
        <time>2020-02-18T14:11:25.001Z</time>
      </trkpt>
      <trkpt lat="45.56201" lon="4.5862">
        <ele>560.59</ele>
        <time>2020-02-18T14:11:35.001Z</time>
      </trkpt>
      <trkpt lat="45.56203" lon="4.5861">
        <ele>561.84</ele>
        <time>2020-02-18T14:11:45.001Z</time>
      </trkpt>
      <trkpt lat="45.56206" lon="4.586">
        <ele>564.94</ele>
        <time>2020-02-18T14:11:55.001Z</time>
      </trkpt>
      <trkpt lat="45.5621" lon="4.5859">
        <ele>566.88</ele>
        <time>2020-02-18T14:12:05.001Z</time>
      </trkpt>
      <trkpt lat="45.56211" lon="4.5858">
        <ele>568.97</ele>
        <time>2020-02-18T14:12:15.001Z</time>
      </trkpt>
      <trkpt lat="45.56211" lon="4.58571">
        <ele>570.07</ele>
        <time>2020-02-18T14:12:25.001Z</time>
      </trkpt>
      <trkpt lat="45.56215" lon="4.58563">
        <ele>569.47</ele>
        <time>2020-02-18T14:12:35.001Z</time>
      </trkpt>
      <trkpt lat="45.56218" lon="4.58553">
        <ele>571.23</ele>
        <time>2020-02-18T14:12:45.001Z</time>
      </trkpt>
      <trkpt lat="45.56225" lon="4.58546">
        <ele>574.68</ele>
        <time>2020-02-18T14:12:55.001Z</time>
      </trkpt>
      <trkpt lat="45.56233" lon="4.58535">
        <ele>575.78</ele>
        <time>2020-02-18T14:13:05.001Z</time>
      </trkpt>
      <trkpt lat="45.5624" lon="4.58524">
        <ele>576.27</ele>
        <time>2020-02-18T14:13:15.001Z</time>
      </trkpt>
      <trkpt lat="45.56248" lon="4.58515">
        <ele>575.65</ele>
        <time>2020-02-18T14:13:25.001Z</time>
      </trkpt>
      <trkpt lat="45.56254" lon="4.58507">
        <ele>574.57</ele>
        <time>2020-02-18T14:13:35.001Z</time>
      </trkpt>
      <trkpt lat="45.56259" lon="4.58497">
        <ele>574.8</ele>
        <time>2020-02-18T14:13:45.001Z</time>
      </trkpt>
      <trkpt lat="45.56266" lon="4.58488">
        <ele>576.18</ele>
        <time>2020-02-18T14:13:55.001Z</time>
      </trkpt>
      <trkpt lat="45.56272" lon="4.58478">
        <ele>579.17</ele>
        <time>2020-02-18T14:14:05.001Z</time>
      </trkpt>
      <trkpt lat="45.56279" lon="4.58469">
        <ele>580.2</ele>
        <time>2020-02-18T14:14:15.001Z</time>
      </trkpt>
      <trkpt lat="45.56284" lon="4.58458">
        <ele>581.92</ele>
        <time>2020-02-18T14:14:25.001Z</time>
      </trkpt>
      <trkpt lat="45.5629" lon="4.58447">
        <ele>583.79</ele>
        <time>2020-02-18T14:14:35.001Z</time>
      </trkpt>
      <trkpt lat="45.56294" lon="4.58435">
        <ele>585.23</ele>
        <time>2020-02-18T14:14:45.001Z</time>
      </trkpt>
      <trkpt lat="45.56297" lon="4.58423">
        <ele>586.53</ele>
        <time>2020-02-18T14:14:55.001Z</time>
      </trkpt>
      <trkpt lat="45.56301" lon="4.58412">
        <ele>587.72</ele>
        <time>2020-02-18T14:15:05.001Z</time>
      </trkpt>
      <trkpt lat="45.56305" lon="4.58405">
        <ele>588.06</ele>
        <time>2020-02-18T14:15:15.001Z</time>
      </trkpt>
      <trkpt lat="45.56305" lon="4.58403">
        <ele>587.85</ele>
        <time>2020-02-18T14:17:33.001Z</time>
      </trkpt>
      <trkpt lat="45.56312" lon="4.58397">
        <ele>587.79</ele>
        <time>2020-02-18T14:17:43.001Z</time>
      </trkpt>
      <trkpt lat="45.56316" lon="4.58389">
        <ele>588.69</ele>
        <time>2020-02-18T14:17:53.001Z</time>
      </trkpt>
      <trkpt lat="45.5632" lon="4.58375">
        <ele>589.08</ele>
        <time>2020-02-18T14:18:03.001Z</time>
      </trkpt>
      <trkpt lat="45.56324" lon="4.58364">
        <ele>589.28</ele>
        <time>2020-02-18T14:18:13.001Z</time>
      </trkpt>
      <trkpt lat="45.56329" lon="4.58356">
        <ele>589.37</ele>
        <time>2020-02-18T14:18:23.001Z</time>
      </trkpt>
      <trkpt lat="45.56333" lon="4.58351">
        <ele>591.13</ele>
        <time>2020-02-18T14:18:33.001Z</time>
      </trkpt>
      <trkpt lat="45.56338" lon="4.58341">
        <ele>590.88</ele>
        <time>2020-02-18T14:18:43.001Z</time>
      </trkpt>
      <trkpt lat="45.56346" lon="4.58331">
        <ele>587.15</ele>
        <time>2020-02-18T14:18:53.001Z</time>
      </trkpt>
      <trkpt lat="45.56354" lon="4.58321">
        <ele>585.4</ele>
        <time>2020-02-18T14:19:03.001Z</time>
      </trkpt>
      <trkpt lat="45.56362" lon="4.58311">
        <ele>585.86</ele>
        <time>2020-02-18T14:19:13.001Z</time>
      </trkpt>
      <trkpt lat="45.5637" lon="4.58301">
        <ele>586.66</ele>
        <time>2020-02-18T14:19:23.001Z</time>
      </trkpt>
      <trkpt lat="45.56379" lon="4.58294">
        <ele>584.75</ele>
        <time>2020-02-18T14:19:33.001Z</time>
      </trkpt>
      <trkpt lat="45.56386" lon="4.58289">
        <ele>582.58</ele>
        <time>2020-02-18T14:19:43.001Z</time>
      </trkpt>
      <trkpt lat="45.56393" lon="4.58285">
        <ele>580.41</ele>
        <time>2020-02-18T14:19:53.001Z</time>
      </trkpt>
      <trkpt lat="45.56397" lon="4.58279">
        <ele>577.21</ele>
        <time>2020-02-18T14:20:03.001Z</time>
      </trkpt>
      <trkpt lat="45.56404" lon="4.58275">
        <ele>575.29</ele>
        <time>2020-02-18T14:20:13.001Z</time>
      </trkpt>
      <trkpt lat="45.5641" lon="4.58267">
        <ele>576.94</ele>
        <time>2020-02-18T14:20:23.001Z</time>
      </trkpt>
      <trkpt lat="45.56419" lon="4.58261">
        <ele>577.79</ele>
        <time>2020-02-18T14:20:33.001Z</time>
      </trkpt>
      <trkpt lat="45.56428" lon="4.58255">
        <ele>577.28</ele>
        <time>2020-02-18T14:20:43.001Z</time>
      </trkpt>
      <trkpt lat="45.56436" lon="4.58247">
        <ele>574.27</ele>
        <time>2020-02-18T14:20:53.001Z</time>
      </trkpt>
      <trkpt lat="45.56441" lon="4.5824">
        <ele>572.34</ele>
        <time>2020-02-18T14:21:03.001Z</time>
      </trkpt>
      <trkpt lat="45.56447" lon="4.58231">
        <ele>568.2</ele>
        <time>2020-02-18T14:21:13.001Z</time>
      </trkpt>
      <trkpt lat="45.56451" lon="4.58224">
        <ele>562.96</ele>
        <time>2020-02-18T14:21:23.001Z</time>
      </trkpt>
      <trkpt lat="45.56454" lon="4.5822">
        <ele>560.97</ele>
        <time>2020-02-18T14:21:33.001Z</time>
      </trkpt>
      <trkpt lat="45.5646" lon="4.58213">
        <ele>558.83</ele>
        <time>2020-02-18T14:21:43.001Z</time>
      </trkpt>
      <trkpt lat="45.56467" lon="4.58209">
        <ele>558.41</ele>
        <time>2020-02-18T14:21:53.001Z</time>
      </trkpt>
      <trkpt lat="45.56476" lon="4.58202">
        <ele>557.72</ele>
        <time>2020-02-18T14:22:03.001Z</time>
      </trkpt>
      <trkpt lat="45.56486" lon="4.58199">
        <ele>558.37</ele>
        <time>2020-02-18T14:22:13.001Z</time>
      </trkpt>
      <trkpt lat="45.56497" lon="4.58197">
        <ele>554.43</ele>
        <time>2020-02-18T14:22:23.001Z</time>
      </trkpt>
      <trkpt lat="45.56509" lon="4.58196">
        <ele>551.5</ele>
        <time>2020-02-18T14:22:33.001Z</time>
      </trkpt>
      <trkpt lat="45.56519" lon="4.58196">
        <ele>546.11</ele>
        <time>2020-02-18T14:22:43.001Z</time>
      </trkpt>
      <trkpt lat="45.5653" lon="4.58197">
        <ele>543.03</ele>
        <time>2020-02-18T14:22:53.001Z</time>
      </trkpt>
      <trkpt lat="45.56542" lon="4.58197">
        <ele>543.17</ele>
        <time>2020-02-18T14:23:03.001Z</time>
      </trkpt>
      <trkpt lat="45.56556" lon="4.58197">
        <ele>543.62</ele>
        <time>2020-02-18T14:23:13.001Z</time>
      </trkpt>
      <trkpt lat="45.5657" lon="4.58196">
        <ele>544.51</ele>
        <time>2020-02-18T14:23:23.001Z</time>
      </trkpt>
      <trkpt lat="45.56583" lon="4.58192">
        <ele>545.04</ele>
        <time>2020-02-18T14:23:33.001Z</time>
      </trkpt>
      <trkpt lat="45.56592" lon="4.58191">
        <ele>544</ele>
        <time>2020-02-18T14:23:43.001Z</time>
      </trkpt>
      <trkpt lat="45.566" lon="4.58187">
        <ele>542.29</ele>
        <time>2020-02-18T14:23:53.001Z</time>
      </trkpt>
      <trkpt lat="45.5661" lon="4.58187">
        <ele>540</ele>
        <time>2020-02-18T14:24:03.001Z</time>
      </trkpt>
      <trkpt lat="45.56619" lon="4.58185">
        <ele>539.36</ele>
        <time>2020-02-18T14:24:13.001Z</time>
      </trkpt>
      <trkpt lat="45.56628" lon="4.58183">
        <ele>537.87</ele>
        <time>2020-02-18T14:24:23.001Z</time>
      </trkpt>
      <trkpt lat="45.56637" lon="4.58182">
        <ele>537.86</ele>
        <time>2020-02-18T14:24:33.001Z</time>
      </trkpt>
      <trkpt lat="45.56646" lon="4.58179">
        <ele>535.68</ele>
        <time>2020-02-18T14:24:43.001Z</time>
      </trkpt>
      <trkpt lat="45.56655" lon="4.58175">
        <ele>535.22</ele>
        <time>2020-02-18T14:24:53.001Z</time>
      </trkpt>
      <trkpt lat="45.56667" lon="4.58172">
        <ele>533.96</ele>
        <time>2020-02-18T14:25:03.001Z</time>
      </trkpt>
      <trkpt lat="45.56676" lon="4.58171">
        <ele>532.89</ele>
        <time>2020-02-18T14:25:13.001Z</time>
      </trkpt>
      <trkpt lat="45.56678" lon="4.58171">
        <ele>531.06</ele>
        <time>2020-02-18T14:25:23.001Z</time>
      </trkpt>
      <trkpt lat="45.56687" lon="4.5817">
        <ele>529.2</ele>
        <time>2020-02-18T14:25:33.001Z</time>
      </trkpt>
      <trkpt lat="45.56697" lon="4.58169">
        <ele>529.56</ele>
        <time>2020-02-18T14:25:43.001Z</time>
      </trkpt>
      <trkpt lat="45.56705" lon="4.58169">
        <ele>528.84</ele>
        <time>2020-02-18T14:25:53.001Z</time>
      </trkpt>
      <trkpt lat="45.56711" lon="4.58167">
        <ele>526.97</ele>
        <time>2020-02-18T14:26:03.001Z</time>
      </trkpt>
      <trkpt lat="45.56718" lon="4.58163">
        <ele>525.23</ele>
        <time>2020-02-18T14:26:13.001Z</time>
      </trkpt>
      <trkpt lat="45.56723" lon="4.58162">
        <ele>525.19</ele>
        <time>2020-02-18T14:26:23.001Z</time>
      </trkpt>
      <trkpt lat="45.56729" lon="4.58161">
        <ele>524.15</ele>
        <time>2020-02-18T14:26:33.001Z</time>
      </trkpt>
      <trkpt lat="45.56736" lon="4.58159">
        <ele>522.92</ele>
        <time>2020-02-18T14:26:43.001Z</time>
      </trkpt>
      <trkpt lat="45.56741" lon="4.58157">
        <ele>521.35</ele>
        <time>2020-02-18T14:26:53.001Z</time>
      </trkpt>
      <trkpt lat="45.56741" lon="4.5816">
        <ele>519.71</ele>
        <time>2020-02-18T14:27:03.001Z</time>
      </trkpt>
      <trkpt lat="45.56741" lon="4.58155">
        <ele>519.71</ele>
        <time>2020-02-18T14:27:40.001Z</time>
      </trkpt>
      <trkpt lat="45.56741" lon="4.58154">
        <ele>519.71</ele>
        <time>2020-02-18T14:27:50.001Z</time>
      </trkpt>
      <trkpt lat="45.56744" lon="4.58158">
        <ele>514.55</ele>
        <time>2020-02-18T14:28:00.000Z</time>
      </trkpt>
      <trkpt lat="45.56749" lon="4.58165">
        <ele>510.22</ele>
        <time>2020-02-18T14:28:09.001Z</time>
      </trkpt>
      <trkpt lat="45.56753" lon="4.58172">
        <ele>505.47</ele>
        <time>2020-02-18T14:28:19.001Z</time>
      </trkpt>
      <trkpt lat="45.56758" lon="4.58179">
        <ele>507.29</ele>
        <time>2020-02-18T14:28:29.001Z</time>
      </trkpt>
      <trkpt lat="45.56768" lon="4.582">
        <ele>509.94</ele>
        <time>2020-02-18T14:28:39.001Z</time>
      </trkpt>
      <trkpt lat="45.56774" lon="4.58215">
        <ele>511.33</ele>
        <time>2020-02-18T14:28:49.001Z</time>
      </trkpt>
      <trkpt lat="45.56781" lon="4.58235">
        <ele>512.3</ele>
        <time>2020-02-18T14:28:59.001Z</time>
      </trkpt>
      <trkpt lat="45.56786" lon="4.58252">
        <ele>515.31</ele>
        <time>2020-02-18T14:29:09.001Z</time>
      </trkpt>
      <trkpt lat="45.56789" lon="4.58262">
        <ele>516.14</ele>
        <time>2020-02-18T14:29:19.001Z</time>
      </trkpt>
      <trkpt lat="45.56791" lon="4.58277">
        <ele>517.87</ele>
        <time>2020-02-18T14:29:29.001Z</time>
      </trkpt>
      <trkpt lat="45.56791" lon="4.58291">
        <ele>518.8</ele>
        <time>2020-02-18T14:29:39.001Z</time>
      </trkpt>
      <trkpt lat="45.56791" lon="4.58306">
        <ele>517.77</ele>
        <time>2020-02-18T14:29:49.001Z</time>
      </trkpt>
      <trkpt lat="45.56791" lon="4.5832">
        <ele>517.8</ele>
        <time>2020-02-18T14:29:59.001Z</time>
      </trkpt>
      <trkpt lat="45.56789" lon="4.58329">
        <ele>518.18</ele>
        <time>2020-02-18T14:30:09.001Z</time>
      </trkpt>
      <trkpt lat="45.56786" lon="4.58342">
        <ele>517.68</ele>
        <time>2020-02-18T14:30:19.001Z</time>
      </trkpt>
      <trkpt lat="45.5678" lon="4.58357">
        <ele>518.03</ele>
        <time>2020-02-18T14:30:29.001Z</time>
      </trkpt>
      <trkpt lat="45.56774" lon="4.58369">
        <ele>517.55</ele>
        <time>2020-02-18T14:30:39.001Z</time>
      </trkpt>
      <trkpt lat="45.56769" lon="4.58385">
        <ele>517.64</ele>
        <time>2020-02-18T14:30:49.001Z</time>
      </trkpt>
      <trkpt lat="45.56764" lon="4.58407">
        <ele>515.92</ele>
        <time>2020-02-18T14:30:59.001Z</time>
      </trkpt>
      <trkpt lat="45.56765" lon="4.58424">
        <ele>516.41</ele>
        <time>2020-02-18T14:31:09.001Z</time>
      </trkpt>
      <trkpt lat="45.56768" lon="4.58438">
        <ele>513.76</ele>
        <time>2020-02-18T14:31:19.001Z</time>
      </trkpt>
      <trkpt lat="45.5677" lon="4.58452">
        <ele>514.16</ele>
        <time>2020-02-18T14:31:29.001Z</time>
      </trkpt>
      <trkpt lat="45.56774" lon="4.58467">
        <ele>515.58</ele>
        <time>2020-02-18T14:31:39.001Z</time>
      </trkpt>
      <trkpt lat="45.56779" lon="4.58483">
        <ele>515.87</ele>
        <time>2020-02-18T14:31:49.001Z</time>
      </trkpt>
      <trkpt lat="45.56782" lon="4.58498">
        <ele>516.13</ele>
        <time>2020-02-18T14:31:59.001Z</time>
      </trkpt>
      <trkpt lat="45.56783" lon="4.58513">
        <ele>517.92</ele>
        <time>2020-02-18T14:32:09.001Z</time>
      </trkpt>
      <trkpt lat="45.56782" lon="4.58527">
        <ele>520.02</ele>
        <time>2020-02-18T14:32:19.001Z</time>
      </trkpt>
      <trkpt lat="45.5678" lon="4.58542">
        <ele>523.91</ele>
        <time>2020-02-18T14:32:29.001Z</time>
      </trkpt>
      <trkpt lat="45.56779" lon="4.58557">
        <ele>526.15</ele>
        <time>2020-02-18T14:32:39.001Z</time>
      </trkpt>
      <trkpt lat="45.56778" lon="4.58572">
        <ele>525.79</ele>
        <time>2020-02-18T14:32:49.001Z</time>
      </trkpt>
      <trkpt lat="45.56776" lon="4.58586">
        <ele>527.91</ele>
        <time>2020-02-18T14:32:59.001Z</time>
      </trkpt>
      <trkpt lat="45.56775" lon="4.586">
        <ele>529.99</ele>
        <time>2020-02-18T14:33:09.001Z</time>
      </trkpt>
      <trkpt lat="45.56772" lon="4.58615">
        <ele>527.99</ele>
        <time>2020-02-18T14:33:19.001Z</time>
      </trkpt>
      <trkpt lat="45.56768" lon="4.5863">
        <ele>525.01</ele>
        <time>2020-02-18T14:33:29.001Z</time>
      </trkpt>
      <trkpt lat="45.56763" lon="4.58647">
        <ele>524.83</ele>
        <time>2020-02-18T14:33:39.001Z</time>
      </trkpt>
      <trkpt lat="45.56758" lon="4.58662">
        <ele>524.36</ele>
        <time>2020-02-18T14:33:49.001Z</time>
      </trkpt>
      <trkpt lat="45.56755" lon="4.58678">
        <ele>524.6</ele>
        <time>2020-02-18T14:33:59.001Z</time>
      </trkpt>
      <trkpt lat="45.56757" lon="4.58691">
        <ele>524.52</ele>
        <time>2020-02-18T14:34:09.001Z</time>
      </trkpt>
      <trkpt lat="45.56758" lon="4.58708">
        <ele>526.63</ele>
        <time>2020-02-18T14:34:19.001Z</time>
      </trkpt>
      <trkpt lat="45.56761" lon="4.58723">
        <ele>527.3</ele>
        <time>2020-02-18T14:34:29.001Z</time>
      </trkpt>
      <trkpt lat="45.56763" lon="4.58738">
        <ele>528.8</ele>
        <time>2020-02-18T14:34:39.001Z</time>
      </trkpt>
      <trkpt lat="45.56767" lon="4.58753">
        <ele>531.05</ele>
        <time>2020-02-18T14:34:49.001Z</time>
      </trkpt>
      <trkpt lat="45.56769" lon="4.58767">
        <ele>529.87</ele>
        <time>2020-02-18T14:34:59.001Z</time>
      </trkpt>
      <trkpt lat="45.56769" lon="4.58777">
        <ele>528.52</ele>
        <time>2020-02-18T14:35:09.001Z</time>
      </trkpt>
      <trkpt lat="45.56769" lon="4.58789">
        <ele>527.35</ele>
        <time>2020-02-18T14:35:19.001Z</time>
      </trkpt>
      <trkpt lat="45.56768" lon="4.588">
        <ele>525.42</ele>
        <time>2020-02-18T14:35:29.001Z</time>
      </trkpt>
      <trkpt lat="45.56769" lon="4.58816">
        <ele>525.03</ele>
        <time>2020-02-18T14:35:39.001Z</time>
      </trkpt>
      <trkpt lat="45.56773" lon="4.58831">
        <ele>521.44</ele>
        <time>2020-02-18T14:35:49.001Z</time>
      </trkpt>
      <trkpt lat="45.56777" lon="4.58844">
        <ele>518.4</ele>
        <time>2020-02-18T14:35:59.001Z</time>
      </trkpt>
      <trkpt lat="45.5678" lon="4.58859">
        <ele>514.69</ele>
        <time>2020-02-18T14:36:09.001Z</time>
      </trkpt>
      <trkpt lat="45.56783" lon="4.58871">
        <ele>510.91</ele>
        <time>2020-02-18T14:36:19.001Z</time>
      </trkpt>
      <trkpt lat="45.56785" lon="4.58887">
        <ele>510.17</ele>
        <time>2020-02-18T14:36:29.001Z</time>
      </trkpt>
      <trkpt lat="45.56786" lon="4.58905">
        <ele>504.73</ele>
        <time>2020-02-18T14:36:39.001Z</time>
      </trkpt>
      <trkpt lat="45.56787" lon="4.58922">
        <ele>503.3</ele>
        <time>2020-02-18T14:36:49.001Z</time>
      </trkpt>
      <trkpt lat="45.56789" lon="4.5894">
        <ele>505.52</ele>
        <time>2020-02-18T14:36:59.001Z</time>
      </trkpt>
      <trkpt lat="45.56789" lon="4.58956">
        <ele>505.83</ele>
        <time>2020-02-18T14:37:09.001Z</time>
      </trkpt>
      <trkpt lat="45.56788" lon="4.58971">
        <ele>503.48</ele>
        <time>2020-02-18T14:37:19.001Z</time>
      </trkpt>
      <trkpt lat="45.56787" lon="4.58987">
        <ele>502.99</ele>
        <time>2020-02-18T14:37:29.001Z</time>
      </trkpt>
      <trkpt lat="45.56787" lon="4.59001">
        <ele>504.57</ele>
        <time>2020-02-18T14:37:39.001Z</time>
      </trkpt>
      <trkpt lat="45.56788" lon="4.59016">
        <ele>505.37</ele>
        <time>2020-02-18T14:37:49.001Z</time>
      </trkpt>
      <trkpt lat="45.5679" lon="4.59033">
        <ele>504.97</ele>
        <time>2020-02-18T14:37:59.001Z</time>
      </trkpt>
      <trkpt lat="45.56791" lon="4.59048">
        <ele>505.82</ele>
        <time>2020-02-18T14:38:09.001Z</time>
      </trkpt>
      <trkpt lat="45.5679" lon="4.59056">
        <ele>506.59</ele>
        <time>2020-02-18T14:38:19.001Z</time>
      </trkpt>
      <trkpt lat="45.56792" lon="4.59064">
        <ele>506.51</ele>
        <time>2020-02-18T14:38:29.001Z</time>
      </trkpt>
      <trkpt lat="45.56791" lon="4.59066">
        <ele>505.72</ele>
        <time>2020-02-18T14:38:56.001Z</time>
      </trkpt>
      <trkpt lat="45.56792" lon="4.59075">
        <ele>502.72</ele>
        <time>2020-02-18T14:39:06.001Z</time>
      </trkpt>
      <trkpt lat="45.56791" lon="4.59086">
        <ele>498.44</ele>
        <time>2020-02-18T14:39:16.000Z</time>
      </trkpt>
      <trkpt lat="45.56791" lon="4.59098">
        <ele>493.24</ele>
        <time>2020-02-18T14:39:25.001Z</time>
      </trkpt>
      <trkpt lat="45.5679" lon="4.59113">
        <ele>491.83</ele>
        <time>2020-02-18T14:39:35.001Z</time>
      </trkpt>
      <trkpt lat="45.56791" lon="4.59126">
        <ele>490.3</ele>
        <time>2020-02-18T14:39:45.001Z</time>
      </trkpt>
      <trkpt lat="45.56789" lon="4.59139">
        <ele>486.51</ele>
        <time>2020-02-18T14:39:55.001Z</time>
      </trkpt>
      <trkpt lat="45.56788" lon="4.59152">
        <ele>484.65</ele>
        <time>2020-02-18T14:40:05.001Z</time>
      </trkpt>
      <trkpt lat="45.56787" lon="4.59166">
        <ele>485.25</ele>
        <time>2020-02-18T14:40:15.001Z</time>
      </trkpt>
      <trkpt lat="45.56788" lon="4.59183">
        <ele>486.21</ele>
        <time>2020-02-18T14:40:25.001Z</time>
      </trkpt>
      <trkpt lat="45.56787" lon="4.592">
        <ele>487.17</ele>
        <time>2020-02-18T14:40:35.001Z</time>
      </trkpt>
      <trkpt lat="45.56786" lon="4.59216">
        <ele>486.07</ele>
        <time>2020-02-18T14:40:45.001Z</time>
      </trkpt>
      <trkpt lat="45.56784" lon="4.5923">
        <ele>485.34</ele>
        <time>2020-02-18T14:40:55.001Z</time>
      </trkpt>
      <trkpt lat="45.56784" lon="4.59243">
        <ele>484.57</ele>
        <time>2020-02-18T14:41:05.001Z</time>
      </trkpt>
      <trkpt lat="45.56783" lon="4.59256">
        <ele>483.66</ele>
        <time>2020-02-18T14:41:15.001Z</time>
      </trkpt>
      <trkpt lat="45.56782" lon="4.59268">
        <ele>481.82</ele>
        <time>2020-02-18T14:41:25.001Z</time>
      </trkpt>
      <trkpt lat="45.56788" lon="4.59278">
        <ele>479.35</ele>
        <time>2020-02-18T14:41:35.001Z</time>
      </trkpt>
      <trkpt lat="45.56799" lon="4.59286">
        <ele>477.2</ele>
        <time>2020-02-18T14:41:45.001Z</time>
      </trkpt>
      <trkpt lat="45.5681" lon="4.59293">
        <ele>476.28</ele>
        <time>2020-02-18T14:41:55.001Z</time>
      </trkpt>
      <trkpt lat="45.5682" lon="4.59299">
        <ele>474.19</ele>
        <time>2020-02-18T14:42:05.001Z</time>
      </trkpt>
      <trkpt lat="45.5683" lon="4.59305">
        <ele>472.62</ele>
        <time>2020-02-18T14:42:15.001Z</time>
      </trkpt>
      <trkpt lat="45.5684" lon="4.59313">
        <ele>472.21</ele>
        <time>2020-02-18T14:42:25.001Z</time>
      </trkpt>
      <trkpt lat="45.5685" lon="4.59317">
        <ele>470.7</ele>
        <time>2020-02-18T14:42:35.001Z</time>
      </trkpt>
      <trkpt lat="45.5686" lon="4.5932">
        <ele>469.43</ele>
        <time>2020-02-18T14:42:45.001Z</time>
      </trkpt>
      <trkpt lat="45.56872" lon="4.5932">
        <ele>469.86</ele>
        <time>2020-02-18T14:42:55.001Z</time>
      </trkpt>
      <trkpt lat="45.56885" lon="4.59317">
        <ele>469.74</ele>
        <time>2020-02-18T14:43:05.001Z</time>
      </trkpt>
      <trkpt lat="45.56896" lon="4.59314">
        <ele>466.7</ele>
        <time>2020-02-18T14:43:15.001Z</time>
      </trkpt>
      <trkpt lat="45.56906" lon="4.5931">
        <ele>464.6</ele>
        <time>2020-02-18T14:43:25.001Z</time>
      </trkpt>
      <trkpt lat="45.56916" lon="4.59307">
        <ele>465.19</ele>
        <time>2020-02-18T14:43:35.001Z</time>
      </trkpt>
      <trkpt lat="45.56927" lon="4.59305">
        <ele>465.12</ele>
        <time>2020-02-18T14:43:45.001Z</time>
      </trkpt>
      <trkpt lat="45.56937" lon="4.59307">
        <ele>463.61</ele>
        <time>2020-02-18T14:43:55.001Z</time>
      </trkpt>
      <trkpt lat="45.56946" lon="4.59309">
        <ele>464.48</ele>
        <time>2020-02-18T14:44:05.001Z</time>
      </trkpt>
      <trkpt lat="45.56957" lon="4.59309">
        <ele>464.27</ele>
        <time>2020-02-18T14:44:15.001Z</time>
      </trkpt>
      <trkpt lat="45.56969" lon="4.59305">
        <ele>464.38</ele>
        <time>2020-02-18T14:44:25.001Z</time>
      </trkpt>
      <trkpt lat="45.5698" lon="4.59299">
        <ele>465.37</ele>
        <time>2020-02-18T14:44:35.001Z</time>
      </trkpt>
      <trkpt lat="45.56988" lon="4.59295">
        <ele>463.23</ele>
        <time>2020-02-18T14:44:45.001Z</time>
      </trkpt>
      <trkpt lat="45.56999" lon="4.59289">
        <ele>458.61</ele>
        <time>2020-02-18T14:44:55.001Z</time>
      </trkpt>
      <trkpt lat="45.57007" lon="4.59284">
        <ele>453.18</ele>
        <time>2020-02-18T14:45:05.001Z</time>
      </trkpt>
      <trkpt lat="45.57014" lon="4.59278">
        <ele>450.17</ele>
        <time>2020-02-18T14:45:15.001Z</time>
      </trkpt>
      <trkpt lat="45.57024" lon="4.59273">
        <ele>448.69</ele>
        <time>2020-02-18T14:45:25.001Z</time>
      </trkpt>
      <trkpt lat="45.57034" lon="4.59268">
        <ele>446.69</ele>
        <time>2020-02-18T14:45:35.001Z</time>
      </trkpt>
      <trkpt lat="45.57044" lon="4.59264">
        <ele>445.82</ele>
        <time>2020-02-18T14:45:45.001Z</time>
      </trkpt>
      <trkpt lat="45.57053" lon="4.59255">
        <ele>445.76</ele>
        <time>2020-02-18T14:45:55.001Z</time>
      </trkpt>
      <trkpt lat="45.57062" lon="4.59247">
        <ele>444.44</ele>
        <time>2020-02-18T14:46:05.001Z</time>
      </trkpt>
      <trkpt lat="45.57072" lon="4.59241">
        <ele>442.58</ele>
        <time>2020-02-18T14:46:15.001Z</time>
      </trkpt>
      <trkpt lat="45.57082" lon="4.59237">
        <ele>439.72</ele>
        <time>2020-02-18T14:46:25.001Z</time>
      </trkpt>
      <trkpt lat="45.5709" lon="4.59235">
        <ele>439.3</ele>
        <time>2020-02-18T14:46:35.001Z</time>
      </trkpt>
      <trkpt lat="45.57096" lon="4.59227">
        <ele>438.7</ele>
        <time>2020-02-18T14:46:45.001Z</time>
      </trkpt>
      <trkpt lat="45.571" lon="4.59213">
        <ele>437.69</ele>
        <time>2020-02-18T14:46:55.001Z</time>
      </trkpt>
      <trkpt lat="45.57107" lon="4.59204">
        <ele>437.37</ele>
        <time>2020-02-18T14:47:05.001Z</time>
      </trkpt>
      <trkpt lat="45.57115" lon="4.59195">
        <ele>436.31</ele>
        <time>2020-02-18T14:47:15.001Z</time>
      </trkpt>
      <trkpt lat="45.57122" lon="4.59184">
        <ele>433.8</ele>
        <time>2020-02-18T14:47:25.001Z</time>
      </trkpt>
      <trkpt lat="45.57127" lon="4.59171">
        <ele>432.41</ele>
        <time>2020-02-18T14:47:35.001Z</time>
      </trkpt>
      <trkpt lat="45.5713" lon="4.59158">
        <ele>431.74</ele>
        <time>2020-02-18T14:47:45.001Z</time>
      </trkpt>
      <trkpt lat="45.57131" lon="4.59144">
        <ele>430.89</ele>
        <time>2020-02-18T14:47:55.001Z</time>
      </trkpt>
      <trkpt lat="45.57132" lon="4.59129">
        <ele>429.03</ele>
        <time>2020-02-18T14:48:05.001Z</time>
      </trkpt>
      <trkpt lat="45.57135" lon="4.59116">
        <ele>426.57</ele>
        <time>2020-02-18T14:48:15.001Z</time>
      </trkpt>
      <trkpt lat="45.57136" lon="4.59104">
        <ele>425.89</ele>
        <time>2020-02-18T14:48:25.001Z</time>
      </trkpt>
      <trkpt lat="45.57134" lon="4.59088">
        <ele>424.03</ele>
        <time>2020-02-18T14:48:35.001Z</time>
      </trkpt>
      <trkpt lat="45.57134" lon="4.59073">
        <ele>421.3</ele>
        <time>2020-02-18T14:48:45.001Z</time>
      </trkpt>
      <trkpt lat="45.57132" lon="4.59054">
        <ele>421.23</ele>
        <time>2020-02-18T14:48:55.001Z</time>
      </trkpt>
      <trkpt lat="45.5713" lon="4.59037">
        <ele>422.07</ele>
        <time>2020-02-18T14:49:05.001Z</time>
      </trkpt>
      <trkpt lat="45.5713" lon="4.5902">
        <ele>422.52</ele>
        <time>2020-02-18T14:49:15.001Z</time>
      </trkpt>
      <trkpt lat="45.57131" lon="4.59009">
        <ele>422.74</ele>
        <time>2020-02-18T14:49:25.001Z</time>
      </trkpt>
      <trkpt lat="45.57132" lon="4.59002">
        <ele>422.67</ele>
        <time>2020-02-18T14:49:35.001Z</time>
      </trkpt>
      <trkpt lat="45.57134" lon="4.58998">
        <ele>422.97</ele>
        <time>2020-02-18T14:49:45.001Z</time>
      </trkpt>
      <trkpt lat="45.57135" lon="4.58993">
        <ele>420.93</ele>
        <time>2020-02-18T14:49:55.001Z</time>
      </trkpt>
      <trkpt lat="45.57139" lon="4.58987">
        <ele>422.03</ele>
        <time>2020-02-18T14:50:05.001Z</time>
      </trkpt>
      <trkpt lat="45.57144" lon="4.58991">
        <ele>421.26</ele>
        <time>2020-02-18T14:50:15.001Z</time>
      </trkpt>
      <trkpt lat="45.57146" lon="4.59">
        <ele>419.85</ele>
        <time>2020-02-18T14:50:25.001Z</time>
      </trkpt>
      <trkpt lat="45.5715" lon="4.59004">
        <ele>419.83</ele>
        <time>2020-02-18T14:50:35.001Z</time>
      </trkpt>
      <trkpt lat="45.5716" lon="4.59016">
        <ele>418.71</ele>
        <time>2020-02-18T14:50:45.001Z</time>
      </trkpt>
      <trkpt lat="45.57173" lon="4.59035">
        <ele>418.21</ele>
        <time>2020-02-18T14:50:55.001Z</time>
      </trkpt>
      <trkpt lat="45.5718" lon="4.59049">
        <ele>417.06</ele>
        <time>2020-02-18T14:51:05.001Z</time>
      </trkpt>
      <trkpt lat="45.57185" lon="4.59061">
        <ele>415.48</ele>
        <time>2020-02-18T14:51:15.001Z</time>
      </trkpt>
      <trkpt lat="45.57191" lon="4.59072">
        <ele>413.59</ele>
        <time>2020-02-18T14:51:25.001Z</time>
      </trkpt>
      <trkpt lat="45.57196" lon="4.59084">
        <ele>416.84</ele>
        <time>2020-02-18T14:51:35.001Z</time>
      </trkpt>
      <trkpt lat="45.57201" lon="4.59096">
        <ele>417.63</ele>
        <time>2020-02-18T14:51:45.001Z</time>
      </trkpt>
      <trkpt lat="45.57206" lon="4.59112">
        <ele>419.11</ele>
        <time>2020-02-18T14:51:55.001Z</time>
      </trkpt>
      <trkpt lat="45.57209" lon="4.59127">
        <ele>419.98</ele>
        <time>2020-02-18T14:52:05.001Z</time>
      </trkpt>
      <trkpt lat="45.57211" lon="4.59139">
        <ele>420.84</ele>
        <time>2020-02-18T14:52:15.001Z</time>
      </trkpt>
      <trkpt lat="45.57213" lon="4.59151">
        <ele>423</ele>
        <time>2020-02-18T14:52:25.001Z</time>
      </trkpt>
      <trkpt lat="45.57216" lon="4.59166">
        <ele>425.8</ele>
        <time>2020-02-18T14:52:35.001Z</time>
      </trkpt>
      <trkpt lat="45.57219" lon="4.59175">
        <ele>427.17</ele>
        <time>2020-02-18T14:52:45.001Z</time>
      </trkpt>
      <trkpt lat="45.57222" lon="4.59181">
        <ele>427.2</ele>
        <time>2020-02-18T14:52:55.001Z</time>
      </trkpt>
      <trkpt lat="45.57229" lon="4.59193">
        <ele>427.05</ele>
        <time>2020-02-18T14:53:05.001Z</time>
      </trkpt>
      <trkpt lat="45.57237" lon="4.59205">
        <ele>427.51</ele>
        <time>2020-02-18T14:53:15.001Z</time>
      </trkpt>
      <trkpt lat="45.57248" lon="4.59219">
        <ele>428.21</ele>
        <time>2020-02-18T14:53:25.001Z</time>
      </trkpt>
      <trkpt lat="45.57255" lon="4.59237">
        <ele>428.83</ele>
        <time>2020-02-18T14:53:35.001Z</time>
      </trkpt>
      <trkpt lat="45.57248" lon="4.59244">
        <ele>428.51</ele>
        <time>2020-02-18T14:53:45.001Z</time>
      </trkpt>
      <trkpt lat="45.57239" lon="4.59246">
        <ele>428.27</ele>
        <time>2020-02-18T14:53:55.001Z</time>
      </trkpt>
      <trkpt lat="45.57228" lon="4.59245">
        <ele>427.67</ele>
        <time>2020-02-18T14:54:05.001Z</time>
      </trkpt>
      <trkpt lat="45.57219" lon="4.59245">
        <ele>427.14</ele>
        <time>2020-02-18T14:54:15.001Z</time>
      </trkpt>
      <trkpt lat="45.57215" lon="4.59259">
        <ele>425.41</ele>
        <time>2020-02-18T14:54:25.001Z</time>
      </trkpt>
      <trkpt lat="45.57218" lon="4.59274">
        <ele>424.8</ele>
        <time>2020-02-18T14:54:35.001Z</time>
      </trkpt>
      <trkpt lat="45.57223" lon="4.59288">
        <ele>423.88</ele>
        <time>2020-02-18T14:54:45.001Z</time>
      </trkpt>
      <trkpt lat="45.57228" lon="4.59302">
        <ele>422.49</ele>
        <time>2020-02-18T14:54:55.001Z</time>
      </trkpt>
      <trkpt lat="45.57231" lon="4.59316">
        <ele>423.2</ele>
        <time>2020-02-18T14:55:05.001Z</time>
      </trkpt>
      <trkpt lat="45.57235" lon="4.59331">
        <ele>424.25</ele>
        <time>2020-02-18T14:55:15.001Z</time>
      </trkpt>
      <trkpt lat="45.57238" lon="4.59347">
        <ele>424.38</ele>
        <time>2020-02-18T14:55:25.001Z</time>
      </trkpt>
      <trkpt lat="45.57242" lon="4.59361">
        <ele>426.64</ele>
        <time>2020-02-18T14:55:35.001Z</time>
      </trkpt>
      <trkpt lat="45.57245" lon="4.59376">
        <ele>428.24</ele>
        <time>2020-02-18T14:55:45.001Z</time>
      </trkpt>
      <trkpt lat="45.57247" lon="4.59393">
        <ele>429.93</ele>
        <time>2020-02-18T14:55:55.001Z</time>
      </trkpt>
      <trkpt lat="45.57247" lon="4.59409">
        <ele>431.02</ele>
        <time>2020-02-18T14:56:05.001Z</time>
      </trkpt>
      <trkpt lat="45.57247" lon="4.59424">
        <ele>431.33</ele>
        <time>2020-02-18T14:56:15.001Z</time>
      </trkpt>
      <trkpt lat="45.57246" lon="4.59441">
        <ele>430.13</ele>
        <time>2020-02-18T14:56:25.001Z</time>
      </trkpt>
      <trkpt lat="45.57244" lon="4.59457">
        <ele>427.93</ele>
        <time>2020-02-18T14:56:35.001Z</time>
      </trkpt>
      <trkpt lat="45.57243" lon="4.59473">
        <ele>428.62</ele>
        <time>2020-02-18T14:56:45.001Z</time>
      </trkpt>
      <trkpt lat="45.57241" lon="4.5949">
        <ele>431.19</ele>
        <time>2020-02-18T14:56:55.001Z</time>
      </trkpt>
      <trkpt lat="45.5724" lon="4.59506">
        <ele>433.8</ele>
        <time>2020-02-18T14:57:05.001Z</time>
      </trkpt>
      <trkpt lat="45.5724" lon="4.59523">
        <ele>432.49</ele>
        <time>2020-02-18T14:57:15.001Z</time>
      </trkpt>
      <trkpt lat="45.57238" lon="4.59541">
        <ele>432.98</ele>
        <time>2020-02-18T14:57:25.001Z</time>
      </trkpt>
      <trkpt lat="45.57236" lon="4.59561">
        <ele>435.4</ele>
        <time>2020-02-18T14:57:35.001Z</time>
      </trkpt>
      <trkpt lat="45.57237" lon="4.59577">
        <ele>435.56</ele>
        <time>2020-02-18T14:57:45.001Z</time>
      </trkpt>
      <trkpt lat="45.57241" lon="4.59592">
        <ele>435.68</ele>
        <time>2020-02-18T14:57:55.001Z</time>
      </trkpt>
      <trkpt lat="45.57246" lon="4.59605">
        <ele>434.78</ele>
        <time>2020-02-18T14:58:05.001Z</time>
      </trkpt>
      <trkpt lat="45.57249" lon="4.59619">
        <ele>431.14</ele>
        <time>2020-02-18T14:58:15.001Z</time>
      </trkpt>
      <trkpt lat="45.57251" lon="4.59636">
        <ele>427.13</ele>
        <time>2020-02-18T14:58:25.001Z</time>
      </trkpt>
      <trkpt lat="45.57253" lon="4.5965">
        <ele>426.06</ele>
        <time>2020-02-18T14:58:35.001Z</time>
      </trkpt>
      <trkpt lat="45.57255" lon="4.59663">
        <ele>426.47</ele>
        <time>2020-02-18T14:58:45.001Z</time>
      </trkpt>
      <trkpt lat="45.57252" lon="4.59678">
        <ele>426.57</ele>
        <time>2020-02-18T14:58:55.001Z</time>
      </trkpt>
      <trkpt lat="45.57245" lon="4.59689">
        <ele>430.38</ele>
        <time>2020-02-18T14:59:05.001Z</time>
      </trkpt>
      <trkpt lat="45.57236" lon="4.597">
        <ele>428.97</ele>
        <time>2020-02-18T14:59:15.001Z</time>
      </trkpt>
      <trkpt lat="45.57229" lon="4.59714">
        <ele>427.2</ele>
        <time>2020-02-18T14:59:25.001Z</time>
      </trkpt>
      <trkpt lat="45.57229" lon="4.59731">
        <ele>426.89</ele>
        <time>2020-02-18T14:59:35.001Z</time>
      </trkpt>
      <trkpt lat="45.57231" lon="4.59745">
        <ele>427.11</ele>
        <time>2020-02-18T14:59:45.001Z</time>
      </trkpt>
      <trkpt lat="45.57232" lon="4.5976">
        <ele>427.49</ele>
        <time>2020-02-18T14:59:55.001Z</time>
      </trkpt>
      <trkpt lat="45.57234" lon="4.59774">
        <ele>425.62</ele>
        <time>2020-02-18T15:00:05.001Z</time>
      </trkpt>
      <trkpt lat="45.57234" lon="4.59789">
        <ele>426.14</ele>
        <time>2020-02-18T15:00:15.001Z</time>
      </trkpt>
      <trkpt lat="45.57236" lon="4.59803">
        <ele>427.55</ele>
        <time>2020-02-18T15:00:25.001Z</time>
      </trkpt>
      <trkpt lat="45.57237" lon="4.59814">
        <ele>431.42</ele>
        <time>2020-02-18T15:00:35.001Z</time>
      </trkpt>
      <trkpt lat="45.57237" lon="4.59826">
        <ele>432.99</ele>
        <time>2020-02-18T15:00:45.001Z</time>
      </trkpt>
      <trkpt lat="45.57238" lon="4.59846">
        <ele>434.96</ele>
        <time>2020-02-18T15:00:55.001Z</time>
      </trkpt>
      <trkpt lat="45.57238" lon="4.59865">
        <ele>435.55</ele>
        <time>2020-02-18T15:01:05.001Z</time>
      </trkpt>
      <trkpt lat="45.57237" lon="4.59881">
        <ele>436</ele>
        <time>2020-02-18T15:01:15.001Z</time>
      </trkpt>
      <trkpt lat="45.57237" lon="4.59898">
        <ele>439.25</ele>
        <time>2020-02-18T15:01:25.001Z</time>
      </trkpt>
      <trkpt lat="45.57237" lon="4.59913">
        <ele>442.48</ele>
        <time>2020-02-18T15:01:35.001Z</time>
      </trkpt>
      <trkpt lat="45.57239" lon="4.59918">
        <ele>442.65</ele>
        <time>2020-02-18T15:01:45.001Z</time>
      </trkpt>
      <trkpt lat="45.57235" lon="4.59913">
        <ele>441.78</ele>
        <time>2020-02-18T15:03:36.001Z</time>
      </trkpt>
      <trkpt lat="45.57236" lon="4.59914">
        <ele>440.1</ele>
        <time>2020-02-18T15:05:56.001Z</time>
      </trkpt>
      <trkpt lat="45.57244" lon="4.59921">
        <ele>435.65</ele>
        <time>2020-02-18T15:06:06.001Z</time>
      </trkpt>
      <trkpt lat="45.57252" lon="4.59927">
        <ele>436.91</ele>
        <time>2020-02-18T15:06:16.000Z</time>
      </trkpt>
      <trkpt lat="45.5726" lon="4.59934">
        <ele>437.63</ele>
        <time>2020-02-18T15:06:25.001Z</time>
      </trkpt>
      <trkpt lat="45.57268" lon="4.59941">
        <ele>437.05</ele>
        <time>2020-02-18T15:06:35.001Z</time>
      </trkpt>
      <trkpt lat="45.57277" lon="4.5996">
        <ele>436.31</ele>
        <time>2020-02-18T15:06:45.002Z</time>
      </trkpt>
      <trkpt lat="45.5728" lon="4.59974">
        <ele>435.21</ele>
        <time>2020-02-18T15:06:55.001Z</time>
      </trkpt>
      <trkpt lat="45.57289" lon="4.59981">
        <ele>432.57</ele>
        <time>2020-02-18T15:07:05.001Z</time>
      </trkpt>
      <trkpt lat="45.57302" lon="4.59986">
        <ele>429.06</ele>
        <time>2020-02-18T15:07:15.001Z</time>
      </trkpt>
      <trkpt lat="45.57313" lon="4.5999">
        <ele>428.13</ele>
        <time>2020-02-18T15:07:25.001Z</time>
      </trkpt>
      <trkpt lat="45.57323" lon="4.59994">
        <ele>427.83</ele>
        <time>2020-02-18T15:07:35.001Z</time>
      </trkpt>
      <trkpt lat="45.57334" lon="4.6">
        <ele>428.2</ele>
        <time>2020-02-18T15:07:45.001Z</time>
      </trkpt>
      <trkpt lat="45.57345" lon="4.60004">
        <ele>428.98</ele>
        <time>2020-02-18T15:07:55.001Z</time>
      </trkpt>
      <trkpt lat="45.57353" lon="4.60008">
        <ele>428.6</ele>
        <time>2020-02-18T15:08:05.001Z</time>
      </trkpt>
      <trkpt lat="45.57361" lon="4.60011">
        <ele>429.63</ele>
        <time>2020-02-18T15:08:15.001Z</time>
      </trkpt>
      <trkpt lat="45.57372" lon="4.60012">
        <ele>430.71</ele>
        <time>2020-02-18T15:08:25.001Z</time>
      </trkpt>
      <trkpt lat="45.57385" lon="4.60015">
        <ele>430.9</ele>
        <time>2020-02-18T15:08:35.001Z</time>
      </trkpt>
      <trkpt lat="45.57397" lon="4.60018">
        <ele>432.25</ele>
        <time>2020-02-18T15:08:45.001Z</time>
      </trkpt>
      <trkpt lat="45.5741" lon="4.60024">
        <ele>432.89</ele>
        <time>2020-02-18T15:08:55.001Z</time>
      </trkpt>
      <trkpt lat="45.57421" lon="4.60029">
        <ele>433.39</ele>
        <time>2020-02-18T15:09:05.001Z</time>
      </trkpt>
      <trkpt lat="45.57433" lon="4.60034">
        <ele>435.54</ele>
        <time>2020-02-18T15:09:15.001Z</time>
      </trkpt>
      <trkpt lat="45.57444" lon="4.60041">
        <ele>436.11</ele>
        <time>2020-02-18T15:09:25.001Z</time>
      </trkpt>
      <trkpt lat="45.57454" lon="4.60046">
        <ele>435.43</ele>
        <time>2020-02-18T15:09:35.001Z</time>
      </trkpt>
      <trkpt lat="45.57464" lon="4.60052">
        <ele>431.27</ele>
        <time>2020-02-18T15:09:45.001Z</time>
      </trkpt>
      <trkpt lat="45.57473" lon="4.60059">
        <ele>428.04</ele>
        <time>2020-02-18T15:09:55.001Z</time>
      </trkpt>
      <trkpt lat="45.57482" lon="4.60066">
        <ele>425.29</ele>
        <time>2020-02-18T15:10:05.001Z</time>
      </trkpt>
      <trkpt lat="45.57492" lon="4.60074">
        <ele>424.88</ele>
        <time>2020-02-18T15:10:15.001Z</time>
      </trkpt>
      <trkpt lat="45.57501" lon="4.60083">
        <ele>425.34</ele>
        <time>2020-02-18T15:10:25.001Z</time>
      </trkpt>
      <trkpt lat="45.5751" lon="4.60094">
        <ele>427.49</ele>
        <time>2020-02-18T15:10:35.001Z</time>
      </trkpt>
      <trkpt lat="45.57519" lon="4.60106">
        <ele>429.13</ele>
        <time>2020-02-18T15:10:45.001Z</time>
      </trkpt>
      <trkpt lat="45.57526" lon="4.60117">
        <ele>428.62</ele>
        <time>2020-02-18T15:10:55.001Z</time>
      </trkpt>
      <trkpt lat="45.57535" lon="4.60128">
        <ele>430.01</ele>
        <time>2020-02-18T15:11:05.001Z</time>
      </trkpt>
      <trkpt lat="45.57541" lon="4.60137">
        <ele>429.4</ele>
        <time>2020-02-18T15:11:15.001Z</time>
      </trkpt>
      <trkpt lat="45.57543" lon="4.60141">
        <ele>430.18</ele>
        <time>2020-02-18T15:11:25.001Z</time>
      </trkpt>
      <trkpt lat="45.57543" lon="4.60143">
        <ele>431.16</ele>
        <time>2020-02-18T15:11:49.001Z</time>
      </trkpt>
      <trkpt lat="45.57536" lon="4.60157">
        <ele>433.05</ele>
        <time>2020-02-18T15:11:59.001Z</time>
      </trkpt>
      <trkpt lat="45.57529" lon="4.60168">
        <ele>434.98</ele>
        <time>2020-02-18T15:12:09.001Z</time>
      </trkpt>
      <trkpt lat="45.57521" lon="4.60177">
        <ele>435.65</ele>
        <time>2020-02-18T15:12:19.001Z</time>
      </trkpt>
      <trkpt lat="45.57512" lon="4.60189">
        <ele>437.23</ele>
        <time>2020-02-18T15:12:29.001Z</time>
      </trkpt>
      <trkpt lat="45.57502" lon="4.602">
        <ele>439.7</ele>
        <time>2020-02-18T15:12:39.001Z</time>
      </trkpt>
      <trkpt lat="45.57495" lon="4.60211">
        <ele>442.5</ele>
        <time>2020-02-18T15:12:49.001Z</time>
      </trkpt>
      <trkpt lat="45.57498" lon="4.60225">
        <ele>443.18</ele>
        <time>2020-02-18T15:12:59.001Z</time>
      </trkpt>
      <trkpt lat="45.57506" lon="4.60239">
        <ele>441.18</ele>
        <time>2020-02-18T15:13:09.001Z</time>
      </trkpt>
      <trkpt lat="45.57512" lon="4.60254">
        <ele>439.58</ele>
        <time>2020-02-18T15:13:19.001Z</time>
      </trkpt>
      <trkpt lat="45.57517" lon="4.60268">
        <ele>438.34</ele>
        <time>2020-02-18T15:13:29.001Z</time>
      </trkpt>
      <trkpt lat="45.57524" lon="4.60284">
        <ele>437.08</ele>
        <time>2020-02-18T15:13:39.001Z</time>
      </trkpt>
      <trkpt lat="45.57532" lon="4.603">
        <ele>437.24</ele>
        <time>2020-02-18T15:13:49.001Z</time>
      </trkpt>
      <trkpt lat="45.57539" lon="4.60316">
        <ele>437.78</ele>
        <time>2020-02-18T15:13:59.001Z</time>
      </trkpt>
      <trkpt lat="45.57544" lon="4.60333">
        <ele>437.13</ele>
        <time>2020-02-18T15:14:09.001Z</time>
      </trkpt>
      <trkpt lat="45.57548" lon="4.6035">
        <ele>434.89</ele>
        <time>2020-02-18T15:14:19.001Z</time>
      </trkpt>
      <trkpt lat="45.5755" lon="4.60368">
        <ele>432.54</ele>
        <time>2020-02-18T15:14:29.001Z</time>
      </trkpt>
      <trkpt lat="45.57552" lon="4.60386">
        <ele>431.75</ele>
        <time>2020-02-18T15:14:39.001Z</time>
      </trkpt>
      <trkpt lat="45.57554" lon="4.60403">
        <ele>432.46</ele>
        <time>2020-02-18T15:14:49.001Z</time>
      </trkpt>
      <trkpt lat="45.57555" lon="4.6042">
        <ele>432.83</ele>
        <time>2020-02-18T15:14:59.001Z</time>
      </trkpt>
      <trkpt lat="45.57556" lon="4.60436">
        <ele>432.16</ele>
        <time>2020-02-18T15:15:09.001Z</time>
      </trkpt>
      <trkpt lat="45.57557" lon="4.60454">
        <ele>430.29</ele>
        <time>2020-02-18T15:15:19.001Z</time>
      </trkpt>
      <trkpt lat="45.57557" lon="4.60472">
        <ele>428.93</ele>
        <time>2020-02-18T15:15:29.001Z</time>
      </trkpt>
      <trkpt lat="45.57557" lon="4.60492">
        <ele>426.33</ele>
        <time>2020-02-18T15:15:39.001Z</time>
      </trkpt>
      <trkpt lat="45.57557" lon="4.60509">
        <ele>425.85</ele>
        <time>2020-02-18T15:15:49.001Z</time>
      </trkpt>
      <trkpt lat="45.57559" lon="4.60526">
        <ele>425.34</ele>
        <time>2020-02-18T15:15:59.001Z</time>
      </trkpt>
      <trkpt lat="45.57561" lon="4.60541">
        <ele>425.98</ele>
        <time>2020-02-18T15:16:09.001Z</time>
      </trkpt>
      <trkpt lat="45.57563" lon="4.6056">
        <ele>425.89</ele>
        <time>2020-02-18T15:16:19.001Z</time>
      </trkpt>
      <trkpt lat="45.57563" lon="4.6058">
        <ele>424.32</ele>
        <time>2020-02-18T15:16:29.001Z</time>
      </trkpt>
      <trkpt lat="45.57563" lon="4.60597">
        <ele>422.34</ele>
        <time>2020-02-18T15:16:39.001Z</time>
      </trkpt>
      <trkpt lat="45.57564" lon="4.60611">
        <ele>420.24</ele>
        <time>2020-02-18T15:16:49.001Z</time>
      </trkpt>
      <trkpt lat="45.57566" lon="4.60627">
        <ele>420.65</ele>
        <time>2020-02-18T15:16:59.001Z</time>
      </trkpt>
      <trkpt lat="45.57567" lon="4.60644">
        <ele>419.34</ele>
        <time>2020-02-18T15:17:09.001Z</time>
      </trkpt>
      <trkpt lat="45.57567" lon="4.60662">
        <ele>418.39</ele>
        <time>2020-02-18T15:17:19.001Z</time>
      </trkpt>
      <trkpt lat="45.57565" lon="4.6068">
        <ele>416.94</ele>
        <time>2020-02-18T15:17:29.001Z</time>
      </trkpt>
      <trkpt lat="45.57564" lon="4.60695">
        <ele>417.01</ele>
        <time>2020-02-18T15:17:39.001Z</time>
      </trkpt>
      <trkpt lat="45.57563" lon="4.60712">
        <ele>418.14</ele>
        <time>2020-02-18T15:17:49.001Z</time>
      </trkpt>
      <trkpt lat="45.57563" lon="4.60732">
        <ele>416.46</ele>
        <time>2020-02-18T15:17:59.001Z</time>
      </trkpt>
      <trkpt lat="45.57562" lon="4.60749">
        <ele>415.27</ele>
        <time>2020-02-18T15:18:09.001Z</time>
      </trkpt>
      <trkpt lat="45.57563" lon="4.60766">
        <ele>413.69</ele>
        <time>2020-02-18T15:18:19.001Z</time>
      </trkpt>
      <trkpt lat="45.57562" lon="4.60783">
        <ele>412.26</ele>
        <time>2020-02-18T15:18:29.001Z</time>
      </trkpt>
      <trkpt lat="45.57562" lon="4.60799">
        <ele>411.1</ele>
        <time>2020-02-18T15:18:39.001Z</time>
      </trkpt>
      <trkpt lat="45.5756" lon="4.60814">
        <ele>408.99</ele>
        <time>2020-02-18T15:18:49.001Z</time>
      </trkpt>
      <trkpt lat="45.57557" lon="4.60832">
        <ele>408.52</ele>
        <time>2020-02-18T15:18:59.001Z</time>
      </trkpt>
      <trkpt lat="45.57556" lon="4.60849">
        <ele>409.21</ele>
        <time>2020-02-18T15:19:09.001Z</time>
      </trkpt>
      <trkpt lat="45.57556" lon="4.60865">
        <ele>409.49</ele>
        <time>2020-02-18T15:19:19.001Z</time>
      </trkpt>
      <trkpt lat="45.57556" lon="4.6088">
        <ele>408.69</ele>
        <time>2020-02-18T15:19:29.001Z</time>
      </trkpt>
      <trkpt lat="45.57556" lon="4.60897">
        <ele>406.85</ele>
        <time>2020-02-18T15:19:39.001Z</time>
      </trkpt>
      <trkpt lat="45.57556" lon="4.60913">
        <ele>404.74</ele>
        <time>2020-02-18T15:19:49.001Z</time>
      </trkpt>
      <trkpt lat="45.57555" lon="4.6093">
        <ele>401.84</ele>
        <time>2020-02-18T15:19:59.001Z</time>
      </trkpt>
      <trkpt lat="45.57554" lon="4.60947">
        <ele>398.81</ele>
        <time>2020-02-18T15:20:09.001Z</time>
      </trkpt>
      <trkpt lat="45.57553" lon="4.60963">
        <ele>399.71</ele>
        <time>2020-02-18T15:20:19.001Z</time>
      </trkpt>
      <trkpt lat="45.57554" lon="4.60981">
        <ele>397.1</ele>
        <time>2020-02-18T15:20:29.001Z</time>
      </trkpt>
      <trkpt lat="45.57553" lon="4.60998">
        <ele>395.89</ele>
        <time>2020-02-18T15:20:39.001Z</time>
      </trkpt>
      <trkpt lat="45.57552" lon="4.61016">
        <ele>394.07</ele>
        <time>2020-02-18T15:20:49.001Z</time>
      </trkpt>
      <trkpt lat="45.57553" lon="4.61033">
        <ele>393.35</ele>
        <time>2020-02-18T15:20:59.001Z</time>
      </trkpt>
      <trkpt lat="45.57554" lon="4.61049">
        <ele>392.1</ele>
        <time>2020-02-18T15:21:09.001Z</time>
      </trkpt>
      <trkpt lat="45.57553" lon="4.61066">
        <ele>392.7</ele>
        <time>2020-02-18T15:21:19.001Z</time>
      </trkpt>
      <trkpt lat="45.5755" lon="4.6108">
        <ele>390.61</ele>
        <time>2020-02-18T15:21:29.001Z</time>
      </trkpt>
      <trkpt lat="45.57553" lon="4.61092">
        <ele>386.78</ele>
        <time>2020-02-18T15:21:39.001Z</time>
      </trkpt>
      <trkpt lat="45.57556" lon="4.61105">
        <ele>385.43</ele>
        <time>2020-02-18T15:21:49.001Z</time>
      </trkpt>
      <trkpt lat="45.57558" lon="4.61121">
        <ele>386.84</ele>
        <time>2020-02-18T15:21:59.001Z</time>
      </trkpt>
      <trkpt lat="45.5756" lon="4.61139">
        <ele>386.05</ele>
        <time>2020-02-18T15:22:09.001Z</time>
      </trkpt>
      <trkpt lat="45.57563" lon="4.61154">
        <ele>385.42</ele>
        <time>2020-02-18T15:22:19.001Z</time>
      </trkpt>
      <trkpt lat="45.57564" lon="4.6117">
        <ele>385.47</ele>
        <time>2020-02-18T15:22:29.001Z</time>
      </trkpt>
      <trkpt lat="45.57564" lon="4.61187">
        <ele>384.49</ele>
        <time>2020-02-18T15:22:39.001Z</time>
      </trkpt>
      <trkpt lat="45.57566" lon="4.61203">
        <ele>382.35</ele>
        <time>2020-02-18T15:22:49.001Z</time>
      </trkpt>
      <trkpt lat="45.57568" lon="4.6122">
        <ele>381.73</ele>
        <time>2020-02-18T15:22:59.001Z</time>
      </trkpt>
      <trkpt lat="45.5757" lon="4.61237">
        <ele>381.94</ele>
        <time>2020-02-18T15:23:09.001Z</time>
      </trkpt>
      <trkpt lat="45.57569" lon="4.6125">
        <ele>383.77</ele>
        <time>2020-02-18T15:23:19.001Z</time>
      </trkpt>
      <trkpt lat="45.57564" lon="4.6126">
        <ele>384.76</ele>
        <time>2020-02-18T15:23:29.001Z</time>
      </trkpt>
      <trkpt lat="45.5756" lon="4.61269">
        <ele>384.76</ele>
        <time>2020-02-18T15:23:39.001Z</time>
      </trkpt>
      <trkpt lat="45.5756" lon="4.61265">
        <ele>384.76</ele>
        <time>2020-02-18T15:24:00.000Z</time>
      </trkpt>
      <trkpt lat="45.57555" lon="4.61265">
        <ele>383.25</ele>
        <time>2020-02-18T15:24:09.001Z</time>
      </trkpt>
      <trkpt lat="45.57549" lon="4.61271">
        <ele>381.63</ele>
        <time>2020-02-18T15:24:19.001Z</time>
      </trkpt>
      <trkpt lat="45.57543" lon="4.61267">
        <ele>381.83</ele>
        <time>2020-02-18T15:24:29.001Z</time>
      </trkpt>
      <trkpt lat="45.57536" lon="4.61262">
        <ele>381.76</ele>
        <time>2020-02-18T15:24:39.001Z</time>
      </trkpt>
      <trkpt lat="45.57525" lon="4.61258">
        <ele>378.91</ele>
        <time>2020-02-18T15:24:49.001Z</time>
      </trkpt>
      <trkpt lat="45.5752" lon="4.61252">
        <ele>376.08</ele>
        <time>2020-02-18T15:24:59.001Z</time>
      </trkpt>
      <trkpt lat="45.57518" lon="4.61257">
        <ele>376.08</ele>
        <time>2020-02-18T15:25:09.001Z</time>
      </trkpt>
      <trkpt lat="45.5752" lon="4.6126">
        <ele>377.13</ele>
        <time>2020-02-18T15:25:53.001Z</time>
      </trkpt>
      <trkpt lat="45.5752" lon="4.61268">
        <ele>377.3</ele>
        <time>2020-02-18T15:26:03.001Z</time>
      </trkpt>
      <trkpt lat="45.5752" lon="4.61262">
        <ele>377.44</ele>
        <time>2020-02-18T15:26:46.001Z</time>
      </trkpt>
      <trkpt lat="45.57523" lon="4.6127">
        <ele>377.59</ele>
        <time>2020-02-18T15:26:56.001Z</time>
      </trkpt>
      <trkpt lat="45.5753" lon="4.61272">
        <ele>375.77</ele>
        <time>2020-02-18T15:27:06.001Z</time>
      </trkpt>
      <trkpt lat="45.57534" lon="4.61275">
        <ele>375.46</ele>
        <time>2020-02-18T15:27:16.000Z</time>
      </trkpt>
      <trkpt lat="45.57543" lon="4.61278">
        <ele>375.92</ele>
        <time>2020-02-18T15:27:25.001Z</time>
      </trkpt>
      <trkpt lat="45.57548" lon="4.61276">
        <ele>375.92</ele>
        <time>2020-02-18T15:27:35.001Z</time>
      </trkpt>
      <trkpt lat="45.57552" lon="4.61274">
        <ele>374.99</ele>
        <time>2020-02-18T15:27:45.001Z</time>
      </trkpt>
      <trkpt lat="45.57552" lon="4.61277">
        <ele>374.69</ele>
        <time>2020-02-18T15:27:55.001Z</time>
      </trkpt>
      <trkpt lat="45.57555" lon="4.61285">
        <ele>375.13</ele>
        <time>2020-02-18T15:28:05.001Z</time>
      </trkpt>
      <trkpt lat="45.5756" lon="4.61293">
        <ele>375.89</ele>
        <time>2020-02-18T15:28:15.001Z</time>
      </trkpt>
      <trkpt lat="45.57564" lon="4.61298">
        <ele>375.61</ele>
        <time>2020-02-18T15:28:25.001Z</time>
      </trkpt>
      <trkpt lat="45.57572" lon="4.61306">
        <ele>376.51</ele>
        <time>2020-02-18T15:28:35.001Z</time>
      </trkpt>
      <trkpt lat="45.57578" lon="4.61317">
        <ele>379.13</ele>
        <time>2020-02-18T15:28:45.001Z</time>
      </trkpt>
      <trkpt lat="45.57573" lon="4.61327">
        <ele>379.17</ele>
        <time>2020-02-18T15:28:55.001Z</time>
      </trkpt>
      <trkpt lat="45.57564" lon="4.61328">
        <ele>378.96</ele>
        <time>2020-02-18T15:29:05.001Z</time>
      </trkpt>
      <trkpt lat="45.57555" lon="4.61327">
        <ele>379.21</ele>
        <time>2020-02-18T15:29:15.001Z</time>
      </trkpt>
      <trkpt lat="45.57549" lon="4.61325">
        <ele>378.67</ele>
        <time>2020-02-18T15:29:25.001Z</time>
      </trkpt>
      <trkpt lat="45.57543" lon="4.61323">
        <ele>378.29</ele>
        <time>2020-02-18T15:29:35.001Z</time>
      </trkpt>
      <trkpt lat="45.57531" lon="4.61321">
        <ele>376.73</ele>
        <time>2020-02-18T15:29:45.001Z</time>
      </trkpt>
      <trkpt lat="45.5752" lon="4.61322">
        <ele>371.24</ele>
        <time>2020-02-18T15:29:55.001Z</time>
      </trkpt>
      <trkpt lat="45.57509" lon="4.61323">
        <ele>367.76</ele>
        <time>2020-02-18T15:30:05.001Z</time>
      </trkpt>
      <trkpt lat="45.57499" lon="4.6132">
        <ele>365.71</ele>
        <time>2020-02-18T15:30:15.001Z</time>
      </trkpt>
      <trkpt lat="45.57493" lon="4.61313">
        <ele>365.08</ele>
        <time>2020-02-18T15:30:25.001Z</time>
      </trkpt>
      <trkpt lat="45.57487" lon="4.6132">
        <ele>363.16</ele>
        <time>2020-02-18T15:30:35.001Z</time>
      </trkpt>
      <trkpt lat="45.57492" lon="4.6133">
        <ele>364.26</ele>
        <time>2020-02-18T15:30:45.001Z</time>
      </trkpt>
      <trkpt lat="45.57499" lon="4.61339">
        <ele>365.02</ele>
        <time>2020-02-18T15:30:55.001Z</time>
      </trkpt>
      <trkpt lat="45.57508" lon="4.61349">
        <ele>365.74</ele>
        <time>2020-02-18T15:31:05.001Z</time>
      </trkpt>
      <trkpt lat="45.57516" lon="4.61353">
        <ele>364.03</ele>
        <time>2020-02-18T15:31:15.001Z</time>
      </trkpt>
      <trkpt lat="45.57524" lon="4.61361">
        <ele>363.56</ele>
        <time>2020-02-18T15:31:25.001Z</time>
      </trkpt>
      <trkpt lat="45.57536" lon="4.61371">
        <ele>365.74</ele>
        <time>2020-02-18T15:31:35.001Z</time>
      </trkpt>
      <trkpt lat="45.57547" lon="4.6138">
        <ele>367.98</ele>
        <time>2020-02-18T15:31:45.001Z</time>
      </trkpt>
      <trkpt lat="45.57549" lon="4.61387">
        <ele>368.05</ele>
        <time>2020-02-18T15:31:55.001Z</time>
      </trkpt>
      <trkpt lat="45.57542" lon="4.61393">
        <ele>369.67</ele>
        <time>2020-02-18T15:32:05.001Z</time>
      </trkpt>
      <trkpt lat="45.57533" lon="4.61398">
        <ele>366.49</ele>
        <time>2020-02-18T15:32:15.001Z</time>
      </trkpt>
      <trkpt lat="45.57527" lon="4.61406">
        <ele>362.77</ele>
        <time>2020-02-18T15:32:25.001Z</time>
      </trkpt>
      <trkpt lat="45.57522" lon="4.61413">
        <ele>365.1</ele>
        <time>2020-02-18T15:32:35.001Z</time>
      </trkpt>
      <trkpt lat="45.57518" lon="4.61417">
        <ele>365.93</ele>
        <time>2020-02-18T15:32:45.001Z</time>
      </trkpt>
      <trkpt lat="45.5752" lon="4.61427">
        <ele>366.02</ele>
        <time>2020-02-18T15:32:55.001Z</time>
      </trkpt>
      <trkpt lat="45.57521" lon="4.61448">
        <ele>366.6</ele>
        <time>2020-02-18T15:33:05.001Z</time>
      </trkpt>
      <trkpt lat="45.57521" lon="4.61463">
        <ele>365.65</ele>
        <time>2020-02-18T15:33:15.001Z</time>
      </trkpt>
      <trkpt lat="45.57522" lon="4.61476">
        <ele>362.25</ele>
        <time>2020-02-18T15:33:25.001Z</time>
      </trkpt>
      <trkpt lat="45.57522" lon="4.61486">
        <ele>361.87</ele>
        <time>2020-02-18T15:33:35.001Z</time>
      </trkpt>
      <trkpt lat="45.57515" lon="4.6149">
        <ele>361.39</ele>
        <time>2020-02-18T15:33:45.001Z</time>
      </trkpt>
      <trkpt lat="45.57509" lon="4.61494">
        <ele>361.51</ele>
        <time>2020-02-18T15:33:55.001Z</time>
      </trkpt>
      <trkpt lat="45.57511" lon="4.61505">
        <ele>362.86</ele>
        <time>2020-02-18T15:34:05.001Z</time>
      </trkpt>
      <trkpt lat="45.57514" lon="4.61513">
        <ele>360.81</ele>
        <time>2020-02-18T15:34:15.001Z</time>
      </trkpt>
      <trkpt lat="45.5752" lon="4.61523">
        <ele>357.26</ele>
        <time>2020-02-18T15:34:25.001Z</time>
      </trkpt>
      <trkpt lat="45.57524" lon="4.61524">
        <ele>357.26</ele>
        <time>2020-02-18T15:34:35.001Z</time>
      </trkpt>
      <trkpt lat="45.57527" lon="4.61528">
        <ele>356.4</ele>
        <time>2020-02-18T15:34:45.001Z</time>
      </trkpt>
      <trkpt lat="45.5753" lon="4.61528">
        <ele>356.38</ele>
        <time>2020-02-18T15:34:55.001Z</time>
      </trkpt>
      <trkpt lat="45.57536" lon="4.61529">
        <ele>356.96</ele>
        <time>2020-02-18T15:35:05.001Z</time>
      </trkpt>
      <trkpt lat="45.57543" lon="4.6153">
        <ele>357.91</ele>
        <time>2020-02-18T15:35:15.001Z</time>
      </trkpt>
      <trkpt lat="45.57551" lon="4.61527">
        <ele>355.69</ele>
        <time>2020-02-18T15:35:25.001Z</time>
      </trkpt>
      <trkpt lat="45.57558" lon="4.61523">
        <ele>356.1</ele>
        <time>2020-02-18T15:35:35.001Z</time>
      </trkpt>
      <trkpt lat="45.57566" lon="4.61519">
        <ele>356.89</ele>
        <time>2020-02-18T15:35:45.001Z</time>
      </trkpt>
      <trkpt lat="45.57571" lon="4.61516">
        <ele>358.54</ele>
        <time>2020-02-18T15:35:55.001Z</time>
      </trkpt>
      <trkpt lat="45.57575" lon="4.6152">
        <ele>358.6</ele>
        <time>2020-02-18T15:36:05.001Z</time>
      </trkpt>
      <trkpt lat="45.5757" lon="4.61524">
        <ele>357.75</ele>
        <time>2020-02-18T15:36:15.001Z</time>
      </trkpt>
      <trkpt lat="45.57565" lon="4.61527">
        <ele>357.36</ele>
        <time>2020-02-18T15:36:25.001Z</time>
      </trkpt>
      <trkpt lat="45.57562" lon="4.61527">
        <ele>357.22</ele>
        <time>2020-02-18T15:36:35.001Z</time>
      </trkpt>
      <trkpt lat="45.57556" lon="4.61528">
        <ele>357.62</ele>
        <time>2020-02-18T15:36:45.001Z</time>
      </trkpt>
      <trkpt lat="45.57546" lon="4.61532">
        <ele>357.54</ele>
        <time>2020-02-18T15:36:55.001Z</time>
      </trkpt>
      <trkpt lat="45.57536" lon="4.61542">
        <ele>359.26</ele>
        <time>2020-02-18T15:37:05.001Z</time>
      </trkpt>
      <trkpt lat="45.57532" lon="4.61551">
        <ele>359.29</ele>
        <time>2020-02-18T15:37:15.001Z</time>
      </trkpt>
      <trkpt lat="45.57532" lon="4.61558">
        <ele>358.81</ele>
        <time>2020-02-18T15:37:25.001Z</time>
      </trkpt>
      <trkpt lat="45.57531" lon="4.61553">
        <ele>358.81</ele>
        <time>2020-02-18T15:38:03.001Z</time>
      </trkpt>
      <trkpt lat="45.57529" lon="4.61557">
        <ele>358.65</ele>
        <time>2020-02-18T15:38:13.001Z</time>
      </trkpt>
      <trkpt lat="45.57524" lon="4.61569">
        <ele>357.25</ele>
        <time>2020-02-18T15:38:23.001Z</time>
      </trkpt>
      <trkpt lat="45.57517" lon="4.61581">
        <ele>356.86</ele>
        <time>2020-02-18T15:38:33.001Z</time>
      </trkpt>
      <trkpt lat="45.57512" lon="4.61589">
        <ele>356.74</ele>
        <time>2020-02-18T15:38:43.001Z</time>
      </trkpt>
      <trkpt lat="45.57506" lon="4.61607">
        <ele>356.67</ele>
        <time>2020-02-18T15:38:53.001Z</time>
      </trkpt>
      <trkpt lat="45.57497" lon="4.61622">
        <ele>358.21</ele>
        <time>2020-02-18T15:39:03.001Z</time>
      </trkpt>
      <trkpt lat="45.5749" lon="4.61631">
        <ele>356.56</ele>
        <time>2020-02-18T15:39:13.001Z</time>
      </trkpt>
      <trkpt lat="45.57484" lon="4.61635">
        <ele>354.45</ele>
        <time>2020-02-18T15:39:23.001Z</time>
      </trkpt>
      <trkpt lat="45.57476" lon="4.61645">
        <ele>351.25</ele>
        <time>2020-02-18T15:39:33.001Z</time>
      </trkpt>
      <trkpt lat="45.57472" lon="4.61652">
        <ele>349.19</ele>
        <time>2020-02-18T15:39:43.001Z</time>
      </trkpt>
      <trkpt lat="45.57466" lon="4.61662">
        <ele>347.85</ele>
        <time>2020-02-18T15:39:53.001Z</time>
      </trkpt>
      <trkpt lat="45.57462" lon="4.61673">
        <ele>350.83</ele>
        <time>2020-02-18T15:40:03.001Z</time>
      </trkpt>
      <trkpt lat="45.57463" lon="4.61687">
        <ele>351.17</ele>
        <time>2020-02-18T15:40:13.001Z</time>
      </trkpt>
      <trkpt lat="45.57463" lon="4.61692">
        <ele>351.43</ele>
        <time>2020-02-18T15:40:23.001Z</time>
      </trkpt>
      <trkpt lat="45.57465" lon="4.61703">
        <ele>353.85</ele>
        <time>2020-02-18T15:40:33.001Z</time>
      </trkpt>
      <trkpt lat="45.57466" lon="4.61718">
        <ele>355.86</ele>
        <time>2020-02-18T15:40:43.001Z</time>
      </trkpt>
      <trkpt lat="45.57467" lon="4.61729">
        <ele>360.55</ele>
        <time>2020-02-18T15:40:53.001Z</time>
      </trkpt>
      <trkpt lat="45.5747" lon="4.61747">
        <ele>367.57</ele>
        <time>2020-02-18T15:41:03.001Z</time>
      </trkpt>
      <trkpt lat="45.57471" lon="4.61752">
        <ele>369.34</ele>
        <time>2020-02-18T15:41:13.001Z</time>
      </trkpt>
      <trkpt lat="45.57476" lon="4.61759">
        <ele>371.52</ele>
        <time>2020-02-18T15:41:23.001Z</time>
      </trkpt>
      <trkpt lat="45.57481" lon="4.61765">
        <ele>372.43</ele>
        <time>2020-02-18T15:41:33.001Z</time>
      </trkpt>
      <trkpt lat="45.57483" lon="4.61771">
        <ele>373.57</ele>
        <time>2020-02-18T15:41:43.001Z</time>
      </trkpt>
      <trkpt lat="45.57485" lon="4.61774">
        <ele>374.05</ele>
        <time>2020-02-18T15:41:53.001Z</time>
      </trkpt>
      <trkpt lat="45.57492" lon="4.61785">
        <ele>377.05</ele>
        <time>2020-02-18T15:42:03.001Z</time>
      </trkpt>
      <trkpt lat="45.57494" lon="4.61789">
        <ele>377.07</ele>
        <time>2020-02-18T15:42:13.001Z</time>
      </trkpt>
      <trkpt lat="45.57494" lon="4.61786">
        <ele>375.42</ele>
        <time>2020-02-18T15:42:23.001Z</time>
      </trkpt>
      <trkpt lat="45.57494" lon="4.61773">
        <ele>371.41</ele>
        <time>2020-02-18T15:42:33.001Z</time>
      </trkpt>
      <trkpt lat="45.57494" lon="4.6176">
        <ele>371.06</ele>
        <time>2020-02-18T15:42:43.001Z</time>
      </trkpt>
      <trkpt lat="45.57496" lon="4.61751">
        <ele>373.34</ele>
        <time>2020-02-18T15:42:53.001Z</time>
      </trkpt>
      <trkpt lat="45.57498" lon="4.61745">
        <ele>373.57</ele>
        <time>2020-02-18T15:43:03.001Z</time>
      </trkpt>
      <trkpt lat="45.575" lon="4.61742">
        <ele>373.36</ele>
        <time>2020-02-18T15:43:13.001Z</time>
      </trkpt>
      <trkpt lat="45.57504" lon="4.61732">
        <ele>372.99</ele>
        <time>2020-02-18T15:43:23.001Z</time>
      </trkpt>
      <trkpt lat="45.57507" lon="4.61725">
        <ele>374.07</ele>
        <time>2020-02-18T15:43:33.001Z</time>
      </trkpt>
      <trkpt lat="45.5751" lon="4.61721">
        <ele>374.28</ele>
        <time>2020-02-18T15:43:43.001Z</time>
      </trkpt>
      <trkpt lat="45.57512" lon="4.61718">
        <ele>374.15</ele>
        <time>2020-02-18T15:43:53.001Z</time>
      </trkpt>
      <trkpt lat="45.57513" lon="4.61716">
        <ele>373.79</ele>
        <time>2020-02-18T15:44:03.001Z</time>
      </trkpt>
      <trkpt lat="45.57514" lon="4.61715">
        <ele>373.99</ele>
        <time>2020-02-18T15:44:40.001Z</time>
      </trkpt>
      <trkpt lat="45.57515" lon="4.61715">
        <ele>374.4</ele>
        <time>2020-02-18T15:44:50.001Z</time>
      </trkpt>
      <trkpt lat="45.57513" lon="4.61724">
        <ele>375.83</ele>
        <time>2020-02-18T15:45:00.000Z</time>
      </trkpt>
      <trkpt lat="45.57512" lon="4.61729">
        <ele>376.38</ele>
        <time>2020-02-18T15:45:09.001Z</time>
      </trkpt>
      <trkpt lat="45.57505" lon="4.61741">
        <ele>377.56</ele>
        <time>2020-02-18T15:45:19.001Z</time>
      </trkpt>
      <trkpt lat="45.57504" lon="4.6175">
        <ele>382.41</ele>
        <time>2020-02-18T15:45:29.001Z</time>
      </trkpt>
      <trkpt lat="45.57506" lon="4.61765">
        <ele>383.34</ele>
        <time>2020-02-18T15:45:39.001Z</time>
      </trkpt>
      <trkpt lat="45.57509" lon="4.61775">
        <ele>382.73</ele>
        <time>2020-02-18T15:45:49.001Z</time>
      </trkpt>
      <trkpt lat="45.57512" lon="4.6178">
        <ele>382.36</ele>
        <time>2020-02-18T15:45:59.001Z</time>
      </trkpt>
      <trkpt lat="45.57517" lon="4.61784">
        <ele>383.68</ele>
        <time>2020-02-18T15:46:09.001Z</time>
      </trkpt>
      <trkpt lat="45.57518" lon="4.61786">
        <ele>383.75</ele>
        <time>2020-02-18T15:46:19.001Z</time>
      </trkpt>
      <trkpt lat="45.57522" lon="4.61795">
        <ele>384.53</ele>
        <time>2020-02-18T15:46:29.001Z</time>
      </trkpt>
      <trkpt lat="45.57526" lon="4.61802">
        <ele>386.09</ele>
        <time>2020-02-18T15:46:39.001Z</time>
      </trkpt>
      <trkpt lat="45.57531" lon="4.61812">
        <ele>387.43</ele>
        <time>2020-02-18T15:46:49.001Z</time>
      </trkpt>
      <trkpt lat="45.57536" lon="4.61819">
        <ele>389.34</ele>
        <time>2020-02-18T15:46:59.001Z</time>
      </trkpt>
      <trkpt lat="45.5754" lon="4.6183">
        <ele>388.35</ele>
        <time>2020-02-18T15:47:09.001Z</time>
      </trkpt>
      <trkpt lat="45.57548" lon="4.6184">
        <ele>386.66</ele>
        <time>2020-02-18T15:47:19.001Z</time>
      </trkpt>
      <trkpt lat="45.57552" lon="4.61843">
        <ele>387.02</ele>
        <time>2020-02-18T15:47:29.001Z</time>
      </trkpt>
      <trkpt lat="45.57556" lon="4.61849">
        <ele>390.66</ele>
        <time>2020-02-18T15:47:39.001Z</time>
      </trkpt>
      <trkpt lat="45.57559" lon="4.61861">
        <ele>391.52</ele>
        <time>2020-02-18T15:47:49.001Z</time>
      </trkpt>
      <trkpt lat="45.57558" lon="4.61873">
        <ele>395.42</ele>
        <time>2020-02-18T15:47:59.001Z</time>
      </trkpt>
      <trkpt lat="45.5756" lon="4.61886">
        <ele>397.76</ele>
        <time>2020-02-18T15:48:09.001Z</time>
      </trkpt>
      <trkpt lat="45.57561" lon="4.61896">
        <ele>399.3</ele>
        <time>2020-02-18T15:48:19.001Z</time>
      </trkpt>
      <trkpt lat="45.57561" lon="4.61897">
        <ele>400.26</ele>
        <time>2020-02-18T15:48:33.001Z</time>
      </trkpt>
      <trkpt lat="45.57563" lon="4.61908">
        <ele>401.09</ele>
        <time>2020-02-18T15:48:43.001Z</time>
      </trkpt>
      <trkpt lat="45.57565" lon="4.61923">
        <ele>401.86</ele>
        <time>2020-02-18T15:48:53.001Z</time>
      </trkpt>
      <trkpt lat="45.57566" lon="4.61935">
        <ele>402.39</ele>
        <time>2020-02-18T15:49:03.001Z</time>
      </trkpt>
      <trkpt lat="45.57566" lon="4.61947">
        <ele>402.26</ele>
        <time>2020-02-18T15:49:13.001Z</time>
      </trkpt>
      <trkpt lat="45.57565" lon="4.61958">
        <ele>402.38</ele>
        <time>2020-02-18T15:49:23.001Z</time>
      </trkpt>
      <trkpt lat="45.57563" lon="4.6197">
        <ele>403.82</ele>
        <time>2020-02-18T15:49:33.001Z</time>
      </trkpt>
      <trkpt lat="45.57563" lon="4.61983">
        <ele>406.02</ele>
        <time>2020-02-18T15:49:43.001Z</time>
      </trkpt>
      <trkpt lat="45.57564" lon="4.61996">
        <ele>407.02</ele>
        <time>2020-02-18T15:49:53.001Z</time>
      </trkpt>
      <trkpt lat="45.57568" lon="4.62004">
        <ele>409.13</ele>
        <time>2020-02-18T15:50:03.001Z</time>
      </trkpt>
      <trkpt lat="45.57571" lon="4.62014">
        <ele>412.5</ele>
        <time>2020-02-18T15:50:13.001Z</time>
      </trkpt>
      <trkpt lat="45.57574" lon="4.62025">
        <ele>415.25</ele>
        <time>2020-02-18T15:50:23.001Z</time>
      </trkpt>
      <trkpt lat="45.57577" lon="4.62036">
        <ele>414.94</ele>
        <time>2020-02-18T15:50:33.001Z</time>
      </trkpt>
      <trkpt lat="45.57582" lon="4.62044">
        <ele>414.13</ele>
        <time>2020-02-18T15:50:43.001Z</time>
      </trkpt>
      <trkpt lat="45.57587" lon="4.62052">
        <ele>414.51</ele>
        <time>2020-02-18T15:50:53.001Z</time>
      </trkpt>
      <trkpt lat="45.57594" lon="4.62061">
        <ele>415.75</ele>
        <time>2020-02-18T15:51:03.001Z</time>
      </trkpt>
      <trkpt lat="45.576" lon="4.62068">
        <ele>415.12</ele>
        <time>2020-02-18T15:51:13.001Z</time>
      </trkpt>
      <trkpt lat="45.57604" lon="4.62079">
        <ele>414.55</ele>
        <time>2020-02-18T15:51:23.001Z</time>
      </trkpt>
      <trkpt lat="45.57605" lon="4.62092">
        <ele>414.48</ele>
        <time>2020-02-18T15:51:33.001Z</time>
      </trkpt>
      <trkpt lat="45.57604" lon="4.62107">
        <ele>418.85</ele>
        <time>2020-02-18T15:51:43.001Z</time>
      </trkpt>
      <trkpt lat="45.57603" lon="4.6212">
        <ele>422.06</ele>
        <time>2020-02-18T15:51:53.001Z</time>
      </trkpt>
      <trkpt lat="45.57601" lon="4.62135">
        <ele>423.01</ele>
        <time>2020-02-18T15:52:03.001Z</time>
      </trkpt>
      <trkpt lat="45.57598" lon="4.6215">
        <ele>423.93</ele>
        <time>2020-02-18T15:52:13.001Z</time>
      </trkpt>
      <trkpt lat="45.57595" lon="4.62165">
        <ele>424.44</ele>
        <time>2020-02-18T15:52:23.001Z</time>
      </trkpt>
      <trkpt lat="45.57594" lon="4.62179">
        <ele>423.29</ele>
        <time>2020-02-18T15:52:33.001Z</time>
      </trkpt>
      <trkpt lat="45.57595" lon="4.62192">
        <ele>423.26</ele>
        <time>2020-02-18T15:52:43.001Z</time>
      </trkpt>
      <trkpt lat="45.57596" lon="4.62198">
        <ele>422.67</ele>
        <time>2020-02-18T15:52:53.001Z</time>
      </trkpt>
      <trkpt lat="45.57593" lon="4.62206">
        <ele>423.21</ele>
        <time>2020-02-18T15:53:03.001Z</time>
      </trkpt>
      <trkpt lat="45.57587" lon="4.62219">
        <ele>425.23</ele>
        <time>2020-02-18T15:53:13.001Z</time>
      </trkpt>
      <trkpt lat="45.57582" lon="4.62235">
        <ele>426.44</ele>
        <time>2020-02-18T15:53:23.001Z</time>
      </trkpt>
      <trkpt lat="45.57578" lon="4.62252">
        <ele>426.69</ele>
        <time>2020-02-18T15:53:33.001Z</time>
      </trkpt>
      <trkpt lat="45.57575" lon="4.62268">
        <ele>427.63</ele>
        <time>2020-02-18T15:53:43.001Z</time>
      </trkpt>
      <trkpt lat="45.5757" lon="4.62284">
        <ele>427.01</ele>
        <time>2020-02-18T15:53:53.001Z</time>
      </trkpt>
      <trkpt lat="45.57565" lon="4.62298">
        <ele>425.95</ele>
        <time>2020-02-18T15:54:03.001Z</time>
      </trkpt>
      <trkpt lat="45.57561" lon="4.62314">
        <ele>425.68</ele>
        <time>2020-02-18T15:54:13.001Z</time>
      </trkpt>
      <trkpt lat="45.57556" lon="4.6233">
        <ele>424.63</ele>
        <time>2020-02-18T15:54:23.001Z</time>
      </trkpt>
      <trkpt lat="45.57552" lon="4.62347">
        <ele>424.18</ele>
        <time>2020-02-18T15:54:33.001Z</time>
      </trkpt>
      <trkpt lat="45.57547" lon="4.62364">
        <ele>423.56</ele>
        <time>2020-02-18T15:54:43.001Z</time>
      </trkpt>
      <trkpt lat="45.57543" lon="4.62381">
        <ele>425.42</ele>
        <time>2020-02-18T15:54:53.001Z</time>
      </trkpt>
      <trkpt lat="45.57539" lon="4.62398">
        <ele>427.3</ele>
        <time>2020-02-18T15:55:03.001Z</time>
      </trkpt>
      <trkpt lat="45.57536" lon="4.62415">
        <ele>428.42</ele>
        <time>2020-02-18T15:55:13.001Z</time>
      </trkpt>
      <trkpt lat="45.57535" lon="4.62433">
        <ele>428.94</ele>
        <time>2020-02-18T15:55:23.001Z</time>
      </trkpt>
      <trkpt lat="45.57536" lon="4.6245">
        <ele>427.79</ele>
        <time>2020-02-18T15:55:33.001Z</time>
      </trkpt>
      <trkpt lat="45.57539" lon="4.62466">
        <ele>427.49</ele>
        <time>2020-02-18T15:55:43.001Z</time>
      </trkpt>
      <trkpt lat="45.57543" lon="4.62486">
        <ele>426.3</ele>
        <time>2020-02-18T15:55:53.001Z</time>
      </trkpt>
      <trkpt lat="45.57547" lon="4.62505">
        <ele>427.13</ele>
        <time>2020-02-18T15:56:03.001Z</time>
      </trkpt>
      <trkpt lat="45.57551" lon="4.62521">
        <ele>428.77</ele>
        <time>2020-02-18T15:56:13.001Z</time>
      </trkpt>
      <trkpt lat="45.57556" lon="4.62536">
        <ele>431.04</ele>
        <time>2020-02-18T15:56:23.001Z</time>
      </trkpt>
      <trkpt lat="45.57563" lon="4.62553">
        <ele>432.41</ele>
        <time>2020-02-18T15:56:33.001Z</time>
      </trkpt>
      <trkpt lat="45.57568" lon="4.62568">
        <ele>434.09</ele>
        <time>2020-02-18T15:56:43.001Z</time>
      </trkpt>
      <trkpt lat="45.57576" lon="4.62575">
        <ele>433.53</ele>
        <time>2020-02-18T15:56:53.001Z</time>
      </trkpt>
      <trkpt lat="45.5758" lon="4.62567">
        <ele>427.79</ele>
        <time>2020-02-18T15:57:03.001Z</time>
      </trkpt>
      <trkpt lat="45.57585" lon="4.62556">
        <ele>423.98</ele>
        <time>2020-02-18T15:57:13.001Z</time>
      </trkpt>
      <trkpt lat="45.57592" lon="4.62541">
        <ele>426.54</ele>
        <time>2020-02-18T15:57:23.001Z</time>
      </trkpt>
      <trkpt lat="45.57597" lon="4.62526">
        <ele>426.87</ele>
        <time>2020-02-18T15:57:33.001Z</time>
      </trkpt>
      <trkpt lat="45.576" lon="4.62514">
        <ele>426.7</ele>
        <time>2020-02-18T15:57:43.001Z</time>
      </trkpt>
      <trkpt lat="45.57601" lon="4.62499">
        <ele>425.99</ele>
        <time>2020-02-18T15:57:53.001Z</time>
      </trkpt>
      <trkpt lat="45.57603" lon="4.62485">
        <ele>425.34</ele>
        <time>2020-02-18T15:58:03.001Z</time>
      </trkpt>
      <trkpt lat="45.57605" lon="4.62469">
        <ele>424.76</ele>
        <time>2020-02-18T15:58:13.001Z</time>
      </trkpt>
      <trkpt lat="45.57607" lon="4.62457">
        <ele>425.44</ele>
        <time>2020-02-18T15:58:23.001Z</time>
      </trkpt>
      <trkpt lat="45.5761" lon="4.62442">
        <ele>427.88</ele>
        <time>2020-02-18T15:58:33.001Z</time>
      </trkpt>
      <trkpt lat="45.57617" lon="4.62438">
        <ele>428.59</ele>
        <time>2020-02-18T15:58:43.001Z</time>
      </trkpt>
      <trkpt lat="45.57623" lon="4.62439">
        <ele>429.12</ele>
        <time>2020-02-18T15:58:53.001Z</time>
      </trkpt>
      <trkpt lat="45.5763" lon="4.62439">
        <ele>430.59</ele>
        <time>2020-02-18T15:59:03.001Z</time>
      </trkpt>
      <trkpt lat="45.57639" lon="4.62439">
        <ele>432.97</ele>
        <time>2020-02-18T15:59:13.001Z</time>
      </trkpt>
      <trkpt lat="45.57648" lon="4.6244">
        <ele>434.97</ele>
        <time>2020-02-18T15:59:23.001Z</time>
      </trkpt>
      <trkpt lat="45.57656" lon="4.62439">
        <ele>436.35</ele>
        <time>2020-02-18T15:59:33.001Z</time>
      </trkpt>
      <trkpt lat="45.57663" lon="4.62439">
        <ele>436.79</ele>
        <time>2020-02-18T15:59:43.001Z</time>
      </trkpt>
      <trkpt lat="45.57668" lon="4.62436">
        <ele>438.13</ele>
        <time>2020-02-18T15:59:53.001Z</time>
      </trkpt>
      <trkpt lat="45.57674" lon="4.62424">
        <ele>439.2</ele>
        <time>2020-02-18T16:00:03.001Z</time>
      </trkpt>
      <trkpt lat="45.57681" lon="4.62413">
        <ele>439.17</ele>
        <time>2020-02-18T16:00:13.001Z</time>
      </trkpt>
      <trkpt lat="45.57686" lon="4.62403">
        <ele>438.98</ele>
        <time>2020-02-18T16:00:23.001Z</time>
      </trkpt>
      <trkpt lat="45.5769" lon="4.62394">
        <ele>439.4</ele>
        <time>2020-02-18T16:00:33.001Z</time>
      </trkpt>
      <trkpt lat="45.57693" lon="4.62382">
        <ele>441.15</ele>
        <time>2020-02-18T16:00:43.001Z</time>
      </trkpt>
      <trkpt lat="45.57699" lon="4.6237">
        <ele>444.94</ele>
        <time>2020-02-18T16:00:53.001Z</time>
      </trkpt>
      <trkpt lat="45.57704" lon="4.62365">
        <ele>445.12</ele>
        <time>2020-02-18T16:01:03.001Z</time>
      </trkpt>
      <trkpt lat="45.57711" lon="4.62364">
        <ele>444.98</ele>
        <time>2020-02-18T16:01:13.001Z</time>
      </trkpt>
      <trkpt lat="45.57719" lon="4.62362">
        <ele>444.78</ele>
        <time>2020-02-18T16:01:23.001Z</time>
      </trkpt>
      <trkpt lat="45.57726" lon="4.6236">
        <ele>445.51</ele>
        <time>2020-02-18T16:01:33.001Z</time>
      </trkpt>
      <trkpt lat="45.57734" lon="4.62357">
        <ele>447.4</ele>
        <time>2020-02-18T16:01:43.001Z</time>
      </trkpt>
      <trkpt lat="45.57745" lon="4.62353">
        <ele>448.87</ele>
        <time>2020-02-18T16:01:53.001Z</time>
      </trkpt>
      <trkpt lat="45.57752" lon="4.62352">
        <ele>450.88</ele>
        <time>2020-02-18T16:02:03.001Z</time>
      </trkpt>
      <trkpt lat="45.5776" lon="4.62349">
        <ele>451.33</ele>
        <time>2020-02-18T16:02:13.001Z</time>
      </trkpt>
      <trkpt lat="45.57767" lon="4.62347">
        <ele>451.58</ele>
        <time>2020-02-18T16:02:23.001Z</time>
      </trkpt>
      <trkpt lat="45.57775" lon="4.62344">
        <ele>451.56</ele>
        <time>2020-02-18T16:02:33.001Z</time>
      </trkpt>
      <trkpt lat="45.57785" lon="4.62342">
        <ele>452.93</ele>
        <time>2020-02-18T16:02:43.001Z</time>
      </trkpt>
      <trkpt lat="45.57793" lon="4.62341">
        <ele>454.09</ele>
        <time>2020-02-18T16:02:53.001Z</time>
      </trkpt>
      <trkpt lat="45.57795" lon="4.62343">
        <ele>454.09</ele>
        <time>2020-02-18T16:03:03.001Z</time>
      </trkpt>
      <trkpt lat="45.57796" lon="4.62341">
        <ele>454.57</ele>
        <time>2020-02-18T16:03:13.001Z</time>
      </trkpt>
      <trkpt lat="45.57795" lon="4.6234">
        <ele>454.57</ele>
        <time>2020-02-18T16:03:55.001Z</time>
      </trkpt>
      <trkpt lat="45.57796" lon="4.62346">
        <ele>455.85</ele>
        <time>2020-02-18T16:04:05.001Z</time>
      </trkpt>
      <trkpt lat="45.57795" lon="4.62347">
        <ele>456.01</ele>
        <time>2020-02-18T16:04:15.001Z</time>
      </trkpt>
      <trkpt lat="45.5779" lon="4.62356">
        <ele>455.32</ele>
        <time>2020-02-18T16:04:25.001Z</time>
      </trkpt>
      <trkpt lat="45.57786" lon="4.62371">
        <ele>456.39</ele>
        <time>2020-02-18T16:04:35.001Z</time>
      </trkpt>
      <trkpt lat="45.57782" lon="4.62385">
        <ele>456.37</ele>
        <time>2020-02-18T16:04:45.001Z</time>
      </trkpt>
      <trkpt lat="45.57778" lon="4.62396">
        <ele>457.1</ele>
        <time>2020-02-18T16:04:55.001Z</time>
      </trkpt>
      <trkpt lat="45.57773" lon="4.62411">
        <ele>459.38</ele>
        <time>2020-02-18T16:05:05.001Z</time>
      </trkpt>
      <trkpt lat="45.57767" lon="4.62427">
        <ele>462.71</ele>
        <time>2020-02-18T16:05:15.001Z</time>
      </trkpt>
      <trkpt lat="45.57761" lon="4.62442">
        <ele>465.28</ele>
        <time>2020-02-18T16:05:25.001Z</time>
      </trkpt>
      <trkpt lat="45.57757" lon="4.62459">
        <ele>467.87</ele>
        <time>2020-02-18T16:05:35.001Z</time>
      </trkpt>
      <trkpt lat="45.57755" lon="4.62477">
        <ele>469.43</ele>
        <time>2020-02-18T16:05:45.001Z</time>
      </trkpt>
      <trkpt lat="45.57755" lon="4.62495">
        <ele>468.15</ele>
        <time>2020-02-18T16:05:55.001Z</time>
      </trkpt>
      <trkpt lat="45.57755" lon="4.6251">
        <ele>469.09</ele>
        <time>2020-02-18T16:06:05.001Z</time>
      </trkpt>
      <trkpt lat="45.57756" lon="4.62528">
        <ele>469.6</ele>
        <time>2020-02-18T16:06:15.001Z</time>
      </trkpt>
      <trkpt lat="45.57758" lon="4.62543">
        <ele>469.37</ele>
        <time>2020-02-18T16:06:25.001Z</time>
      </trkpt>
      <trkpt lat="45.57759" lon="4.62557">
        <ele>468.07</ele>
        <time>2020-02-18T16:06:35.001Z</time>
      </trkpt>
      <trkpt lat="45.5776" lon="4.62573">
        <ele>467.6</ele>
        <time>2020-02-18T16:06:45.001Z</time>
      </trkpt>
      <trkpt lat="45.57762" lon="4.6259">
        <ele>466.35</ele>
        <time>2020-02-18T16:06:55.001Z</time>
      </trkpt>
      <trkpt lat="45.57765" lon="4.62604">
        <ele>466.1</ele>
        <time>2020-02-18T16:07:05.001Z</time>
      </trkpt>
      <trkpt lat="45.57768" lon="4.62618">
        <ele>465.93</ele>
        <time>2020-02-18T16:07:15.001Z</time>
      </trkpt>
      <trkpt lat="45.57771" lon="4.62632">
        <ele>465.13</ele>
        <time>2020-02-18T16:07:25.001Z</time>
      </trkpt>
      <trkpt lat="45.57776" lon="4.62646">
        <ele>465.34</ele>
        <time>2020-02-18T16:07:35.001Z</time>
      </trkpt>
      <trkpt lat="45.57781" lon="4.62663">
        <ele>464.98</ele>
        <time>2020-02-18T16:07:45.001Z</time>
      </trkpt>
      <trkpt lat="45.57784" lon="4.62674">
        <ele>467.45</ele>
        <time>2020-02-18T16:07:55.001Z</time>
      </trkpt>
      <trkpt lat="45.57785" lon="4.62682">
        <ele>467.91</ele>
        <time>2020-02-18T16:08:05.001Z</time>
      </trkpt>
      <trkpt lat="45.5779" lon="4.62696">
        <ele>469.52</ele>
        <time>2020-02-18T16:08:15.001Z</time>
      </trkpt>
      <trkpt lat="45.57797" lon="4.6271">
        <ele>470</ele>
        <time>2020-02-18T16:08:25.001Z</time>
      </trkpt>
      <trkpt lat="45.57804" lon="4.62724">
        <ele>470.32</ele>
        <time>2020-02-18T16:08:35.001Z</time>
      </trkpt>
      <trkpt lat="45.57809" lon="4.62738">
        <ele>471.14</ele>
        <time>2020-02-18T16:08:45.001Z</time>
      </trkpt>
      <trkpt lat="45.57814" lon="4.62752">
        <ele>469.33</ele>
        <time>2020-02-18T16:08:55.001Z</time>
      </trkpt>
      <trkpt lat="45.57818" lon="4.62764">
        <ele>466.68</ele>
        <time>2020-02-18T16:09:05.001Z</time>
      </trkpt>
      <trkpt lat="45.57824" lon="4.6278">
        <ele>463.71</ele>
        <time>2020-02-18T16:09:15.001Z</time>
      </trkpt>
      <trkpt lat="45.57829" lon="4.62794">
        <ele>461.41</ele>
        <time>2020-02-18T16:09:25.001Z</time>
      </trkpt>
      <trkpt lat="45.57833" lon="4.62808">
        <ele>461.99</ele>
        <time>2020-02-18T16:09:35.001Z</time>
      </trkpt>
      <trkpt lat="45.57837" lon="4.62821">
        <ele>462.2</ele>
        <time>2020-02-18T16:09:45.001Z</time>
      </trkpt>
      <trkpt lat="45.57841" lon="4.62835">
        <ele>461.24</ele>
        <time>2020-02-18T16:09:55.001Z</time>
      </trkpt>
      <trkpt lat="45.57845" lon="4.6285">
        <ele>459.33</ele>
        <time>2020-02-18T16:10:05.001Z</time>
      </trkpt>
      <trkpt lat="45.57848" lon="4.62864">
        <ele>460.26</ele>
        <time>2020-02-18T16:10:15.001Z</time>
      </trkpt>
      <trkpt lat="45.57852" lon="4.62878">
        <ele>459.19</ele>
        <time>2020-02-18T16:10:25.001Z</time>
      </trkpt>
      <trkpt lat="45.57855" lon="4.62893">
        <ele>458.62</ele>
        <time>2020-02-18T16:10:35.001Z</time>
      </trkpt>
      <trkpt lat="45.57861" lon="4.62906">
        <ele>458.35</ele>
        <time>2020-02-18T16:10:45.001Z</time>
      </trkpt>
      <trkpt lat="45.57866" lon="4.62916">
        <ele>459.38</ele>
        <time>2020-02-18T16:10:55.001Z</time>
      </trkpt>
      <trkpt lat="45.57874" lon="4.62927">
        <ele>460.77</ele>
        <time>2020-02-18T16:11:05.001Z</time>
      </trkpt>
      <trkpt lat="45.57883" lon="4.62938">
        <ele>461.71</ele>
        <time>2020-02-18T16:11:15.001Z</time>
      </trkpt>
      <trkpt lat="45.57891" lon="4.62948">
        <ele>461.91</ele>
        <time>2020-02-18T16:11:25.001Z</time>
      </trkpt>
      <trkpt lat="45.57896" lon="4.6296">
        <ele>462.64</ele>
        <time>2020-02-18T16:11:35.001Z</time>
      </trkpt>
      <trkpt lat="45.579" lon="4.62973">
        <ele>459.97</ele>
        <time>2020-02-18T16:11:45.001Z</time>
      </trkpt>
      <trkpt lat="45.57907" lon="4.62987">
        <ele>458.18</ele>
        <time>2020-02-18T16:11:55.001Z</time>
      </trkpt>
      <trkpt lat="45.57916" lon="4.62996">
        <ele>459.18</ele>
        <time>2020-02-18T16:12:05.001Z</time>
      </trkpt>
      <trkpt lat="45.57925" lon="4.63001">
        <ele>459.94</ele>
        <time>2020-02-18T16:12:15.001Z</time>
      </trkpt>
      <trkpt lat="45.57935" lon="4.63007">
        <ele>459.45</ele>
        <time>2020-02-18T16:12:25.001Z</time>
      </trkpt>
      <trkpt lat="45.57946" lon="4.63013">
        <ele>460.22</ele>
        <time>2020-02-18T16:12:35.001Z</time>
      </trkpt>
      <trkpt lat="45.57958" lon="4.63016">
        <ele>459.26</ele>
        <time>2020-02-18T16:12:45.001Z</time>
      </trkpt>
      <trkpt lat="45.57967" lon="4.63019">
        <ele>457.22</ele>
        <time>2020-02-18T16:12:55.001Z</time>
      </trkpt>
      <trkpt lat="45.57977" lon="4.63023">
        <ele>458.77</ele>
        <time>2020-02-18T16:13:05.001Z</time>
      </trkpt>
      <trkpt lat="45.57987" lon="4.63027">
        <ele>459.77</ele>
        <time>2020-02-18T16:13:15.001Z</time>
      </trkpt>
      <trkpt lat="45.57997" lon="4.63032">
        <ele>459.3</ele>
        <time>2020-02-18T16:13:25.001Z</time>
      </trkpt>
      <trkpt lat="45.58009" lon="4.63038">
        <ele>459.98</ele>
        <time>2020-02-18T16:13:35.001Z</time>
      </trkpt>
      <trkpt lat="45.58019" lon="4.63044">
        <ele>459.6</ele>
        <time>2020-02-18T16:13:45.001Z</time>
      </trkpt>
      <trkpt lat="45.58017" lon="4.63046">
        <ele>459.53</ele>
        <time>2020-02-18T16:13:55.001Z</time>
      </trkpt>
      <trkpt lat="45.58017" lon="4.63049">
        <ele>458.87</ele>
        <time>2020-02-18T16:14:05.001Z</time>
      </trkpt>
      <trkpt lat="45.58011" lon="4.63052">
        <ele>460.2</ele>
        <time>2020-02-18T16:14:15.001Z</time>
      </trkpt>
      <trkpt lat="45.58001" lon="4.6305">
        <ele>462.28</ele>
        <time>2020-02-18T16:14:25.001Z</time>
      </trkpt>
      <trkpt lat="45.57991" lon="4.63048">
        <ele>463.9</ele>
        <time>2020-02-18T16:14:35.001Z</time>
      </trkpt>
      <trkpt lat="45.57981" lon="4.63047">
        <ele>462.69</ele>
        <time>2020-02-18T16:14:45.001Z</time>
      </trkpt>
      <trkpt lat="45.5797" lon="4.6305">
        <ele>459.82</ele>
        <time>2020-02-18T16:14:55.001Z</time>
      </trkpt>
      <trkpt lat="45.57958" lon="4.63061">
        <ele>457.43</ele>
        <time>2020-02-18T16:15:05.001Z</time>
      </trkpt>
      <trkpt lat="45.57943" lon="4.63074">
        <ele>453.1</ele>
        <time>2020-02-18T16:15:15.001Z</time>
      </trkpt>
      <trkpt lat="45.57937" lon="4.6308">
        <ele>453.38</ele>
        <time>2020-02-18T16:15:20.001Z</time>
      </trkpt>
    </trkseg>
  </trk>
</gpx>